<?xml version="1.0" encoding="UTF-8" standalone="no" ?>
<gpx xmlns="http://www.topografix.com/GPX/1/1" xmlns:xsi="http://www.w3.org/2001/XMLSchema-instance" xsi:schemaLocation="http://www.topografix.com/GPX/1/1 http://www.topografix.com/GPX/1/1/gpx.xsd" version="1.1" creator="VisuGPX - https://www.visugpx.com">
  <metadata>
    <name>La Charmée </name>
    <desc><![CDATA[Avec Olivier ! Très roulant avec une bonne moyenne]]></desc>
  </metadata>
  <trk>
    <name><![CDATA[La Charmée _1]]></name>
    <trkseg>
      <trkpt lat="46.72142" lon="4.7937">
        <ele>186</ele>
        <time>2012-11-04T07:45:47.000Z</time>
      </trkpt>
      <trkpt lat="46.72141" lon="4.79367">
        <ele>186</ele>
        <time>2012-11-04T07:46:47.000Z</time>
      </trkpt>
      <trkpt lat="46.72147" lon="4.79363">
        <ele>186</ele>
        <time>2012-11-04T07:46:50.000Z</time>
      </trkpt>
      <trkpt lat="46.72146" lon="4.79378">
        <ele>186</ele>
        <time>2012-11-04T07:46:53.000Z</time>
      </trkpt>
      <trkpt lat="46.72141" lon="4.79381">
        <ele>186</ele>
        <time>2012-11-04T07:46:55.000Z</time>
      </trkpt>
      <trkpt lat="46.72129" lon="4.79387">
        <ele>186</ele>
        <time>2012-11-04T07:47:00.000Z</time>
      </trkpt>
      <trkpt lat="46.72126" lon="4.7939">
        <ele>186</ele>
        <time>2012-11-04T07:47:03.000Z</time>
      </trkpt>
      <trkpt lat="46.72128" lon="4.79397">
        <ele>186</ele>
        <time>2012-11-04T07:47:06.000Z</time>
      </trkpt>
      <trkpt lat="46.72124" lon="4.79405">
        <ele>186</ele>
        <time>2012-11-04T07:47:08.000Z</time>
      </trkpt>
      <trkpt lat="46.72116" lon="4.79409">
        <ele>186</ele>
        <time>2012-11-04T07:47:11.000Z</time>
      </trkpt>
      <trkpt lat="46.7211" lon="4.7941">
        <ele>187</ele>
        <time>2012-11-04T07:47:13.000Z</time>
      </trkpt>
      <trkpt lat="46.72103" lon="4.79412">
        <ele>187</ele>
        <time>2012-11-04T07:47:15.000Z</time>
      </trkpt>
      <trkpt lat="46.72077" lon="4.7942">
        <ele>188</ele>
        <time>2012-11-04T07:47:24.000Z</time>
      </trkpt>
      <trkpt lat="46.72066" lon="4.79417">
        <ele>188</ele>
        <time>2012-11-04T07:47:27.000Z</time>
      </trkpt>
      <trkpt lat="46.72046" lon="4.79415">
        <ele>189</ele>
        <time>2012-11-04T07:47:33.000Z</time>
      </trkpt>
      <trkpt lat="46.72035" lon="4.79409">
        <ele>189</ele>
        <time>2012-11-04T07:47:36.000Z</time>
      </trkpt>
      <trkpt lat="46.72028" lon="4.79404">
        <ele>189</ele>
        <time>2012-11-04T07:47:38.000Z</time>
      </trkpt>
      <trkpt lat="46.72013" lon="4.79393">
        <ele>190</ele>
        <time>2012-11-04T07:47:43.000Z</time>
      </trkpt>
      <trkpt lat="46.7201" lon="4.79388">
        <ele>190</ele>
        <time>2012-11-04T07:47:45.000Z</time>
      </trkpt>
      <trkpt lat="46.71996" lon="4.79369">
        <ele>191</ele>
        <time>2012-11-04T07:47:52.000Z</time>
      </trkpt>
      <trkpt lat="46.71991" lon="4.79359">
        <ele>191</ele>
        <time>2012-11-04T07:47:55.000Z</time>
      </trkpt>
      <trkpt lat="46.71983" lon="4.79352">
        <ele>191</ele>
        <time>2012-11-04T07:47:58.000Z</time>
      </trkpt>
      <trkpt lat="46.71973" lon="4.7935">
        <ele>191</ele>
        <time>2012-11-04T07:48:01.000Z</time>
      </trkpt>
      <trkpt lat="46.71966" lon="4.79351">
        <ele>191</ele>
        <time>2012-11-04T07:48:03.000Z</time>
      </trkpt>
      <trkpt lat="46.71954" lon="4.79353">
        <ele>192</ele>
        <time>2012-11-04T07:48:06.000Z</time>
      </trkpt>
      <trkpt lat="46.71947" lon="4.79355">
        <ele>192</ele>
        <time>2012-11-04T07:48:08.000Z</time>
      </trkpt>
      <trkpt lat="46.71941" lon="4.79359">
        <ele>192</ele>
        <time>2012-11-04T07:48:10.000Z</time>
      </trkpt>
      <trkpt lat="46.71909" lon="4.79373">
        <ele>192</ele>
        <time>2012-11-04T07:48:19.000Z</time>
      </trkpt>
      <trkpt lat="46.719" lon="4.79374">
        <ele>191</ele>
        <time>2012-11-04T07:48:21.000Z</time>
      </trkpt>
      <trkpt lat="46.71851" lon="4.79377">
        <ele>190</ele>
        <time>2012-11-04T07:48:31.000Z</time>
      </trkpt>
      <trkpt lat="46.71826" lon="4.7938">
        <ele>189</ele>
        <time>2012-11-04T07:48:36.000Z</time>
      </trkpt>
      <trkpt lat="46.71811" lon="4.79379">
        <ele>189</ele>
        <time>2012-11-04T07:48:39.000Z</time>
      </trkpt>
      <trkpt lat="46.71786" lon="4.79376">
        <ele>188</ele>
        <time>2012-11-04T07:48:44.000Z</time>
      </trkpt>
      <trkpt lat="46.71777" lon="4.79372">
        <ele>188</ele>
        <time>2012-11-04T07:48:46.000Z</time>
      </trkpt>
      <trkpt lat="46.71766" lon="4.79372">
        <ele>188</ele>
        <time>2012-11-04T07:48:49.000Z</time>
      </trkpt>
      <trkpt lat="46.71737" lon="4.79369">
        <ele>187</ele>
        <time>2012-11-04T07:48:56.000Z</time>
      </trkpt>
      <trkpt lat="46.71705" lon="4.7936">
        <ele>187</ele>
        <time>2012-11-04T07:49:01.000Z</time>
      </trkpt>
      <trkpt lat="46.71691" lon="4.7934">
        <ele>187</ele>
        <time>2012-11-04T07:49:04.000Z</time>
      </trkpt>
      <trkpt lat="46.71681" lon="4.79331">
        <ele>187</ele>
        <time>2012-11-04T07:49:06.000Z</time>
      </trkpt>
      <trkpt lat="46.71674" lon="4.79327">
        <ele>187</ele>
        <time>2012-11-04T07:49:08.000Z</time>
      </trkpt>
      <trkpt lat="46.71636" lon="4.79314">
        <ele>187</ele>
        <time>2012-11-04T07:49:16.000Z</time>
      </trkpt>
      <trkpt lat="46.71624" lon="4.79314">
        <ele>187</ele>
        <time>2012-11-04T07:49:19.000Z</time>
      </trkpt>
      <trkpt lat="46.71606" lon="4.79307">
        <ele>187</ele>
        <time>2012-11-04T07:49:22.000Z</time>
      </trkpt>
      <trkpt lat="46.71591" lon="4.79306">
        <ele>187</ele>
        <time>2012-11-04T07:49:25.000Z</time>
      </trkpt>
      <trkpt lat="46.71581" lon="4.79308">
        <ele>187</ele>
        <time>2012-11-04T07:49:27.000Z</time>
      </trkpt>
      <trkpt lat="46.71569" lon="4.79307">
        <ele>187</ele>
        <time>2012-11-04T07:49:29.000Z</time>
      </trkpt>
      <trkpt lat="46.71555" lon="4.79311">
        <ele>187</ele>
        <time>2012-11-04T07:49:32.000Z</time>
      </trkpt>
      <trkpt lat="46.71537" lon="4.79312">
        <ele>187</ele>
        <time>2012-11-04T07:49:35.000Z</time>
      </trkpt>
      <trkpt lat="46.71519" lon="4.79314">
        <ele>188</ele>
        <time>2012-11-04T07:49:38.000Z</time>
      </trkpt>
      <trkpt lat="46.71493" lon="4.79321">
        <ele>188</ele>
        <time>2012-11-04T07:49:43.000Z</time>
      </trkpt>
      <trkpt lat="46.71481" lon="4.79332">
        <ele>189</ele>
        <time>2012-11-04T07:49:46.000Z</time>
      </trkpt>
      <trkpt lat="46.71477" lon="4.79338">
        <ele>189</ele>
        <time>2012-11-04T07:49:49.000Z</time>
      </trkpt>
      <trkpt lat="46.71477" lon="4.79334">
        <ele>189</ele>
        <time>2012-11-04T07:49:53.000Z</time>
      </trkpt>
      <trkpt lat="46.71478" lon="4.79333">
        <ele>189</ele>
        <time>2012-11-04T07:49:55.000Z</time>
      </trkpt>
      <trkpt lat="46.71423" lon="4.79318">
        <ele>190</ele>
        <time>2012-11-04T07:50:02.000Z</time>
      </trkpt>
      <trkpt lat="46.71394" lon="4.79314">
        <ele>191</ele>
        <time>2012-11-04T07:50:07.000Z</time>
      </trkpt>
      <trkpt lat="46.71367" lon="4.79311">
        <ele>192</ele>
        <time>2012-11-04T07:50:12.000Z</time>
      </trkpt>
      <trkpt lat="46.71343" lon="4.79312">
        <ele>192</ele>
        <time>2012-11-04T07:50:17.000Z</time>
      </trkpt>
      <trkpt lat="46.71335" lon="4.79312">
        <ele>193</ele>
        <time>2012-11-04T07:50:19.000Z</time>
      </trkpt>
      <trkpt lat="46.71317" lon="4.79314">
        <ele>194</ele>
        <time>2012-11-04T07:50:24.000Z</time>
      </trkpt>
      <trkpt lat="46.71288" lon="4.79321">
        <ele>195</ele>
        <time>2012-11-04T07:50:31.000Z</time>
      </trkpt>
      <trkpt lat="46.71255" lon="4.79329">
        <ele>196</ele>
        <time>2012-11-04T07:50:40.000Z</time>
      </trkpt>
      <trkpt lat="46.71247" lon="4.79328">
        <ele>196</ele>
        <time>2012-11-04T07:50:42.000Z</time>
      </trkpt>
      <trkpt lat="46.71236" lon="4.79328">
        <ele>197</ele>
        <time>2012-11-04T07:50:45.000Z</time>
      </trkpt>
      <trkpt lat="46.71205" lon="4.79329">
        <ele>198</ele>
        <time>2012-11-04T07:50:54.000Z</time>
      </trkpt>
      <trkpt lat="46.71186" lon="4.79328">
        <ele>198</ele>
        <time>2012-11-04T07:50:58.000Z</time>
      </trkpt>
      <trkpt lat="46.71175" lon="4.79329">
        <ele>198</ele>
        <time>2012-11-04T07:51:01.000Z</time>
      </trkpt>
      <trkpt lat="46.71165" lon="4.79329">
        <ele>199</ele>
        <time>2012-11-04T07:51:04.000Z</time>
      </trkpt>
      <trkpt lat="46.71134" lon="4.79332">
        <ele>200</ele>
        <time>2012-11-04T07:51:12.000Z</time>
      </trkpt>
      <trkpt lat="46.7112" lon="4.79341">
        <ele>200</ele>
        <time>2012-11-04T07:51:15.000Z</time>
      </trkpt>
      <trkpt lat="46.71103" lon="4.79349">
        <ele>200</ele>
        <time>2012-11-04T07:51:18.000Z</time>
      </trkpt>
      <trkpt lat="46.71097" lon="4.79351">
        <ele>200</ele>
        <time>2012-11-04T07:51:20.000Z</time>
      </trkpt>
      <trkpt lat="46.71068" lon="4.79362">
        <ele>200</ele>
        <time>2012-11-04T07:51:29.000Z</time>
      </trkpt>
      <trkpt lat="46.7104" lon="4.79372">
        <ele>201</ele>
        <time>2012-11-04T07:51:37.000Z</time>
      </trkpt>
      <trkpt lat="46.71031" lon="4.79374">
        <ele>201</ele>
        <time>2012-11-04T07:51:40.000Z</time>
      </trkpt>
      <trkpt lat="46.71025" lon="4.79378">
        <ele>201</ele>
        <time>2012-11-04T07:51:42.000Z</time>
      </trkpt>
      <trkpt lat="46.71017" lon="4.79386">
        <ele>202</ele>
        <time>2012-11-04T07:51:45.000Z</time>
      </trkpt>
      <trkpt lat="46.71" lon="4.79403">
        <ele>203</ele>
        <time>2012-11-04T07:51:50.000Z</time>
      </trkpt>
      <trkpt lat="46.70992" lon="4.79408">
        <ele>203</ele>
        <time>2012-11-04T07:51:52.000Z</time>
      </trkpt>
      <trkpt lat="46.70944" lon="4.79439">
        <ele>203</ele>
        <time>2012-11-04T07:52:03.000Z</time>
      </trkpt>
      <trkpt lat="46.70903" lon="4.7946">
        <ele>202</ele>
        <time>2012-11-04T07:52:13.000Z</time>
      </trkpt>
      <trkpt lat="46.70842" lon="4.79496">
        <ele>202</ele>
        <time>2012-11-04T07:52:26.000Z</time>
      </trkpt>
      <trkpt lat="46.70798" lon="4.79535">
        <ele>201</ele>
        <time>2012-11-04T07:52:32.000Z</time>
      </trkpt>
      <trkpt lat="46.7078" lon="4.79539">
        <ele>201</ele>
        <time>2012-11-04T07:52:35.000Z</time>
      </trkpt>
      <trkpt lat="46.70754" lon="4.79548">
        <ele>202</ele>
        <time>2012-11-04T07:52:40.000Z</time>
      </trkpt>
      <trkpt lat="46.70744" lon="4.79556">
        <ele>202</ele>
        <time>2012-11-04T07:52:43.000Z</time>
      </trkpt>
      <trkpt lat="46.70732" lon="4.79563">
        <ele>202</ele>
        <time>2012-11-04T07:52:46.000Z</time>
      </trkpt>
      <trkpt lat="46.70689" lon="4.79588">
        <ele>202</ele>
        <time>2012-11-04T07:52:57.000Z</time>
      </trkpt>
      <trkpt lat="46.70645" lon="4.79615">
        <ele>202</ele>
        <time>2012-11-04T07:53:07.000Z</time>
      </trkpt>
      <trkpt lat="46.70603" lon="4.79642">
        <ele>201</ele>
        <time>2012-11-04T07:53:13.000Z</time>
      </trkpt>
      <trkpt lat="46.70567" lon="4.79665">
        <ele>200</ele>
        <time>2012-11-04T07:53:20.000Z</time>
      </trkpt>
      <trkpt lat="46.70474" lon="4.797">
        <ele>200</ele>
        <time>2012-11-04T07:53:34.000Z</time>
      </trkpt>
      <trkpt lat="46.7044" lon="4.79716">
        <ele>199</ele>
        <time>2012-11-04T07:53:42.000Z</time>
      </trkpt>
      <trkpt lat="46.70428" lon="4.7972">
        <ele>199</ele>
        <time>2012-11-04T07:53:45.000Z</time>
      </trkpt>
      <trkpt lat="46.70415" lon="4.79727">
        <ele>199</ele>
        <time>2012-11-04T07:53:48.000Z</time>
      </trkpt>
      <trkpt lat="46.70406" lon="4.79732">
        <ele>200</ele>
        <time>2012-11-04T07:53:50.000Z</time>
      </trkpt>
      <trkpt lat="46.70361" lon="4.79752">
        <ele>200</ele>
        <time>2012-11-04T07:54:00.000Z</time>
      </trkpt>
      <trkpt lat="46.70334" lon="4.7976">
        <ele>201</ele>
        <time>2012-11-04T07:54:05.000Z</time>
      </trkpt>
      <trkpt lat="46.70319" lon="4.79766">
        <ele>201</ele>
        <time>2012-11-04T07:54:08.000Z</time>
      </trkpt>
      <trkpt lat="46.70306" lon="4.79775">
        <ele>201</ele>
        <time>2012-11-04T07:54:11.000Z</time>
      </trkpt>
      <trkpt lat="46.70296" lon="4.79777">
        <ele>202</ele>
        <time>2012-11-04T07:54:13.000Z</time>
      </trkpt>
      <trkpt lat="46.70286" lon="4.79784">
        <ele>203</ele>
        <time>2012-11-04T07:54:16.000Z</time>
      </trkpt>
      <trkpt lat="46.7027" lon="4.79792">
        <ele>204</ele>
        <time>2012-11-04T07:54:21.000Z</time>
      </trkpt>
      <trkpt lat="46.70263" lon="4.79795">
        <ele>204</ele>
        <time>2012-11-04T07:54:23.000Z</time>
      </trkpt>
      <trkpt lat="46.70253" lon="4.79799">
        <ele>205</ele>
        <time>2012-11-04T07:54:26.000Z</time>
      </trkpt>
      <trkpt lat="46.70237" lon="4.79798">
        <ele>206</ele>
        <time>2012-11-04T07:54:32.000Z</time>
      </trkpt>
      <trkpt lat="46.70229" lon="4.79788">
        <ele>206</ele>
        <time>2012-11-04T07:54:35.000Z</time>
      </trkpt>
      <trkpt lat="46.70226" lon="4.79781">
        <ele>207</ele>
        <time>2012-11-04T07:54:37.000Z</time>
      </trkpt>
      <trkpt lat="46.70221" lon="4.79769">
        <ele>207</ele>
        <time>2012-11-04T07:54:40.000Z</time>
      </trkpt>
      <trkpt lat="46.70215" lon="4.79759">
        <ele>207</ele>
        <time>2012-11-04T07:54:43.000Z</time>
      </trkpt>
      <trkpt lat="46.70209" lon="4.79753">
        <ele>208</ele>
        <time>2012-11-04T07:54:45.000Z</time>
      </trkpt>
      <trkpt lat="46.70199" lon="4.79747">
        <ele>208</ele>
        <time>2012-11-04T07:54:48.000Z</time>
      </trkpt>
      <trkpt lat="46.70185" lon="4.7974">
        <ele>209</ele>
        <time>2012-11-04T07:54:53.000Z</time>
      </trkpt>
      <trkpt lat="46.7018" lon="4.79736">
        <ele>209</ele>
        <time>2012-11-04T07:54:55.000Z</time>
      </trkpt>
      <trkpt lat="46.70176" lon="4.7973">
        <ele>210</ele>
        <time>2012-11-04T07:54:57.000Z</time>
      </trkpt>
      <trkpt lat="46.70138" lon="4.79674">
        <ele>210</ele>
        <time>2012-11-04T07:55:15.000Z</time>
      </trkpt>
      <trkpt lat="46.70127" lon="4.79657">
        <ele>211</ele>
        <time>2012-11-04T07:55:18.000Z</time>
      </trkpt>
      <trkpt lat="46.70109" lon="4.79615">
        <ele>211</ele>
        <time>2012-11-04T07:55:26.000Z</time>
      </trkpt>
      <trkpt lat="46.70103" lon="4.79598">
        <ele>212</ele>
        <time>2012-11-04T07:55:29.000Z</time>
      </trkpt>
      <trkpt lat="46.70078" lon="4.79544">
        <ele>212</ele>
        <time>2012-11-04T07:55:38.000Z</time>
      </trkpt>
      <trkpt lat="46.70071" lon="4.79533">
        <ele>212</ele>
        <time>2012-11-04T07:55:40.000Z</time>
      </trkpt>
      <trkpt lat="46.70061" lon="4.7952">
        <ele>213</ele>
        <time>2012-11-04T07:55:43.000Z</time>
      </trkpt>
      <trkpt lat="46.70047" lon="4.79507">
        <ele>213</ele>
        <time>2012-11-04T07:55:46.000Z</time>
      </trkpt>
      <trkpt lat="46.70031" lon="4.79487">
        <ele>213</ele>
        <time>2012-11-04T07:55:50.000Z</time>
      </trkpt>
      <trkpt lat="46.70024" lon="4.79476">
        <ele>213</ele>
        <time>2012-11-04T07:55:52.000Z</time>
      </trkpt>
      <trkpt lat="46.7" lon="4.79442">
        <ele>212</ele>
        <time>2012-11-04T07:55:58.000Z</time>
      </trkpt>
      <trkpt lat="46.69969" lon="4.79393">
        <ele>211</ele>
        <time>2012-11-04T07:56:07.000Z</time>
      </trkpt>
      <trkpt lat="46.69935" lon="4.79327">
        <ele>210</ele>
        <time>2012-11-04T07:56:17.000Z</time>
      </trkpt>
      <trkpt lat="46.69896" lon="4.79254">
        <ele>210</ele>
        <time>2012-11-04T07:56:26.000Z</time>
      </trkpt>
      <trkpt lat="46.69864" lon="4.79207">
        <ele>210</ele>
        <time>2012-11-04T07:56:36.000Z</time>
      </trkpt>
      <trkpt lat="46.69854" lon="4.79197">
        <ele>210</ele>
        <time>2012-11-04T07:56:39.000Z</time>
      </trkpt>
      <trkpt lat="46.69847" lon="4.79193">
        <ele>210</ele>
        <time>2012-11-04T07:56:41.000Z</time>
      </trkpt>
      <trkpt lat="46.69835" lon="4.79187">
        <ele>210</ele>
        <time>2012-11-04T07:56:44.000Z</time>
      </trkpt>
      <trkpt lat="46.69822" lon="4.79179">
        <ele>210</ele>
        <time>2012-11-04T07:56:47.000Z</time>
      </trkpt>
      <trkpt lat="46.6981" lon="4.79169">
        <ele>210</ele>
        <time>2012-11-04T07:56:50.000Z</time>
      </trkpt>
      <trkpt lat="46.69804" lon="4.79162">
        <ele>210</ele>
        <time>2012-11-04T07:56:52.000Z</time>
      </trkpt>
      <trkpt lat="46.69802" lon="4.7915">
        <ele>211</ele>
        <time>2012-11-04T07:56:55.000Z</time>
      </trkpt>
      <trkpt lat="46.69802" lon="4.79146">
        <ele>211</ele>
        <time>2012-11-04T07:56:57.000Z</time>
      </trkpt>
      <trkpt lat="46.69801" lon="4.79147">
        <ele>211</ele>
        <time>2012-11-04T07:57:00.000Z</time>
      </trkpt>
      <trkpt lat="46.69801" lon="4.79149">
        <ele>211</ele>
        <time>2012-11-04T07:57:02.000Z</time>
      </trkpt>
      <trkpt lat="46.69802" lon="4.79155">
        <ele>211</ele>
        <time>2012-11-04T07:57:05.000Z</time>
      </trkpt>
      <trkpt lat="46.69801" lon="4.79161">
        <ele>211</ele>
        <time>2012-11-04T07:57:07.000Z</time>
      </trkpt>
      <trkpt lat="46.69797" lon="4.79179">
        <ele>211</ele>
        <time>2012-11-04T07:57:12.000Z</time>
      </trkpt>
      <trkpt lat="46.69778" lon="4.79254">
        <ele>211</ele>
        <time>2012-11-04T07:57:32.000Z</time>
      </trkpt>
      <trkpt lat="46.69775" lon="4.79263">
        <ele>212</ele>
        <time>2012-11-04T07:57:34.000Z</time>
      </trkpt>
      <trkpt lat="46.69765" lon="4.79298">
        <ele>212</ele>
        <time>2012-11-04T07:57:42.000Z</time>
      </trkpt>
      <trkpt lat="46.69745" lon="4.79363">
        <ele>212</ele>
        <time>2012-11-04T07:57:54.000Z</time>
      </trkpt>
      <trkpt lat="46.69731" lon="4.7943">
        <ele>212</ele>
        <time>2012-11-04T07:58:09.000Z</time>
      </trkpt>
      <trkpt lat="46.6973" lon="4.79443">
        <ele>212</ele>
        <time>2012-11-04T07:58:12.000Z</time>
      </trkpt>
      <trkpt lat="46.69724" lon="4.79513">
        <ele>212</ele>
        <time>2012-11-04T07:58:23.000Z</time>
      </trkpt>
      <trkpt lat="46.697" lon="4.79585">
        <ele>212</ele>
        <time>2012-11-04T07:58:30.000Z</time>
      </trkpt>
      <trkpt lat="46.69687" lon="4.79611">
        <ele>212</ele>
        <time>2012-11-04T07:58:33.000Z</time>
      </trkpt>
      <trkpt lat="46.69682" lon="4.7963">
        <ele>212</ele>
        <time>2012-11-04T07:58:35.000Z</time>
      </trkpt>
      <trkpt lat="46.69684" lon="4.79643">
        <ele>212</ele>
        <time>2012-11-04T07:58:37.000Z</time>
      </trkpt>
      <trkpt lat="46.69682" lon="4.79657">
        <ele>211</ele>
        <time>2012-11-04T07:58:39.000Z</time>
      </trkpt>
      <trkpt lat="46.69681" lon="4.79675">
        <ele>211</ele>
        <time>2012-11-04T07:58:42.000Z</time>
      </trkpt>
      <trkpt lat="46.69676" lon="4.79686">
        <ele>210</ele>
        <time>2012-11-04T07:58:44.000Z</time>
      </trkpt>
      <trkpt lat="46.69634" lon="4.7973">
        <ele>209</ele>
        <time>2012-11-04T07:58:51.000Z</time>
      </trkpt>
      <trkpt lat="46.69613" lon="4.79725">
        <ele>208</ele>
        <time>2012-11-04T07:58:54.000Z</time>
      </trkpt>
      <trkpt lat="46.69598" lon="4.79726">
        <ele>208</ele>
        <time>2012-11-04T07:58:57.000Z</time>
      </trkpt>
      <trkpt lat="46.69585" lon="4.79731">
        <ele>208</ele>
        <time>2012-11-04T07:59:00.000Z</time>
      </trkpt>
      <trkpt lat="46.69574" lon="4.7973">
        <ele>208</ele>
        <time>2012-11-04T07:59:02.000Z</time>
      </trkpt>
      <trkpt lat="46.69564" lon="4.79731">
        <ele>208</ele>
        <time>2012-11-04T07:59:04.000Z</time>
      </trkpt>
      <trkpt lat="46.69554" lon="4.79733">
        <ele>208</ele>
        <time>2012-11-04T07:59:06.000Z</time>
      </trkpt>
      <trkpt lat="46.6954" lon="4.79738">
        <ele>208</ele>
        <time>2012-11-04T07:59:09.000Z</time>
      </trkpt>
      <trkpt lat="46.69526" lon="4.79747">
        <ele>208</ele>
        <time>2012-11-04T07:59:12.000Z</time>
      </trkpt>
      <trkpt lat="46.69516" lon="4.79751">
        <ele>209</ele>
        <time>2012-11-04T07:59:14.000Z</time>
      </trkpt>
      <trkpt lat="46.69509" lon="4.79767">
        <ele>209</ele>
        <time>2012-11-04T07:59:17.000Z</time>
      </trkpt>
      <trkpt lat="46.69495" lon="4.7979">
        <ele>209</ele>
        <time>2012-11-04T07:59:22.000Z</time>
      </trkpt>
      <trkpt lat="46.69493" lon="4.79809">
        <ele>209</ele>
        <time>2012-11-04T07:59:25.000Z</time>
      </trkpt>
      <trkpt lat="46.69491" lon="4.79869">
        <ele>209</ele>
        <time>2012-11-04T07:59:35.000Z</time>
      </trkpt>
      <trkpt lat="46.69494" lon="4.79895">
        <ele>210</ele>
        <time>2012-11-04T07:59:40.000Z</time>
      </trkpt>
      <trkpt lat="46.69493" lon="4.79923">
        <ele>210</ele>
        <time>2012-11-04T07:59:44.000Z</time>
      </trkpt>
      <trkpt lat="46.69491" lon="4.79941">
        <ele>211</ele>
        <time>2012-11-04T07:59:47.000Z</time>
      </trkpt>
      <trkpt lat="46.69487" lon="4.79966">
        <ele>212</ele>
        <time>2012-11-04T07:59:52.000Z</time>
      </trkpt>
      <trkpt lat="46.69485" lon="4.80011">
        <ele>213</ele>
        <time>2012-11-04T08:00:00.000Z</time>
      </trkpt>
      <trkpt lat="46.69475" lon="4.80088">
        <ele>213</ele>
        <time>2012-11-04T08:00:13.000Z</time>
      </trkpt>
      <trkpt lat="46.69465" lon="4.80161">
        <ele>213</ele>
        <time>2012-11-04T08:00:24.000Z</time>
      </trkpt>
      <trkpt lat="46.69458" lon="4.80207">
        <ele>214</ele>
        <time>2012-11-04T08:00:32.000Z</time>
      </trkpt>
      <trkpt lat="46.69455" lon="4.80219">
        <ele>214</ele>
        <time>2012-11-04T08:00:34.000Z</time>
      </trkpt>
      <trkpt lat="46.69449" lon="4.80262">
        <ele>214</ele>
        <time>2012-11-04T08:00:40.000Z</time>
      </trkpt>
      <trkpt lat="46.69438" lon="4.80333">
        <ele>214</ele>
        <time>2012-11-04T08:00:51.000Z</time>
      </trkpt>
      <trkpt lat="46.69433" lon="4.80346">
        <ele>215</ele>
        <time>2012-11-04T08:00:53.000Z</time>
      </trkpt>
      <trkpt lat="46.69417" lon="4.80405">
        <ele>214</ele>
        <time>2012-11-04T08:01:04.000Z</time>
      </trkpt>
      <trkpt lat="46.69402" lon="4.80487">
        <ele>214</ele>
        <time>2012-11-04T08:01:15.000Z</time>
      </trkpt>
      <trkpt lat="46.69392" lon="4.80553">
        <ele>215</ele>
        <time>2012-11-04T08:01:26.000Z</time>
      </trkpt>
      <trkpt lat="46.69382" lon="4.80619">
        <ele>215</ele>
        <time>2012-11-04T08:01:41.000Z</time>
      </trkpt>
      <trkpt lat="46.6938" lon="4.80626">
        <ele>216</ele>
        <time>2012-11-04T08:01:43.000Z</time>
      </trkpt>
      <trkpt lat="46.69378" lon="4.80639">
        <ele>216</ele>
        <time>2012-11-04T08:01:46.000Z</time>
      </trkpt>
      <trkpt lat="46.6937" lon="4.80705">
        <ele>216</ele>
        <time>2012-11-04T08:02:01.000Z</time>
      </trkpt>
      <trkpt lat="46.69366" lon="4.80719">
        <ele>216</ele>
        <time>2012-11-04T08:02:04.000Z</time>
      </trkpt>
      <trkpt lat="46.69361" lon="4.80733">
        <ele>215</ele>
        <time>2012-11-04T08:02:07.000Z</time>
      </trkpt>
      <trkpt lat="46.69345" lon="4.80807">
        <ele>215</ele>
        <time>2012-11-04T08:02:20.000Z</time>
      </trkpt>
      <trkpt lat="46.69339" lon="4.80833">
        <ele>214</ele>
        <time>2012-11-04T08:02:24.000Z</time>
      </trkpt>
      <trkpt lat="46.69336" lon="4.80875">
        <ele>214</ele>
        <time>2012-11-04T08:02:32.000Z</time>
      </trkpt>
      <trkpt lat="46.69334" lon="4.80892">
        <ele>213</ele>
        <time>2012-11-04T08:02:35.000Z</time>
      </trkpt>
      <trkpt lat="46.69329" lon="4.80934">
        <ele>212</ele>
        <time>2012-11-04T08:02:42.000Z</time>
      </trkpt>
      <trkpt lat="46.69322" lon="4.80959">
        <ele>212</ele>
        <time>2012-11-04T08:02:45.000Z</time>
      </trkpt>
      <trkpt lat="46.69316" lon="4.8098">
        <ele>211</ele>
        <time>2012-11-04T08:02:48.000Z</time>
      </trkpt>
      <trkpt lat="46.69308" lon="4.80997">
        <ele>211</ele>
        <time>2012-11-04T08:02:50.000Z</time>
      </trkpt>
      <trkpt lat="46.69302" lon="4.81014">
        <ele>210</ele>
        <time>2012-11-04T08:02:52.000Z</time>
      </trkpt>
      <trkpt lat="46.69277" lon="4.81068">
        <ele>209</ele>
        <time>2012-11-04T08:03:00.000Z</time>
      </trkpt>
      <trkpt lat="46.69254" lon="4.81104">
        <ele>209</ele>
        <time>2012-11-04T08:03:04.000Z</time>
      </trkpt>
      <trkpt lat="46.6924" lon="4.8113">
        <ele>209</ele>
        <time>2012-11-04T08:03:07.000Z</time>
      </trkpt>
      <trkpt lat="46.69231" lon="4.81151">
        <ele>208</ele>
        <time>2012-11-04T08:03:09.000Z</time>
      </trkpt>
      <trkpt lat="46.69201" lon="4.81226">
        <ele>207</ele>
        <time>2012-11-04T08:03:19.000Z</time>
      </trkpt>
      <trkpt lat="46.69189" lon="4.81264">
        <ele>206</ele>
        <time>2012-11-04T08:03:24.000Z</time>
      </trkpt>
      <trkpt lat="46.69175" lon="4.81291">
        <ele>206</ele>
        <time>2012-11-04T08:03:27.000Z</time>
      </trkpt>
      <trkpt lat="46.6916" lon="4.81303">
        <ele>206</ele>
        <time>2012-11-04T08:03:30.000Z</time>
      </trkpt>
      <trkpt lat="46.69146" lon="4.8132">
        <ele>205</ele>
        <time>2012-11-04T08:03:33.000Z</time>
      </trkpt>
      <trkpt lat="46.69135" lon="4.81345">
        <ele>205</ele>
        <time>2012-11-04T08:03:36.000Z</time>
      </trkpt>
      <trkpt lat="46.69128" lon="4.81368">
        <ele>205</ele>
        <time>2012-11-04T08:03:38.000Z</time>
      </trkpt>
      <trkpt lat="46.6912" lon="4.81386">
        <ele>205</ele>
        <time>2012-11-04T08:03:40.000Z</time>
      </trkpt>
      <trkpt lat="46.69103" lon="4.81413">
        <ele>205</ele>
        <time>2012-11-04T08:03:43.000Z</time>
      </trkpt>
      <trkpt lat="46.69078" lon="4.81473">
        <ele>205</ele>
        <time>2012-11-04T08:03:53.000Z</time>
      </trkpt>
      <trkpt lat="46.69069" lon="4.81493">
        <ele>204</ele>
        <time>2012-11-04T08:03:56.000Z</time>
      </trkpt>
      <trkpt lat="46.69062" lon="4.81514">
        <ele>204</ele>
        <time>2012-11-04T08:03:59.000Z</time>
      </trkpt>
      <trkpt lat="46.69007" lon="4.81615">
        <ele>203</ele>
        <time>2012-11-04T08:04:10.000Z</time>
      </trkpt>
      <trkpt lat="46.68996" lon="4.81629">
        <ele>203</ele>
        <time>2012-11-04T08:04:12.000Z</time>
      </trkpt>
      <trkpt lat="46.68987" lon="4.81646">
        <ele>202</ele>
        <time>2012-11-04T08:04:14.000Z</time>
      </trkpt>
      <trkpt lat="46.68967" lon="4.81688">
        <ele>201</ele>
        <time>2012-11-04T08:04:18.000Z</time>
      </trkpt>
      <trkpt lat="46.68935" lon="4.81748">
        <ele>200</ele>
        <time>2012-11-04T08:04:25.000Z</time>
      </trkpt>
      <trkpt lat="46.68877" lon="4.81834">
        <ele>199</ele>
        <time>2012-11-04T08:04:33.000Z</time>
      </trkpt>
      <trkpt lat="46.68864" lon="4.8185">
        <ele>198</ele>
        <time>2012-11-04T08:04:36.000Z</time>
      </trkpt>
      <trkpt lat="46.68842" lon="4.81871">
        <ele>197</ele>
        <time>2012-11-04T08:04:39.000Z</time>
      </trkpt>
      <trkpt lat="46.68837" lon="4.81887">
        <ele>195</ele>
        <time>2012-11-04T08:04:41.000Z</time>
      </trkpt>
      <trkpt lat="46.6883" lon="4.81901">
        <ele>193</ele>
        <time>2012-11-04T08:04:43.000Z</time>
      </trkpt>
      <trkpt lat="46.68816" lon="4.81916">
        <ele>192</ele>
        <time>2012-11-04T08:04:46.000Z</time>
      </trkpt>
      <trkpt lat="46.68804" lon="4.81934">
        <ele>192</ele>
        <time>2012-11-04T08:04:49.000Z</time>
      </trkpt>
      <trkpt lat="46.68763" lon="4.82003">
        <ele>191</ele>
        <time>2012-11-04T08:04:59.000Z</time>
      </trkpt>
      <trkpt lat="46.68719" lon="4.8207">
        <ele>190</ele>
        <time>2012-11-04T08:05:08.000Z</time>
      </trkpt>
      <trkpt lat="46.68689" lon="4.82125">
        <ele>190</ele>
        <time>2012-11-04T08:05:16.000Z</time>
      </trkpt>
      <trkpt lat="46.68664" lon="4.82166">
        <ele>189</ele>
        <time>2012-11-04T08:05:21.000Z</time>
      </trkpt>
      <trkpt lat="46.68635" lon="4.8222">
        <ele>188</ele>
        <time>2012-11-04T08:05:28.000Z</time>
      </trkpt>
      <trkpt lat="46.68607" lon="4.82273">
        <ele>188</ele>
        <time>2012-11-04T08:05:35.000Z</time>
      </trkpt>
      <trkpt lat="46.68574" lon="4.82336">
        <ele>188</ele>
        <time>2012-11-04T08:05:43.000Z</time>
      </trkpt>
      <trkpt lat="46.68562" lon="4.82352">
        <ele>188</ele>
        <time>2012-11-04T08:05:45.000Z</time>
      </trkpt>
      <trkpt lat="46.68553" lon="4.82376">
        <ele>187</ele>
        <time>2012-11-04T08:05:48.000Z</time>
      </trkpt>
      <trkpt lat="46.68524" lon="4.82441">
        <ele>186</ele>
        <time>2012-11-04T08:05:56.000Z</time>
      </trkpt>
      <trkpt lat="46.68501" lon="4.82446">
        <ele>186</ele>
        <time>2012-11-04T08:05:59.000Z</time>
      </trkpt>
      <trkpt lat="46.68491" lon="4.82442">
        <ele>186</ele>
        <time>2012-11-04T08:06:01.000Z</time>
      </trkpt>
      <trkpt lat="46.68482" lon="4.82435">
        <ele>186</ele>
        <time>2012-11-04T08:06:03.000Z</time>
      </trkpt>
      <trkpt lat="46.6846" lon="4.82421">
        <ele>186</ele>
        <time>2012-11-04T08:06:08.000Z</time>
      </trkpt>
      <trkpt lat="46.68439" lon="4.82398">
        <ele>186</ele>
        <time>2012-11-04T08:06:11.000Z</time>
      </trkpt>
      <trkpt lat="46.68417" lon="4.82379">
        <ele>186</ele>
        <time>2012-11-04T08:06:16.000Z</time>
      </trkpt>
      <trkpt lat="46.68402" lon="4.82367">
        <ele>187</ele>
        <time>2012-11-04T08:06:19.000Z</time>
      </trkpt>
      <trkpt lat="46.6836" lon="4.8234">
        <ele>186</ele>
        <time>2012-11-04T08:06:26.000Z</time>
      </trkpt>
      <trkpt lat="46.68351" lon="4.82328">
        <ele>186</ele>
        <time>2012-11-04T08:06:28.000Z</time>
      </trkpt>
      <trkpt lat="46.68333" lon="4.82313">
        <ele>186</ele>
        <time>2012-11-04T08:06:31.000Z</time>
      </trkpt>
      <trkpt lat="46.68321" lon="4.82295">
        <ele>185</ele>
        <time>2012-11-04T08:06:34.000Z</time>
      </trkpt>
      <trkpt lat="46.68307" lon="4.82279">
        <ele>185</ele>
        <time>2012-11-04T08:06:37.000Z</time>
      </trkpt>
      <trkpt lat="46.68301" lon="4.82266">
        <ele>186</ele>
        <time>2012-11-04T08:06:39.000Z</time>
      </trkpt>
      <trkpt lat="46.68292" lon="4.82252">
        <ele>186</ele>
        <time>2012-11-04T08:06:41.000Z</time>
      </trkpt>
      <trkpt lat="46.68266" lon="4.8222">
        <ele>187</ele>
        <time>2012-11-04T08:06:48.000Z</time>
      </trkpt>
      <trkpt lat="46.68265" lon="4.82197">
        <ele>187</ele>
        <time>2012-11-04T08:06:51.000Z</time>
      </trkpt>
      <trkpt lat="46.68253" lon="4.82189">
        <ele>187</ele>
        <time>2012-11-04T08:06:53.000Z</time>
      </trkpt>
      <trkpt lat="46.68245" lon="4.82179">
        <ele>187</ele>
        <time>2012-11-04T08:06:56.000Z</time>
      </trkpt>
      <trkpt lat="46.68236" lon="4.82173">
        <ele>187</ele>
        <time>2012-11-04T08:06:58.000Z</time>
      </trkpt>
      <trkpt lat="46.68201" lon="4.8213">
        <ele>187</ele>
        <time>2012-11-04T08:07:03.000Z</time>
      </trkpt>
      <trkpt lat="46.68174" lon="4.82103">
        <ele>186</ele>
        <time>2012-11-04T08:07:08.000Z</time>
      </trkpt>
      <trkpt lat="46.68167" lon="4.82093">
        <ele>186</ele>
        <time>2012-11-04T08:07:10.000Z</time>
      </trkpt>
      <trkpt lat="46.68151" lon="4.82083">
        <ele>185</ele>
        <time>2012-11-04T08:07:13.000Z</time>
      </trkpt>
      <trkpt lat="46.68143" lon="4.82072">
        <ele>185</ele>
        <time>2012-11-04T08:07:15.000Z</time>
      </trkpt>
      <trkpt lat="46.68105" lon="4.82025">
        <ele>186</ele>
        <time>2012-11-04T08:07:24.000Z</time>
      </trkpt>
      <trkpt lat="46.68069" lon="4.81977">
        <ele>186</ele>
        <time>2012-11-04T08:07:32.000Z</time>
      </trkpt>
      <trkpt lat="46.68062" lon="4.8197">
        <ele>186</ele>
        <time>2012-11-04T08:07:34.000Z</time>
      </trkpt>
      <trkpt lat="46.68044" lon="4.81959">
        <ele>187</ele>
        <time>2012-11-04T08:07:37.000Z</time>
      </trkpt>
      <trkpt lat="46.68036" lon="4.81945">
        <ele>187</ele>
        <time>2012-11-04T08:07:39.000Z</time>
      </trkpt>
      <trkpt lat="46.68002" lon="4.81895">
        <ele>187</ele>
        <time>2012-11-04T08:07:48.000Z</time>
      </trkpt>
      <trkpt lat="46.67985" lon="4.81862">
        <ele>188</ele>
        <time>2012-11-04T08:07:53.000Z</time>
      </trkpt>
      <trkpt lat="46.67976" lon="4.81855">
        <ele>188</ele>
        <time>2012-11-04T08:07:56.000Z</time>
      </trkpt>
      <trkpt lat="46.67968" lon="4.8185">
        <ele>188</ele>
        <time>2012-11-04T08:07:58.000Z</time>
      </trkpt>
      <trkpt lat="46.67961" lon="4.81845">
        <ele>188</ele>
        <time>2012-11-04T08:08:00.000Z</time>
      </trkpt>
      <trkpt lat="46.67928" lon="4.81813">
        <ele>188</ele>
        <time>2012-11-04T08:08:16.000Z</time>
      </trkpt>
      <trkpt lat="46.67921" lon="4.81804">
        <ele>188</ele>
        <time>2012-11-04T08:08:19.000Z</time>
      </trkpt>
      <trkpt lat="46.67914" lon="4.81795">
        <ele>187</ele>
        <time>2012-11-04T08:08:22.000Z</time>
      </trkpt>
      <trkpt lat="46.67904" lon="4.81784">
        <ele>187</ele>
        <time>2012-11-04T08:08:26.000Z</time>
      </trkpt>
      <trkpt lat="46.67897" lon="4.81776">
        <ele>187</ele>
        <time>2012-11-04T08:08:28.000Z</time>
      </trkpt>
      <trkpt lat="46.67889" lon="4.81763">
        <ele>188</ele>
        <time>2012-11-04T08:08:31.000Z</time>
      </trkpt>
      <trkpt lat="46.67881" lon="4.81754">
        <ele>188</ele>
        <time>2012-11-04T08:08:34.000Z</time>
      </trkpt>
      <trkpt lat="46.6787" lon="4.81749">
        <ele>188</ele>
        <time>2012-11-04T08:08:37.000Z</time>
      </trkpt>
      <trkpt lat="46.67861" lon="4.81741">
        <ele>188</ele>
        <time>2012-11-04T08:08:40.000Z</time>
      </trkpt>
      <trkpt lat="46.67853" lon="4.81729">
        <ele>188</ele>
        <time>2012-11-04T08:08:43.000Z</time>
      </trkpt>
      <trkpt lat="46.67848" lon="4.81719">
        <ele>188</ele>
        <time>2012-11-04T08:08:45.000Z</time>
      </trkpt>
      <trkpt lat="46.67841" lon="4.81704">
        <ele>189</ele>
        <time>2012-11-04T08:08:48.000Z</time>
      </trkpt>
      <trkpt lat="46.67835" lon="4.81695">
        <ele>189</ele>
        <time>2012-11-04T08:08:51.000Z</time>
      </trkpt>
      <trkpt lat="46.67824" lon="4.81683">
        <ele>190</ele>
        <time>2012-11-04T08:08:55.000Z</time>
      </trkpt>
      <trkpt lat="46.67803" lon="4.81665">
        <ele>190</ele>
        <time>2012-11-04T08:09:03.000Z</time>
      </trkpt>
      <trkpt lat="46.67793" lon="4.81651">
        <ele>190</ele>
        <time>2012-11-04T08:09:08.000Z</time>
      </trkpt>
      <trkpt lat="46.67787" lon="4.81637">
        <ele>190</ele>
        <time>2012-11-04T08:09:11.000Z</time>
      </trkpt>
      <trkpt lat="46.67768" lon="4.81602">
        <ele>189</ele>
        <time>2012-11-04T08:09:19.000Z</time>
      </trkpt>
      <trkpt lat="46.67763" lon="4.81587">
        <ele>189</ele>
        <time>2012-11-04T08:09:23.000Z</time>
      </trkpt>
      <trkpt lat="46.67759" lon="4.81567">
        <ele>189</ele>
        <time>2012-11-04T08:09:26.000Z</time>
      </trkpt>
      <trkpt lat="46.67752" lon="4.81541">
        <ele>190</ele>
        <time>2012-11-04T08:09:31.000Z</time>
      </trkpt>
      <trkpt lat="46.67745" lon="4.81506">
        <ele>191</ele>
        <time>2012-11-04T08:09:39.000Z</time>
      </trkpt>
      <trkpt lat="46.67727" lon="4.81445">
        <ele>191</ele>
        <time>2012-11-04T08:09:49.000Z</time>
      </trkpt>
      <trkpt lat="46.67702" lon="4.81384">
        <ele>191</ele>
        <time>2012-11-04T08:10:03.000Z</time>
      </trkpt>
      <trkpt lat="46.67698" lon="4.81367">
        <ele>190</ele>
        <time>2012-11-04T08:10:06.000Z</time>
      </trkpt>
      <trkpt lat="46.67686" lon="4.81317">
        <ele>191</ele>
        <time>2012-11-04T08:10:15.000Z</time>
      </trkpt>
      <trkpt lat="46.67679" lon="4.81304">
        <ele>191</ele>
        <time>2012-11-04T08:10:18.000Z</time>
      </trkpt>
      <trkpt lat="46.67669" lon="4.81279">
        <ele>191</ele>
        <time>2012-11-04T08:10:23.000Z</time>
      </trkpt>
      <trkpt lat="46.67666" lon="4.81269">
        <ele>191</ele>
        <time>2012-11-04T08:10:25.000Z</time>
      </trkpt>
      <trkpt lat="46.67663" lon="4.81261">
        <ele>192</ele>
        <time>2012-11-04T08:10:27.000Z</time>
      </trkpt>
      <trkpt lat="46.67658" lon="4.81251">
        <ele>192</ele>
        <time>2012-11-04T08:10:30.000Z</time>
      </trkpt>
      <trkpt lat="46.67647" lon="4.81224">
        <ele>192</ele>
        <time>2012-11-04T08:10:37.000Z</time>
      </trkpt>
      <trkpt lat="46.67638" lon="4.81198">
        <ele>193</ele>
        <time>2012-11-04T08:10:45.000Z</time>
      </trkpt>
      <trkpt lat="46.67608" lon="4.81132">
        <ele>193</ele>
        <time>2012-11-04T08:11:04.000Z</time>
      </trkpt>
      <trkpt lat="46.67606" lon="4.81124">
        <ele>193</ele>
        <time>2012-11-04T08:11:06.000Z</time>
      </trkpt>
      <trkpt lat="46.6759" lon="4.81089">
        <ele>194</ele>
        <time>2012-11-04T08:11:14.000Z</time>
      </trkpt>
      <trkpt lat="46.67567" lon="4.81021">
        <ele>194</ele>
        <time>2012-11-04T08:11:29.000Z</time>
      </trkpt>
      <trkpt lat="46.67541" lon="4.80948">
        <ele>194</ele>
        <time>2012-11-04T08:11:45.000Z</time>
      </trkpt>
      <trkpt lat="46.67539" lon="4.80936">
        <ele>193</ele>
        <time>2012-11-04T08:11:47.000Z</time>
      </trkpt>
      <trkpt lat="46.67531" lon="4.80889">
        <ele>192</ele>
        <time>2012-11-04T08:11:56.000Z</time>
      </trkpt>
      <trkpt lat="46.67531" lon="4.80886">
        <ele>192</ele>
        <time>2012-11-04T08:12:02.000Z</time>
      </trkpt>
      <trkpt lat="46.67529" lon="4.80891">
        <ele>192</ele>
        <time>2012-11-04T08:12:04.000Z</time>
      </trkpt>
      <trkpt lat="46.67525" lon="4.80904">
        <ele>192</ele>
        <time>2012-11-04T08:12:07.000Z</time>
      </trkpt>
      <trkpt lat="46.67521" lon="4.80919">
        <ele>191</ele>
        <time>2012-11-04T08:12:10.000Z</time>
      </trkpt>
      <trkpt lat="46.67518" lon="4.80926">
        <ele>191</ele>
        <time>2012-11-04T08:12:12.000Z</time>
      </trkpt>
      <trkpt lat="46.67515" lon="4.80937">
        <ele>191</ele>
        <time>2012-11-04T08:12:15.000Z</time>
      </trkpt>
      <trkpt lat="46.67509" lon="4.80946">
        <ele>191</ele>
        <time>2012-11-04T08:12:18.000Z</time>
      </trkpt>
      <trkpt lat="46.67498" lon="4.80967">
        <ele>190</ele>
        <time>2012-11-04T08:12:24.000Z</time>
      </trkpt>
      <trkpt lat="46.67469" lon="4.81022">
        <ele>190</ele>
        <time>2012-11-04T08:12:39.000Z</time>
      </trkpt>
      <trkpt lat="46.67458" lon="4.81037">
        <ele>189</ele>
        <time>2012-11-04T08:12:42.000Z</time>
      </trkpt>
      <trkpt lat="46.67421" lon="4.81075">
        <ele>189</ele>
        <time>2012-11-04T08:12:49.000Z</time>
      </trkpt>
      <trkpt lat="46.67408" lon="4.81085">
        <ele>188</ele>
        <time>2012-11-04T08:12:51.000Z</time>
      </trkpt>
      <trkpt lat="46.67389" lon="4.81108">
        <ele>188</ele>
        <time>2012-11-04T08:12:56.000Z</time>
      </trkpt>
      <trkpt lat="46.67382" lon="4.8112">
        <ele>188</ele>
        <time>2012-11-04T08:12:58.000Z</time>
      </trkpt>
      <trkpt lat="46.67364" lon="4.81142">
        <ele>188</ele>
        <time>2012-11-04T08:13:03.000Z</time>
      </trkpt>
      <trkpt lat="46.67326" lon="4.81192">
        <ele>188</ele>
        <time>2012-11-04T08:13:14.000Z</time>
      </trkpt>
      <trkpt lat="46.6731" lon="4.81221">
        <ele>187</ele>
        <time>2012-11-04T08:13:19.000Z</time>
      </trkpt>
      <trkpt lat="46.67286" lon="4.8126">
        <ele>186</ele>
        <time>2012-11-04T08:13:27.000Z</time>
      </trkpt>
      <trkpt lat="46.67268" lon="4.81274">
        <ele>186</ele>
        <time>2012-11-04T08:13:30.000Z</time>
      </trkpt>
      <trkpt lat="46.67259" lon="4.81286">
        <ele>186</ele>
        <time>2012-11-04T08:13:32.000Z</time>
      </trkpt>
      <trkpt lat="46.67244" lon="4.81296">
        <ele>186</ele>
        <time>2012-11-04T08:13:35.000Z</time>
      </trkpt>
      <trkpt lat="46.67231" lon="4.81309">
        <ele>186</ele>
        <time>2012-11-04T08:13:38.000Z</time>
      </trkpt>
      <trkpt lat="46.67213" lon="4.81326">
        <ele>185</ele>
        <time>2012-11-04T08:13:42.000Z</time>
      </trkpt>
      <trkpt lat="46.67204" lon="4.8134">
        <ele>186</ele>
        <time>2012-11-04T08:13:45.000Z</time>
      </trkpt>
      <trkpt lat="46.6719" lon="4.81352">
        <ele>186</ele>
        <time>2012-11-04T08:13:48.000Z</time>
      </trkpt>
      <trkpt lat="46.67183" lon="4.81361">
        <ele>186</ele>
        <time>2012-11-04T08:13:50.000Z</time>
      </trkpt>
      <trkpt lat="46.67164" lon="4.81381">
        <ele>186</ele>
        <time>2012-11-04T08:13:55.000Z</time>
      </trkpt>
      <trkpt lat="46.67149" lon="4.814">
        <ele>187</ele>
        <time>2012-11-04T08:13:58.000Z</time>
      </trkpt>
      <trkpt lat="46.67143" lon="4.81412">
        <ele>187</ele>
        <time>2012-11-04T08:14:00.000Z</time>
      </trkpt>
      <trkpt lat="46.67134" lon="4.81427">
        <ele>187</ele>
        <time>2012-11-04T08:14:03.000Z</time>
      </trkpt>
      <trkpt lat="46.67102" lon="4.81474">
        <ele>187</ele>
        <time>2012-11-04T08:14:11.000Z</time>
      </trkpt>
      <trkpt lat="46.67068" lon="4.81529">
        <ele>187</ele>
        <time>2012-11-04T08:14:20.000Z</time>
      </trkpt>
      <trkpt lat="46.67048" lon="4.81564">
        <ele>188</ele>
        <time>2012-11-04T08:14:25.000Z</time>
      </trkpt>
      <trkpt lat="46.67005" lon="4.81636">
        <ele>188</ele>
        <time>2012-11-04T08:14:35.000Z</time>
      </trkpt>
      <trkpt lat="46.66986" lon="4.81668">
        <ele>187</ele>
        <time>2012-11-04T08:14:39.000Z</time>
      </trkpt>
      <trkpt lat="46.66962" lon="4.81706">
        <ele>186</ele>
        <time>2012-11-04T08:14:44.000Z</time>
      </trkpt>
      <trkpt lat="46.66943" lon="4.8174">
        <ele>185</ele>
        <time>2012-11-04T08:14:48.000Z</time>
      </trkpt>
      <trkpt lat="46.66932" lon="4.81757">
        <ele>183</ele>
        <time>2012-11-04T08:14:50.000Z</time>
      </trkpt>
      <trkpt lat="46.66925" lon="4.81804">
        <ele>182</ele>
        <time>2012-11-04T08:14:53.000Z</time>
      </trkpt>
      <trkpt lat="46.66917" lon="4.81821">
        <ele>181</ele>
        <time>2012-11-04T08:14:55.000Z</time>
      </trkpt>
      <trkpt lat="46.66908" lon="4.81847">
        <ele>181</ele>
        <time>2012-11-04T08:14:58.000Z</time>
      </trkpt>
      <trkpt lat="46.66902" lon="4.81865">
        <ele>180</ele>
        <time>2012-11-04T08:15:00.000Z</time>
      </trkpt>
      <trkpt lat="46.66895" lon="4.81883">
        <ele>179</ele>
        <time>2012-11-04T08:15:02.000Z</time>
      </trkpt>
      <trkpt lat="46.66882" lon="4.819">
        <ele>179</ele>
        <time>2012-11-04T08:15:04.000Z</time>
      </trkpt>
      <trkpt lat="46.66876" lon="4.81928">
        <ele>179</ele>
        <time>2012-11-04T08:15:07.000Z</time>
      </trkpt>
      <trkpt lat="46.66856" lon="4.81977">
        <ele>179</ele>
        <time>2012-11-04T08:15:13.000Z</time>
      </trkpt>
      <trkpt lat="46.66842" lon="4.81989">
        <ele>179</ele>
        <time>2012-11-04T08:15:15.000Z</time>
      </trkpt>
      <trkpt lat="46.66822" lon="4.82006">
        <ele>180</ele>
        <time>2012-11-04T08:15:18.000Z</time>
      </trkpt>
      <trkpt lat="46.66794" lon="4.82028">
        <ele>181</ele>
        <time>2012-11-04T08:15:23.000Z</time>
      </trkpt>
      <trkpt lat="46.66779" lon="4.82038">
        <ele>181</ele>
        <time>2012-11-04T08:15:28.000Z</time>
      </trkpt>
      <trkpt lat="46.66771" lon="4.82064">
        <ele>182</ele>
        <time>2012-11-04T08:15:32.000Z</time>
      </trkpt>
      <trkpt lat="46.66774" lon="4.82073">
        <ele>182</ele>
        <time>2012-11-04T08:15:35.000Z</time>
      </trkpt>
      <trkpt lat="46.66782" lon="4.82098">
        <ele>183</ele>
        <time>2012-11-04T08:15:40.000Z</time>
      </trkpt>
      <trkpt lat="46.66792" lon="4.82125">
        <ele>184</ele>
        <time>2012-11-04T08:15:46.000Z</time>
      </trkpt>
      <trkpt lat="46.66803" lon="4.82154">
        <ele>185</ele>
        <time>2012-11-04T08:15:52.000Z</time>
      </trkpt>
      <trkpt lat="46.6682" lon="4.82196">
        <ele>186</ele>
        <time>2012-11-04T08:15:59.000Z</time>
      </trkpt>
      <trkpt lat="46.66807" lon="4.82206">
        <ele>186</ele>
        <time>2012-11-04T08:16:04.000Z</time>
      </trkpt>
      <trkpt lat="46.66793" lon="4.82214">
        <ele>185</ele>
        <time>2012-11-04T08:16:06.000Z</time>
      </trkpt>
      <trkpt lat="46.66782" lon="4.82216">
        <ele>185</ele>
        <time>2012-11-04T08:16:08.000Z</time>
      </trkpt>
      <trkpt lat="46.66766" lon="4.82224">
        <ele>184</ele>
        <time>2012-11-04T08:16:11.000Z</time>
      </trkpt>
      <trkpt lat="46.66754" lon="4.82239">
        <ele>183</ele>
        <time>2012-11-04T08:16:14.000Z</time>
      </trkpt>
      <trkpt lat="46.66747" lon="4.82249">
        <ele>182</ele>
        <time>2012-11-04T08:16:16.000Z</time>
      </trkpt>
      <trkpt lat="46.66735" lon="4.82262">
        <ele>181</ele>
        <time>2012-11-04T08:16:19.000Z</time>
      </trkpt>
      <trkpt lat="46.66726" lon="4.82269">
        <ele>180</ele>
        <time>2012-11-04T08:16:21.000Z</time>
      </trkpt>
      <trkpt lat="46.66699" lon="4.82288">
        <ele>179</ele>
        <time>2012-11-04T08:16:26.000Z</time>
      </trkpt>
      <trkpt lat="46.66652" lon="4.8231">
        <ele>178</ele>
        <time>2012-11-04T08:16:36.000Z</time>
      </trkpt>
      <trkpt lat="46.66636" lon="4.82308">
        <ele>178</ele>
        <time>2012-11-04T08:16:39.000Z</time>
      </trkpt>
      <trkpt lat="46.66623" lon="4.82308">
        <ele>179</ele>
        <time>2012-11-04T08:16:41.000Z</time>
      </trkpt>
      <trkpt lat="46.66605" lon="4.82302">
        <ele>179</ele>
        <time>2012-11-04T08:16:44.000Z</time>
      </trkpt>
      <trkpt lat="46.66599" lon="4.82299">
        <ele>179</ele>
        <time>2012-11-04T08:16:46.000Z</time>
      </trkpt>
      <trkpt lat="46.66585" lon="4.82298">
        <ele>179</ele>
        <time>2012-11-04T08:16:49.000Z</time>
      </trkpt>
      <trkpt lat="46.66579" lon="4.823">
        <ele>180</ele>
        <time>2012-11-04T08:16:51.000Z</time>
      </trkpt>
      <trkpt lat="46.66571" lon="4.82303">
        <ele>180</ele>
        <time>2012-11-04T08:16:54.000Z</time>
      </trkpt>
      <trkpt lat="46.6657" lon="4.82302">
        <ele>180</ele>
        <time>2012-11-04T08:16:56.000Z</time>
      </trkpt>
      <trkpt lat="46.6657" lon="4.82299">
        <ele>180</ele>
        <time>2012-11-04T08:16:59.000Z</time>
      </trkpt>
      <trkpt lat="46.66572" lon="4.82293">
        <ele>180</ele>
        <time>2012-11-04T08:17:02.000Z</time>
      </trkpt>
      <trkpt lat="46.66572" lon="4.82293">
        <ele>180</ele>
        <time>2012-11-04T08:17:12.000Z</time>
      </trkpt>
      <trkpt lat="46.66574" lon="4.82284">
        <ele>180</ele>
        <time>2012-11-04T08:17:12.000Z</time>
      </trkpt>
      <trkpt lat="46.66577" lon="4.82279">
        <ele>180</ele>
        <time>2012-11-04T08:17:15.000Z</time>
      </trkpt>
      <trkpt lat="46.66583" lon="4.82282">
        <ele>180</ele>
        <time>2012-11-04T08:17:18.000Z</time>
      </trkpt>
      <trkpt lat="46.66586" lon="4.82285">
        <ele>180</ele>
        <time>2012-11-04T08:17:20.000Z</time>
      </trkpt>
      <trkpt lat="46.6659" lon="4.82293">
        <ele>180</ele>
        <time>2012-11-04T08:17:23.000Z</time>
      </trkpt>
      <trkpt lat="46.6659" lon="4.82293">
        <ele>180</ele>
        <time>2012-11-04T08:17:33.000Z</time>
      </trkpt>
      <trkpt lat="46.66593" lon="4.82299">
        <ele>180</ele>
        <time>2012-11-04T08:18:18.000Z</time>
      </trkpt>
      <trkpt lat="46.66593" lon="4.82296">
        <ele>180</ele>
        <time>2012-11-04T08:18:26.000Z</time>
      </trkpt>
      <trkpt lat="46.6659" lon="4.82294">
        <ele>180</ele>
        <time>2012-11-04T08:18:28.000Z</time>
      </trkpt>
      <trkpt lat="46.66581" lon="4.82296">
        <ele>180</ele>
        <time>2012-11-04T08:18:31.000Z</time>
      </trkpt>
      <trkpt lat="46.66574" lon="4.82299">
        <ele>180</ele>
        <time>2012-11-04T08:18:33.000Z</time>
      </trkpt>
      <trkpt lat="46.66568" lon="4.82304">
        <ele>180</ele>
        <time>2012-11-04T08:18:36.000Z</time>
      </trkpt>
      <trkpt lat="46.66567" lon="4.8231">
        <ele>180</ele>
        <time>2012-11-04T08:18:39.000Z</time>
      </trkpt>
      <trkpt lat="46.66564" lon="4.82312">
        <ele>180</ele>
        <time>2012-11-04T08:18:42.000Z</time>
      </trkpt>
      <trkpt lat="46.6656" lon="4.82312">
        <ele>180</ele>
        <time>2012-11-04T08:18:44.000Z</time>
      </trkpt>
      <trkpt lat="46.66556" lon="4.82314">
        <ele>180</ele>
        <time>2012-11-04T08:18:46.000Z</time>
      </trkpt>
      <trkpt lat="46.66551" lon="4.8232">
        <ele>180</ele>
        <time>2012-11-04T08:18:49.000Z</time>
      </trkpt>
      <trkpt lat="46.66548" lon="4.82331">
        <ele>180</ele>
        <time>2012-11-04T08:18:52.000Z</time>
      </trkpt>
      <trkpt lat="46.66544" lon="4.82357">
        <ele>180</ele>
        <time>2012-11-04T08:18:59.000Z</time>
      </trkpt>
      <trkpt lat="46.66544" lon="4.82366">
        <ele>180</ele>
        <time>2012-11-04T08:19:01.000Z</time>
      </trkpt>
      <trkpt lat="46.66542" lon="4.82379">
        <ele>180</ele>
        <time>2012-11-04T08:19:04.000Z</time>
      </trkpt>
      <trkpt lat="46.66545" lon="4.82386">
        <ele>180</ele>
        <time>2012-11-04T08:19:07.000Z</time>
      </trkpt>
      <trkpt lat="46.66549" lon="4.8239">
        <ele>180</ele>
        <time>2012-11-04T08:19:09.000Z</time>
      </trkpt>
      <trkpt lat="46.66552" lon="4.82399">
        <ele>179</ele>
        <time>2012-11-04T08:19:11.000Z</time>
      </trkpt>
      <trkpt lat="46.66552" lon="4.82417">
        <ele>179</ele>
        <time>2012-11-04T08:19:14.000Z</time>
      </trkpt>
      <trkpt lat="46.66551" lon="4.82427">
        <ele>179</ele>
        <time>2012-11-04T08:19:16.000Z</time>
      </trkpt>
      <trkpt lat="46.66551" lon="4.82442">
        <ele>179</ele>
        <time>2012-11-04T08:19:19.000Z</time>
      </trkpt>
      <trkpt lat="46.66558" lon="4.82483">
        <ele>179</ele>
        <time>2012-11-04T08:19:27.000Z</time>
      </trkpt>
      <trkpt lat="46.66563" lon="4.825">
        <ele>179</ele>
        <time>2012-11-04T08:19:29.000Z</time>
      </trkpt>
      <trkpt lat="46.66565" lon="4.82525">
        <ele>179</ele>
        <time>2012-11-04T08:19:32.000Z</time>
      </trkpt>
      <trkpt lat="46.66562" lon="4.82542">
        <ele>180</ele>
        <time>2012-11-04T08:19:34.000Z</time>
      </trkpt>
      <trkpt lat="46.6656" lon="4.82566">
        <ele>181</ele>
        <time>2012-11-04T08:19:39.000Z</time>
      </trkpt>
      <trkpt lat="46.66563" lon="4.8257">
        <ele>181</ele>
        <time>2012-11-04T08:19:41.000Z</time>
      </trkpt>
      <trkpt lat="46.66569" lon="4.82571">
        <ele>181</ele>
        <time>2012-11-04T08:19:44.000Z</time>
      </trkpt>
      <trkpt lat="46.66576" lon="4.82568">
        <ele>181</ele>
        <time>2012-11-04T08:19:47.000Z</time>
      </trkpt>
      <trkpt lat="46.66593" lon="4.82565">
        <ele>181</ele>
        <time>2012-11-04T08:19:51.000Z</time>
      </trkpt>
      <trkpt lat="46.66608" lon="4.82568">
        <ele>181</ele>
        <time>2012-11-04T08:19:54.000Z</time>
      </trkpt>
      <trkpt lat="46.66629" lon="4.82587">
        <ele>180</ele>
        <time>2012-11-04T08:19:57.000Z</time>
      </trkpt>
      <trkpt lat="46.66639" lon="4.82593">
        <ele>180</ele>
        <time>2012-11-04T08:20:00.000Z</time>
      </trkpt>
      <trkpt lat="46.66651" lon="4.8259">
        <ele>180</ele>
        <time>2012-11-04T08:20:03.000Z</time>
      </trkpt>
      <trkpt lat="46.66663" lon="4.82588">
        <ele>180</ele>
        <time>2012-11-04T08:20:06.000Z</time>
      </trkpt>
      <trkpt lat="46.66675" lon="4.8259">
        <ele>180</ele>
        <time>2012-11-04T08:20:09.000Z</time>
      </trkpt>
      <trkpt lat="46.66688" lon="4.82598">
        <ele>179</ele>
        <time>2012-11-04T08:20:12.000Z</time>
      </trkpt>
      <trkpt lat="46.66701" lon="4.82622">
        <ele>179</ele>
        <time>2012-11-04T08:20:15.000Z</time>
      </trkpt>
      <trkpt lat="46.6673" lon="4.82681">
        <ele>179</ele>
        <time>2012-11-04T08:20:32.000Z</time>
      </trkpt>
      <trkpt lat="46.66756" lon="4.82736">
        <ele>179</ele>
        <time>2012-11-04T08:20:43.000Z</time>
      </trkpt>
      <trkpt lat="46.66763" lon="4.82752">
        <ele>178</ele>
        <time>2012-11-04T08:20:46.000Z</time>
      </trkpt>
      <trkpt lat="46.66775" lon="4.82791">
        <ele>178</ele>
        <time>2012-11-04T08:20:52.000Z</time>
      </trkpt>
      <trkpt lat="46.66777" lon="4.8281">
        <ele>178</ele>
        <time>2012-11-04T08:20:55.000Z</time>
      </trkpt>
      <trkpt lat="46.66787" lon="4.82879">
        <ele>178</ele>
        <time>2012-11-04T08:21:06.000Z</time>
      </trkpt>
      <trkpt lat="46.66793" lon="4.82946">
        <ele>179</ele>
        <time>2012-11-04T08:21:53.000Z</time>
      </trkpt>
      <trkpt lat="46.66792" lon="4.82948">
        <ele>179</ele>
        <time>2012-11-04T08:22:02.000Z</time>
      </trkpt>
      <trkpt lat="46.66791" lon="4.82958">
        <ele>179</ele>
        <time>2012-11-04T08:22:07.000Z</time>
      </trkpt>
      <trkpt lat="46.66792" lon="4.82966">
        <ele>179</ele>
        <time>2012-11-04T08:22:10.000Z</time>
      </trkpt>
      <trkpt lat="46.66808" lon="4.83039">
        <ele>179</ele>
        <time>2012-11-04T08:22:30.000Z</time>
      </trkpt>
      <trkpt lat="46.66832" lon="4.83111">
        <ele>179</ele>
        <time>2012-11-04T08:22:43.000Z</time>
      </trkpt>
      <trkpt lat="46.6684" lon="4.8312">
        <ele>179</ele>
        <time>2012-11-04T08:22:45.000Z</time>
      </trkpt>
      <trkpt lat="46.66861" lon="4.83146">
        <ele>180</ele>
        <time>2012-11-04T08:22:51.000Z</time>
      </trkpt>
      <trkpt lat="46.66874" lon="4.83153">
        <ele>180</ele>
        <time>2012-11-04T08:22:59.000Z</time>
      </trkpt>
      <trkpt lat="46.66883" lon="4.83146">
        <ele>180</ele>
        <time>2012-11-04T08:23:02.000Z</time>
      </trkpt>
      <trkpt lat="46.66894" lon="4.83145">
        <ele>180</ele>
        <time>2012-11-04T08:23:04.000Z</time>
      </trkpt>
      <trkpt lat="46.66906" lon="4.83147">
        <ele>180</ele>
        <time>2012-11-04T08:23:06.000Z</time>
      </trkpt>
      <trkpt lat="46.66919" lon="4.83154">
        <ele>179</ele>
        <time>2012-11-04T08:23:09.000Z</time>
      </trkpt>
      <trkpt lat="46.66929" lon="4.83164">
        <ele>179</ele>
        <time>2012-11-04T08:23:14.000Z</time>
      </trkpt>
      <trkpt lat="46.6693" lon="4.83173">
        <ele>179</ele>
        <time>2012-11-04T08:23:16.000Z</time>
      </trkpt>
      <trkpt lat="46.66932" lon="4.83181">
        <ele>179</ele>
        <time>2012-11-04T08:23:18.000Z</time>
      </trkpt>
      <trkpt lat="46.66956" lon="4.83254">
        <ele>179</ele>
        <time>2012-11-04T08:23:32.000Z</time>
      </trkpt>
      <trkpt lat="46.66963" lon="4.83265">
        <ele>179</ele>
        <time>2012-11-04T08:23:35.000Z</time>
      </trkpt>
      <trkpt lat="46.66967" lon="4.83277">
        <ele>179</ele>
        <time>2012-11-04T08:23:38.000Z</time>
      </trkpt>
      <trkpt lat="46.66969" lon="4.83286">
        <ele>179</ele>
        <time>2012-11-04T08:23:40.000Z</time>
      </trkpt>
      <trkpt lat="46.66969" lon="4.83298">
        <ele>179</ele>
        <time>2012-11-04T08:23:43.000Z</time>
      </trkpt>
      <trkpt lat="46.66968" lon="4.83307">
        <ele>179</ele>
        <time>2012-11-04T08:23:45.000Z</time>
      </trkpt>
      <trkpt lat="46.66967" lon="4.83342">
        <ele>179</ele>
        <time>2012-11-04T08:23:53.000Z</time>
      </trkpt>
      <trkpt lat="46.66969" lon="4.83354">
        <ele>179</ele>
        <time>2012-11-04T08:23:56.000Z</time>
      </trkpt>
      <trkpt lat="46.66972" lon="4.83365">
        <ele>179</ele>
        <time>2012-11-04T08:23:59.000Z</time>
      </trkpt>
      <trkpt lat="46.66977" lon="4.83379">
        <ele>179</ele>
        <time>2012-11-04T08:24:04.000Z</time>
      </trkpt>
      <trkpt lat="46.66979" lon="4.83399">
        <ele>179</ele>
        <time>2012-11-04T08:24:10.000Z</time>
      </trkpt>
      <trkpt lat="46.66977" lon="4.83411">
        <ele>179</ele>
        <time>2012-11-04T08:24:12.000Z</time>
      </trkpt>
      <trkpt lat="46.66977" lon="4.83423">
        <ele>179</ele>
        <time>2012-11-04T08:24:14.000Z</time>
      </trkpt>
      <trkpt lat="46.66978" lon="4.83433">
        <ele>179</ele>
        <time>2012-11-04T08:24:16.000Z</time>
      </trkpt>
      <trkpt lat="46.66982" lon="4.83447">
        <ele>179</ele>
        <time>2012-11-04T08:24:19.000Z</time>
      </trkpt>
      <trkpt lat="46.66983" lon="4.83455">
        <ele>178</ele>
        <time>2012-11-04T08:24:21.000Z</time>
      </trkpt>
      <trkpt lat="46.67005" lon="4.83521">
        <ele>177</ele>
        <time>2012-11-04T08:24:34.000Z</time>
      </trkpt>
      <trkpt lat="46.67012" lon="4.8353">
        <ele>177</ele>
        <time>2012-11-04T08:24:36.000Z</time>
      </trkpt>
      <trkpt lat="46.67023" lon="4.83548">
        <ele>177</ele>
        <time>2012-11-04T08:24:39.000Z</time>
      </trkpt>
      <trkpt lat="46.6703" lon="4.83581">
        <ele>178</ele>
        <time>2012-11-04T08:24:42.000Z</time>
      </trkpt>
      <trkpt lat="46.67014" lon="4.83622">
        <ele>178</ele>
        <time>2012-11-04T08:24:48.000Z</time>
      </trkpt>
      <trkpt lat="46.67011" lon="4.83639">
        <ele>178</ele>
        <time>2012-11-04T08:24:51.000Z</time>
      </trkpt>
      <trkpt lat="46.67006" lon="4.83644">
        <ele>178</ele>
        <time>2012-11-04T08:24:53.000Z</time>
      </trkpt>
      <trkpt lat="46.66999" lon="4.83654">
        <ele>177</ele>
        <time>2012-11-04T08:24:56.000Z</time>
      </trkpt>
      <trkpt lat="46.66993" lon="4.83665">
        <ele>177</ele>
        <time>2012-11-04T08:25:00.000Z</time>
      </trkpt>
      <trkpt lat="46.6699" lon="4.83673">
        <ele>177</ele>
        <time>2012-11-04T08:25:03.000Z</time>
      </trkpt>
      <trkpt lat="46.66988" lon="4.83685">
        <ele>177</ele>
        <time>2012-11-04T08:25:06.000Z</time>
      </trkpt>
      <trkpt lat="46.66981" lon="4.83759">
        <ele>177</ele>
        <time>2012-11-04T08:25:21.000Z</time>
      </trkpt>
      <trkpt lat="46.66968" lon="4.83814">
        <ele>178</ele>
        <time>2012-11-04T08:25:30.000Z</time>
      </trkpt>
      <trkpt lat="46.66957" lon="4.83851">
        <ele>179</ele>
        <time>2012-11-04T08:25:35.000Z</time>
      </trkpt>
      <trkpt lat="46.66945" lon="4.83865">
        <ele>180</ele>
        <time>2012-11-04T08:25:38.000Z</time>
      </trkpt>
      <trkpt lat="46.66892" lon="4.8387">
        <ele>180</ele>
        <time>2012-11-04T08:25:43.000Z</time>
      </trkpt>
      <trkpt lat="46.66833" lon="4.83872">
        <ele>180</ele>
        <time>2012-11-04T08:25:51.000Z</time>
      </trkpt>
      <trkpt lat="46.66817" lon="4.83864">
        <ele>180</ele>
        <time>2012-11-04T08:25:54.000Z</time>
      </trkpt>
      <trkpt lat="46.668" lon="4.8386">
        <ele>179</ele>
        <time>2012-11-04T08:25:57.000Z</time>
      </trkpt>
      <trkpt lat="46.66786" lon="4.83865">
        <ele>179</ele>
        <time>2012-11-04T08:26:00.000Z</time>
      </trkpt>
      <trkpt lat="46.66771" lon="4.83864">
        <ele>178</ele>
        <time>2012-11-04T08:26:03.000Z</time>
      </trkpt>
      <trkpt lat="46.66751" lon="4.83853">
        <ele>178</ele>
        <time>2012-11-04T08:26:06.000Z</time>
      </trkpt>
      <trkpt lat="46.66732" lon="4.83852">
        <ele>178</ele>
        <time>2012-11-04T08:26:09.000Z</time>
      </trkpt>
      <trkpt lat="46.66718" lon="4.83856">
        <ele>178</ele>
        <time>2012-11-04T08:26:11.000Z</time>
      </trkpt>
      <trkpt lat="46.66671" lon="4.83873">
        <ele>178</ele>
        <time>2012-11-04T08:26:20.000Z</time>
      </trkpt>
      <trkpt lat="46.66655" lon="4.83879">
        <ele>179</ele>
        <time>2012-11-04T08:26:23.000Z</time>
      </trkpt>
      <trkpt lat="46.66615" lon="4.83899">
        <ele>178</ele>
        <time>2012-11-04T08:26:30.000Z</time>
      </trkpt>
      <trkpt lat="46.666" lon="4.83914">
        <ele>178</ele>
        <time>2012-11-04T08:26:33.000Z</time>
      </trkpt>
      <trkpt lat="46.66595" lon="4.8392">
        <ele>177</ele>
        <time>2012-11-04T08:26:36.000Z</time>
      </trkpt>
      <trkpt lat="46.66576" lon="4.83952">
        <ele>177</ele>
        <time>2012-11-04T08:26:44.000Z</time>
      </trkpt>
      <trkpt lat="46.66575" lon="4.83953">
        <ele>176</ele>
        <time>2012-11-04T08:26:47.000Z</time>
      </trkpt>
      <trkpt lat="46.66554" lon="4.8393">
        <ele>176</ele>
        <time>2012-11-04T08:26:52.000Z</time>
      </trkpt>
      <trkpt lat="46.66549" lon="4.83885">
        <ele>177</ele>
        <time>2012-11-04T08:26:56.000Z</time>
      </trkpt>
      <trkpt lat="46.6654" lon="4.83815">
        <ele>177</ele>
        <time>2012-11-04T08:27:06.000Z</time>
      </trkpt>
      <trkpt lat="46.66533" lon="4.83766">
        <ele>178</ele>
        <time>2012-11-04T08:27:13.000Z</time>
      </trkpt>
      <trkpt lat="46.66523" lon="4.83688">
        <ele>178</ele>
        <time>2012-11-04T08:27:23.000Z</time>
      </trkpt>
      <trkpt lat="46.66512" lon="4.8361">
        <ele>178</ele>
        <time>2012-11-04T08:27:33.000Z</time>
      </trkpt>
      <trkpt lat="46.66507" lon="4.83585">
        <ele>177</ele>
        <time>2012-11-04T08:27:36.000Z</time>
      </trkpt>
      <trkpt lat="46.66495" lon="4.8352">
        <ele>177</ele>
        <time>2012-11-04T08:27:44.000Z</time>
      </trkpt>
      <trkpt lat="46.66488" lon="4.83472">
        <ele>178</ele>
        <time>2012-11-04T08:27:50.000Z</time>
      </trkpt>
      <trkpt lat="46.66473" lon="4.83395">
        <ele>178</ele>
        <time>2012-11-04T08:27:59.000Z</time>
      </trkpt>
      <trkpt lat="46.66464" lon="4.8333">
        <ele>178</ele>
        <time>2012-11-04T08:28:07.000Z</time>
      </trkpt>
      <trkpt lat="46.66458" lon="4.83253">
        <ele>178</ele>
        <time>2012-11-04T08:28:16.000Z</time>
      </trkpt>
      <trkpt lat="46.66451" lon="4.83171">
        <ele>179</ele>
        <time>2012-11-04T08:28:27.000Z</time>
      </trkpt>
      <trkpt lat="46.66442" lon="4.83144">
        <ele>179</ele>
        <time>2012-11-04T08:28:31.000Z</time>
      </trkpt>
      <trkpt lat="46.66423" lon="4.83143">
        <ele>180</ele>
        <time>2012-11-04T08:28:34.000Z</time>
      </trkpt>
      <trkpt lat="46.6641" lon="4.83139">
        <ele>180</ele>
        <time>2012-11-04T08:28:37.000Z</time>
      </trkpt>
      <trkpt lat="46.66393" lon="4.83135">
        <ele>181</ele>
        <time>2012-11-04T08:28:40.000Z</time>
      </trkpt>
      <trkpt lat="46.66353" lon="4.83113">
        <ele>181</ele>
        <time>2012-11-04T08:28:48.000Z</time>
      </trkpt>
      <trkpt lat="46.66342" lon="4.83102">
        <ele>181</ele>
        <time>2012-11-04T08:28:51.000Z</time>
      </trkpt>
      <trkpt lat="46.66327" lon="4.83093">
        <ele>181</ele>
        <time>2012-11-04T08:28:54.000Z</time>
      </trkpt>
      <trkpt lat="46.66314" lon="4.83077">
        <ele>181</ele>
        <time>2012-11-04T08:28:57.000Z</time>
      </trkpt>
      <trkpt lat="46.66274" lon="4.83032">
        <ele>181</ele>
        <time>2012-11-04T08:29:06.000Z</time>
      </trkpt>
      <trkpt lat="46.66242" lon="4.82981">
        <ele>181</ele>
        <time>2012-11-04T08:29:14.000Z</time>
      </trkpt>
      <trkpt lat="46.66236" lon="4.82966">
        <ele>181</ele>
        <time>2012-11-04T08:29:16.000Z</time>
      </trkpt>
      <trkpt lat="46.66201" lon="4.82928">
        <ele>181</ele>
        <time>2012-11-04T08:29:26.000Z</time>
      </trkpt>
      <trkpt lat="46.6619" lon="4.82951">
        <ele>181</ele>
        <time>2012-11-04T08:29:29.000Z</time>
      </trkpt>
      <trkpt lat="46.66183" lon="4.82963">
        <ele>180</ele>
        <time>2012-11-04T08:29:31.000Z</time>
      </trkpt>
      <trkpt lat="46.66159" lon="4.83002">
        <ele>179</ele>
        <time>2012-11-04T08:29:37.000Z</time>
      </trkpt>
      <trkpt lat="46.66134" lon="4.83041">
        <ele>178</ele>
        <time>2012-11-04T08:29:43.000Z</time>
      </trkpt>
      <trkpt lat="46.66097" lon="4.83099">
        <ele>178</ele>
        <time>2012-11-04T08:29:52.000Z</time>
      </trkpt>
      <trkpt lat="46.66088" lon="4.83119">
        <ele>178</ele>
        <time>2012-11-04T08:29:55.000Z</time>
      </trkpt>
      <trkpt lat="46.6608" lon="4.83132">
        <ele>178</ele>
        <time>2012-11-04T08:29:57.000Z</time>
      </trkpt>
      <trkpt lat="46.66036" lon="4.83188">
        <ele>178</ele>
        <time>2012-11-04T08:30:07.000Z</time>
      </trkpt>
      <trkpt lat="46.65996" lon="4.83237">
        <ele>178</ele>
        <time>2012-11-04T08:30:16.000Z</time>
      </trkpt>
      <trkpt lat="46.65982" lon="4.83246">
        <ele>179</ele>
        <time>2012-11-04T08:30:19.000Z</time>
      </trkpt>
      <trkpt lat="46.65972" lon="4.83242">
        <ele>179</ele>
        <time>2012-11-04T08:30:21.000Z</time>
      </trkpt>
      <trkpt lat="46.65956" lon="4.83229">
        <ele>179</ele>
        <time>2012-11-04T08:30:24.000Z</time>
      </trkpt>
      <trkpt lat="46.65915" lon="4.83199">
        <ele>179</ele>
        <time>2012-11-04T08:30:32.000Z</time>
      </trkpt>
      <trkpt lat="46.65875" lon="4.83167">
        <ele>179</ele>
        <time>2012-11-04T08:30:40.000Z</time>
      </trkpt>
      <trkpt lat="46.65832" lon="4.8312">
        <ele>179</ele>
        <time>2012-11-04T08:30:50.000Z</time>
      </trkpt>
      <trkpt lat="46.65828" lon="4.83103">
        <ele>179</ele>
        <time>2012-11-04T08:30:52.000Z</time>
      </trkpt>
      <trkpt lat="46.65817" lon="4.8304">
        <ele>179</ele>
        <time>2012-11-04T08:31:00.000Z</time>
      </trkpt>
      <trkpt lat="46.65811" lon="4.8302">
        <ele>179</ele>
        <time>2012-11-04T08:31:03.000Z</time>
      </trkpt>
      <trkpt lat="46.65798" lon="4.83002">
        <ele>179</ele>
        <time>2012-11-04T08:31:07.000Z</time>
      </trkpt>
      <trkpt lat="46.65792" lon="4.82992">
        <ele>178</ele>
        <time>2012-11-04T08:31:09.000Z</time>
      </trkpt>
      <trkpt lat="46.65779" lon="4.82976">
        <ele>178</ele>
        <time>2012-11-04T08:31:12.000Z</time>
      </trkpt>
      <trkpt lat="46.65749" lon="4.82947">
        <ele>178</ele>
        <time>2012-11-04T08:31:19.000Z</time>
      </trkpt>
      <trkpt lat="46.65705" lon="4.829">
        <ele>178</ele>
        <time>2012-11-04T08:31:29.000Z</time>
      </trkpt>
      <trkpt lat="46.65699" lon="4.82878">
        <ele>179</ele>
        <time>2012-11-04T08:31:32.000Z</time>
      </trkpt>
      <trkpt lat="46.65683" lon="4.82829">
        <ele>180</ele>
        <time>2012-11-04T08:31:42.000Z</time>
      </trkpt>
      <trkpt lat="46.65683" lon="4.82822">
        <ele>180</ele>
        <time>2012-11-04T08:31:44.000Z</time>
      </trkpt>
      <trkpt lat="46.65681" lon="4.8281">
        <ele>180</ele>
        <time>2012-11-04T08:31:47.000Z</time>
      </trkpt>
      <trkpt lat="46.65669" lon="4.82741">
        <ele>180</ele>
        <time>2012-11-04T08:31:56.000Z</time>
      </trkpt>
      <trkpt lat="46.65663" lon="4.82726">
        <ele>181</ele>
        <time>2012-11-04T08:31:59.000Z</time>
      </trkpt>
      <trkpt lat="46.65657" lon="4.82704">
        <ele>181</ele>
        <time>2012-11-04T08:32:02.000Z</time>
      </trkpt>
      <trkpt lat="46.65651" lon="4.82687">
        <ele>181</ele>
        <time>2012-11-04T08:32:05.000Z</time>
      </trkpt>
      <trkpt lat="46.65635" lon="4.82625">
        <ele>180</ele>
        <time>2012-11-04T08:32:13.000Z</time>
      </trkpt>
      <trkpt lat="46.65612" lon="4.82551">
        <ele>180</ele>
        <time>2012-11-04T08:32:23.000Z</time>
      </trkpt>
      <trkpt lat="46.65604" lon="4.82526">
        <ele>179</ele>
        <time>2012-11-04T08:32:26.000Z</time>
      </trkpt>
      <trkpt lat="46.65577" lon="4.82464">
        <ele>179</ele>
        <time>2012-11-04T08:32:35.000Z</time>
      </trkpt>
      <trkpt lat="46.65573" lon="4.82447">
        <ele>179</ele>
        <time>2012-11-04T08:32:37.000Z</time>
      </trkpt>
      <trkpt lat="46.65567" lon="4.82431">
        <ele>179</ele>
        <time>2012-11-04T08:32:39.000Z</time>
      </trkpt>
      <trkpt lat="46.65559" lon="4.82408">
        <ele>178</ele>
        <time>2012-11-04T08:32:42.000Z</time>
      </trkpt>
      <trkpt lat="46.65549" lon="4.82387">
        <ele>179</ele>
        <time>2012-11-04T08:32:45.000Z</time>
      </trkpt>
      <trkpt lat="46.65522" lon="4.82331">
        <ele>179</ele>
        <time>2012-11-04T08:32:53.000Z</time>
      </trkpt>
      <trkpt lat="46.65513" lon="4.82318">
        <ele>179</ele>
        <time>2012-11-04T08:32:55.000Z</time>
      </trkpt>
      <trkpt lat="46.65481" lon="4.82267">
        <ele>179</ele>
        <time>2012-11-04T08:33:03.000Z</time>
      </trkpt>
      <trkpt lat="46.65475" lon="4.82252">
        <ele>178</ele>
        <time>2012-11-04T08:33:05.000Z</time>
      </trkpt>
      <trkpt lat="46.65464" lon="4.82234">
        <ele>178</ele>
        <time>2012-11-04T08:33:08.000Z</time>
      </trkpt>
      <trkpt lat="46.65419" lon="4.82168">
        <ele>179</ele>
        <time>2012-11-04T08:33:18.000Z</time>
      </trkpt>
      <trkpt lat="46.65377" lon="4.82119">
        <ele>179</ele>
        <time>2012-11-04T08:33:27.000Z</time>
      </trkpt>
      <trkpt lat="46.6535" lon="4.8208">
        <ele>180</ele>
        <time>2012-11-04T08:33:33.000Z</time>
      </trkpt>
      <trkpt lat="46.65318" lon="4.82023">
        <ele>180</ele>
        <time>2012-11-04T08:33:41.000Z</time>
      </trkpt>
      <trkpt lat="46.65282" lon="4.81958">
        <ele>180</ele>
        <time>2012-11-04T08:33:50.000Z</time>
      </trkpt>
      <trkpt lat="46.65274" lon="4.81929">
        <ele>180</ele>
        <time>2012-11-04T08:33:53.000Z</time>
      </trkpt>
      <trkpt lat="46.65269" lon="4.81912">
        <ele>181</ele>
        <time>2012-11-04T08:33:55.000Z</time>
      </trkpt>
      <trkpt lat="46.65248" lon="4.81837">
        <ele>182</ele>
        <time>2012-11-04T08:34:04.000Z</time>
      </trkpt>
      <trkpt lat="46.65221" lon="4.81774">
        <ele>182</ele>
        <time>2012-11-04T08:34:12.000Z</time>
      </trkpt>
      <trkpt lat="46.65213" lon="4.81758">
        <ele>181</ele>
        <time>2012-11-04T08:34:14.000Z</time>
      </trkpt>
      <trkpt lat="46.65178" lon="4.81699">
        <ele>181</ele>
        <time>2012-11-04T08:34:22.000Z</time>
      </trkpt>
      <trkpt lat="46.65164" lon="4.8168">
        <ele>181</ele>
        <time>2012-11-04T08:34:25.000Z</time>
      </trkpt>
      <trkpt lat="46.65154" lon="4.81668">
        <ele>182</ele>
        <time>2012-11-04T08:34:27.000Z</time>
      </trkpt>
      <trkpt lat="46.65132" lon="4.81642">
        <ele>183</ele>
        <time>2012-11-04T08:34:32.000Z</time>
      </trkpt>
      <trkpt lat="46.65117" lon="4.81631">
        <ele>183</ele>
        <time>2012-11-04T08:34:35.000Z</time>
      </trkpt>
      <trkpt lat="46.65108" lon="4.81644">
        <ele>184</ele>
        <time>2012-11-04T08:34:37.000Z</time>
      </trkpt>
      <trkpt lat="46.65072" lon="4.81689">
        <ele>184</ele>
        <time>2012-11-04T08:34:45.000Z</time>
      </trkpt>
      <trkpt lat="46.65039" lon="4.81724">
        <ele>183</ele>
        <time>2012-11-04T08:34:52.000Z</time>
      </trkpt>
      <trkpt lat="46.65029" lon="4.81733">
        <ele>183</ele>
        <time>2012-11-04T08:34:54.000Z</time>
      </trkpt>
      <trkpt lat="46.65015" lon="4.81744">
        <ele>182</ele>
        <time>2012-11-04T08:34:57.000Z</time>
      </trkpt>
      <trkpt lat="46.64989" lon="4.81754">
        <ele>182</ele>
        <time>2012-11-04T08:35:04.000Z</time>
      </trkpt>
      <trkpt lat="46.64984" lon="4.81748">
        <ele>182</ele>
        <time>2012-11-04T08:35:06.000Z</time>
      </trkpt>
      <trkpt lat="46.6498" lon="4.81735">
        <ele>182</ele>
        <time>2012-11-04T08:35:08.000Z</time>
      </trkpt>
      <trkpt lat="46.64965" lon="4.81695">
        <ele>183</ele>
        <time>2012-11-04T08:35:15.000Z</time>
      </trkpt>
      <trkpt lat="46.64939" lon="4.81636">
        <ele>183</ele>
        <time>2012-11-04T08:35:26.000Z</time>
      </trkpt>
      <trkpt lat="46.6493" lon="4.81621">
        <ele>183</ele>
        <time>2012-11-04T08:35:29.000Z</time>
      </trkpt>
      <trkpt lat="46.64896" lon="4.81562">
        <ele>183</ele>
        <time>2012-11-04T08:35:40.000Z</time>
      </trkpt>
      <trkpt lat="46.64864" lon="4.81511">
        <ele>183</ele>
        <time>2012-11-04T08:35:50.000Z</time>
      </trkpt>
      <trkpt lat="46.64828" lon="4.81456">
        <ele>184</ele>
        <time>2012-11-04T08:36:00.000Z</time>
      </trkpt>
      <trkpt lat="46.64818" lon="4.81437">
        <ele>184</ele>
        <time>2012-11-04T08:36:03.000Z</time>
      </trkpt>
      <trkpt lat="46.6479" lon="4.81364">
        <ele>185</ele>
        <time>2012-11-04T08:36:13.000Z</time>
      </trkpt>
      <trkpt lat="46.64765" lon="4.81299">
        <ele>185</ele>
        <time>2012-11-04T08:36:22.000Z</time>
      </trkpt>
      <trkpt lat="46.64737" lon="4.81241">
        <ele>185</ele>
        <time>2012-11-04T08:36:30.000Z</time>
      </trkpt>
      <trkpt lat="46.64728" lon="4.8123">
        <ele>185</ele>
        <time>2012-11-04T08:36:32.000Z</time>
      </trkpt>
      <trkpt lat="46.64712" lon="4.81222">
        <ele>185</ele>
        <time>2012-11-04T08:36:35.000Z</time>
      </trkpt>
      <trkpt lat="46.64695" lon="4.81216">
        <ele>185</ele>
        <time>2012-11-04T08:36:38.000Z</time>
      </trkpt>
      <trkpt lat="46.64683" lon="4.81218">
        <ele>184</ele>
        <time>2012-11-04T08:36:40.000Z</time>
      </trkpt>
      <trkpt lat="46.64673" lon="4.81218">
        <ele>184</ele>
        <time>2012-11-04T08:36:42.000Z</time>
      </trkpt>
      <trkpt lat="46.64624" lon="4.81212">
        <ele>185</ele>
        <time>2012-11-04T08:36:51.000Z</time>
      </trkpt>
      <trkpt lat="46.64587" lon="4.81211">
        <ele>186</ele>
        <time>2012-11-04T08:36:58.000Z</time>
      </trkpt>
      <trkpt lat="46.64571" lon="4.81204">
        <ele>186</ele>
        <time>2012-11-04T08:37:03.000Z</time>
      </trkpt>
      <trkpt lat="46.64561" lon="4.81203">
        <ele>187</ele>
        <time>2012-11-04T08:37:06.000Z</time>
      </trkpt>
      <trkpt lat="46.6456" lon="4.81195">
        <ele>187</ele>
        <time>2012-11-04T08:37:09.000Z</time>
      </trkpt>
      <trkpt lat="46.64562" lon="4.81179">
        <ele>187</ele>
        <time>2012-11-04T08:37:12.000Z</time>
      </trkpt>
      <trkpt lat="46.64564" lon="4.81163">
        <ele>186</ele>
        <time>2012-11-04T08:37:15.000Z</time>
      </trkpt>
      <trkpt lat="46.64569" lon="4.81144">
        <ele>186</ele>
        <time>2012-11-04T08:37:19.000Z</time>
      </trkpt>
      <trkpt lat="46.64575" lon="4.81128">
        <ele>186</ele>
        <time>2012-11-04T08:37:22.000Z</time>
      </trkpt>
      <trkpt lat="46.6458" lon="4.81112">
        <ele>185</ele>
        <time>2012-11-04T08:37:25.000Z</time>
      </trkpt>
      <trkpt lat="46.64595" lon="4.81066">
        <ele>184</ele>
        <time>2012-11-04T08:37:33.000Z</time>
      </trkpt>
      <trkpt lat="46.646" lon="4.81055">
        <ele>184</ele>
        <time>2012-11-04T08:37:35.000Z</time>
      </trkpt>
      <trkpt lat="46.64605" lon="4.81034">
        <ele>184</ele>
        <time>2012-11-04T08:37:38.000Z</time>
      </trkpt>
      <trkpt lat="46.64608" lon="4.81022">
        <ele>183</ele>
        <time>2012-11-04T08:37:40.000Z</time>
      </trkpt>
      <trkpt lat="46.64618" lon="4.80994">
        <ele>183</ele>
        <time>2012-11-04T08:37:45.000Z</time>
      </trkpt>
      <trkpt lat="46.64631" lon="4.80951">
        <ele>182</ele>
        <time>2012-11-04T08:37:56.000Z</time>
      </trkpt>
      <trkpt lat="46.64631" lon="4.80951">
        <ele>182</ele>
        <time>2012-11-04T08:38:06.000Z</time>
      </trkpt>
      <trkpt lat="46.64631" lon="4.80946">
        <ele>182</ele>
        <time>2012-11-04T08:38:44.000Z</time>
      </trkpt>
      <trkpt lat="46.64632" lon="4.8094">
        <ele>182</ele>
        <time>2012-11-04T08:38:46.000Z</time>
      </trkpt>
      <trkpt lat="46.64634" lon="4.80929">
        <ele>182</ele>
        <time>2012-11-04T08:38:48.000Z</time>
      </trkpt>
      <trkpt lat="46.64642" lon="4.80885">
        <ele>183</ele>
        <time>2012-11-04T08:38:55.000Z</time>
      </trkpt>
      <trkpt lat="46.64659" lon="4.80812">
        <ele>184</ele>
        <time>2012-11-04T08:39:06.000Z</time>
      </trkpt>
      <trkpt lat="46.64674" lon="4.80766">
        <ele>185</ele>
        <time>2012-11-04T08:39:12.000Z</time>
      </trkpt>
      <trkpt lat="46.64692" lon="4.807">
        <ele>185</ele>
        <time>2012-11-04T08:39:22.000Z</time>
      </trkpt>
      <trkpt lat="46.64698" lon="4.80686">
        <ele>184</ele>
        <time>2012-11-04T08:39:24.000Z</time>
      </trkpt>
      <trkpt lat="46.64711" lon="4.80649">
        <ele>183</ele>
        <time>2012-11-04T08:39:29.000Z</time>
      </trkpt>
      <trkpt lat="46.64737" lon="4.8061">
        <ele>182</ele>
        <time>2012-11-04T08:39:35.000Z</time>
      </trkpt>
      <trkpt lat="46.64749" lon="4.80597">
        <ele>182</ele>
        <time>2012-11-04T08:39:37.000Z</time>
      </trkpt>
      <trkpt lat="46.64769" lon="4.80585">
        <ele>181</ele>
        <time>2012-11-04T08:39:40.000Z</time>
      </trkpt>
      <trkpt lat="46.64782" lon="4.80566">
        <ele>181</ele>
        <time>2012-11-04T08:39:43.000Z</time>
      </trkpt>
      <trkpt lat="46.64789" lon="4.80551">
        <ele>181</ele>
        <time>2012-11-04T08:39:45.000Z</time>
      </trkpt>
      <trkpt lat="46.64803" lon="4.80533">
        <ele>181</ele>
        <time>2012-11-04T08:39:48.000Z</time>
      </trkpt>
      <trkpt lat="46.64809" lon="4.80518">
        <ele>181</ele>
        <time>2012-11-04T08:39:50.000Z</time>
      </trkpt>
      <trkpt lat="46.64845" lon="4.80451">
        <ele>181</ele>
        <time>2012-11-04T08:39:59.000Z</time>
      </trkpt>
      <trkpt lat="46.64847" lon="4.8044">
        <ele>181</ele>
        <time>2012-11-04T08:40:01.000Z</time>
      </trkpt>
      <trkpt lat="46.64864" lon="4.80402">
        <ele>181</ele>
        <time>2012-11-04T08:40:05.000Z</time>
      </trkpt>
      <trkpt lat="46.64873" lon="4.80388">
        <ele>181</ele>
        <time>2012-11-04T08:40:07.000Z</time>
      </trkpt>
      <trkpt lat="46.64878" lon="4.80374">
        <ele>181</ele>
        <time>2012-11-04T08:40:09.000Z</time>
      </trkpt>
      <trkpt lat="46.6489" lon="4.80357">
        <ele>181</ele>
        <time>2012-11-04T08:40:12.000Z</time>
      </trkpt>
      <trkpt lat="46.64905" lon="4.80339">
        <ele>181</ele>
        <time>2012-11-04T08:40:15.000Z</time>
      </trkpt>
      <trkpt lat="46.64936" lon="4.80291">
        <ele>181</ele>
        <time>2012-11-04T08:40:22.000Z</time>
      </trkpt>
      <trkpt lat="46.64951" lon="4.80268">
        <ele>182</ele>
        <time>2012-11-04T08:40:26.000Z</time>
      </trkpt>
      <trkpt lat="46.64954" lon="4.80258">
        <ele>182</ele>
        <time>2012-11-04T08:40:28.000Z</time>
      </trkpt>
      <trkpt lat="46.64956" lon="4.80214">
        <ele>183</ele>
        <time>2012-11-04T08:40:32.000Z</time>
      </trkpt>
      <trkpt lat="46.64956" lon="4.8019">
        <ele>183</ele>
        <time>2012-11-04T08:40:35.000Z</time>
      </trkpt>
      <trkpt lat="46.64954" lon="4.80162">
        <ele>184</ele>
        <time>2012-11-04T08:40:38.000Z</time>
      </trkpt>
      <trkpt lat="46.64943" lon="4.80091">
        <ele>184</ele>
        <time>2012-11-04T08:40:47.000Z</time>
      </trkpt>
      <trkpt lat="46.64943" lon="4.80096">
        <ele>184</ele>
        <time>2012-11-04T08:40:49.000Z</time>
      </trkpt>
      <trkpt lat="46.6495" lon="4.80088">
        <ele>184</ele>
        <time>2012-11-04T08:40:52.000Z</time>
      </trkpt>
      <trkpt lat="46.64955" lon="4.80095">
        <ele>184</ele>
        <time>2012-11-04T08:40:54.000Z</time>
      </trkpt>
      <trkpt lat="46.64989" lon="4.80154">
        <ele>184</ele>
        <time>2012-11-04T08:41:02.000Z</time>
      </trkpt>
      <trkpt lat="46.65028" lon="4.80211">
        <ele>183</ele>
        <time>2012-11-04T08:41:11.000Z</time>
      </trkpt>
      <trkpt lat="46.65065" lon="4.80266">
        <ele>182</ele>
        <time>2012-11-04T08:41:20.000Z</time>
      </trkpt>
      <trkpt lat="46.65088" lon="4.80299">
        <ele>181</ele>
        <time>2012-11-04T08:41:26.000Z</time>
      </trkpt>
      <trkpt lat="46.65121" lon="4.80353">
        <ele>181</ele>
        <time>2012-11-04T08:41:35.000Z</time>
      </trkpt>
      <trkpt lat="46.65144" lon="4.80395">
        <ele>180</ele>
        <time>2012-11-04T08:41:43.000Z</time>
      </trkpt>
      <trkpt lat="46.65183" lon="4.80442">
        <ele>180</ele>
        <time>2012-11-04T08:41:49.000Z</time>
      </trkpt>
      <trkpt lat="46.65196" lon="4.80462">
        <ele>180</ele>
        <time>2012-11-04T08:41:52.000Z</time>
      </trkpt>
      <trkpt lat="46.65206" lon="4.80484">
        <ele>180</ele>
        <time>2012-11-04T08:41:55.000Z</time>
      </trkpt>
      <trkpt lat="46.65224" lon="4.80527">
        <ele>181</ele>
        <time>2012-11-04T08:42:00.000Z</time>
      </trkpt>
      <trkpt lat="46.65257" lon="4.80589">
        <ele>181</ele>
        <time>2012-11-04T08:42:08.000Z</time>
      </trkpt>
      <trkpt lat="46.65296" lon="4.8066">
        <ele>181</ele>
        <time>2012-11-04T08:42:18.000Z</time>
      </trkpt>
      <trkpt lat="46.6531" lon="4.80667">
        <ele>181</ele>
        <time>2012-11-04T08:42:21.000Z</time>
      </trkpt>
      <trkpt lat="46.65326" lon="4.80683">
        <ele>181</ele>
        <time>2012-11-04T08:42:24.000Z</time>
      </trkpt>
      <trkpt lat="46.65342" lon="4.807">
        <ele>180</ele>
        <time>2012-11-04T08:42:27.000Z</time>
      </trkpt>
      <trkpt lat="46.65376" lon="4.80746">
        <ele>180</ele>
        <time>2012-11-04T08:42:34.000Z</time>
      </trkpt>
      <trkpt lat="46.65386" lon="4.80758">
        <ele>180</ele>
        <time>2012-11-04T08:42:36.000Z</time>
      </trkpt>
      <trkpt lat="46.65426" lon="4.80806">
        <ele>180</ele>
        <time>2012-11-04T08:42:44.000Z</time>
      </trkpt>
      <trkpt lat="46.65443" lon="4.80822">
        <ele>180</ele>
        <time>2012-11-04T08:42:47.000Z</time>
      </trkpt>
      <trkpt lat="46.65452" lon="4.80831">
        <ele>181</ele>
        <time>2012-11-04T08:42:49.000Z</time>
      </trkpt>
      <trkpt lat="46.65473" lon="4.80841">
        <ele>181</ele>
        <time>2012-11-04T08:42:54.000Z</time>
      </trkpt>
      <trkpt lat="46.65481" lon="4.8085">
        <ele>180</ele>
        <time>2012-11-04T08:42:56.000Z</time>
      </trkpt>
      <trkpt lat="46.6552" lon="4.80893">
        <ele>180</ele>
        <time>2012-11-04T08:43:04.000Z</time>
      </trkpt>
      <trkpt lat="46.65556" lon="4.8092">
        <ele>181</ele>
        <time>2012-11-04T08:43:15.000Z</time>
      </trkpt>
      <trkpt lat="46.65564" lon="4.80905">
        <ele>181</ele>
        <time>2012-11-04T08:43:18.000Z</time>
      </trkpt>
      <trkpt lat="46.65568" lon="4.80895">
        <ele>181</ele>
        <time>2012-11-04T08:43:20.000Z</time>
      </trkpt>
      <trkpt lat="46.65575" lon="4.80883">
        <ele>181</ele>
        <time>2012-11-04T08:43:22.000Z</time>
      </trkpt>
      <trkpt lat="46.6558" lon="4.80871">
        <ele>182</ele>
        <time>2012-11-04T08:43:24.000Z</time>
      </trkpt>
      <trkpt lat="46.65594" lon="4.80842">
        <ele>183</ele>
        <time>2012-11-04T08:43:29.000Z</time>
      </trkpt>
      <trkpt lat="46.656" lon="4.80832">
        <ele>184</ele>
        <time>2012-11-04T08:43:31.000Z</time>
      </trkpt>
      <trkpt lat="46.65609" lon="4.80829">
        <ele>185</ele>
        <time>2012-11-04T08:43:34.000Z</time>
      </trkpt>
      <trkpt lat="46.65623" lon="4.80821">
        <ele>186</ele>
        <time>2012-11-04T08:43:37.000Z</time>
      </trkpt>
      <trkpt lat="46.65631" lon="4.80813">
        <ele>186</ele>
        <time>2012-11-04T08:43:39.000Z</time>
      </trkpt>
      <trkpt lat="46.65639" lon="4.80809">
        <ele>187</ele>
        <time>2012-11-04T08:43:41.000Z</time>
      </trkpt>
      <trkpt lat="46.65659" lon="4.808">
        <ele>188</ele>
        <time>2012-11-04T08:43:46.000Z</time>
      </trkpt>
      <trkpt lat="46.6568" lon="4.80791">
        <ele>189</ele>
        <time>2012-11-04T08:43:52.000Z</time>
      </trkpt>
      <trkpt lat="46.65736" lon="4.80768">
        <ele>189</ele>
        <time>2012-11-04T08:44:08.000Z</time>
      </trkpt>
      <trkpt lat="46.65763" lon="4.8075">
        <ele>189</ele>
        <time>2012-11-04T08:44:16.000Z</time>
      </trkpt>
      <trkpt lat="46.65769" lon="4.80742">
        <ele>189</ele>
        <time>2012-11-04T08:44:19.000Z</time>
      </trkpt>
      <trkpt lat="46.65773" lon="4.8074">
        <ele>189</ele>
        <time>2012-11-04T08:44:21.000Z</time>
      </trkpt>
      <trkpt lat="46.65791" lon="4.80732">
        <ele>188</ele>
        <time>2012-11-04T08:44:27.000Z</time>
      </trkpt>
      <trkpt lat="46.6581" lon="4.80719">
        <ele>188</ele>
        <time>2012-11-04T08:44:35.000Z</time>
      </trkpt>
      <trkpt lat="46.65812" lon="4.80713">
        <ele>188</ele>
        <time>2012-11-04T08:44:38.000Z</time>
      </trkpt>
      <trkpt lat="46.65828" lon="4.80659">
        <ele>187</ele>
        <time>2012-11-04T08:44:52.000Z</time>
      </trkpt>
      <trkpt lat="46.65827" lon="4.80655">
        <ele>187</ele>
        <time>2012-11-04T08:44:54.000Z</time>
      </trkpt>
      <trkpt lat="46.65824" lon="4.80649">
        <ele>187</ele>
        <time>2012-11-04T08:44:57.000Z</time>
      </trkpt>
      <trkpt lat="46.65818" lon="4.80642">
        <ele>187</ele>
        <time>2012-11-04T08:45:00.000Z</time>
      </trkpt>
      <trkpt lat="46.65807" lon="4.80626">
        <ele>188</ele>
        <time>2012-11-04T08:45:05.000Z</time>
      </trkpt>
      <trkpt lat="46.65806" lon="4.80618">
        <ele>188</ele>
        <time>2012-11-04T08:45:07.000Z</time>
      </trkpt>
      <trkpt lat="46.65807" lon="4.80606">
        <ele>188</ele>
        <time>2012-11-04T08:45:10.000Z</time>
      </trkpt>
      <trkpt lat="46.65804" lon="4.80579">
        <ele>188</ele>
        <time>2012-11-04T08:45:15.000Z</time>
      </trkpt>
      <trkpt lat="46.65795" lon="4.80539">
        <ele>189</ele>
        <time>2012-11-04T08:45:23.000Z</time>
      </trkpt>
      <trkpt lat="46.65792" lon="4.80529">
        <ele>189</ele>
        <time>2012-11-04T08:45:25.000Z</time>
      </trkpt>
      <trkpt lat="46.65789" lon="4.80515">
        <ele>190</ele>
        <time>2012-11-04T08:45:28.000Z</time>
      </trkpt>
      <trkpt lat="46.65789" lon="4.80506">
        <ele>190</ele>
        <time>2012-11-04T08:45:30.000Z</time>
      </trkpt>
      <trkpt lat="46.65788" lon="4.80495">
        <ele>191</ele>
        <time>2012-11-04T08:45:33.000Z</time>
      </trkpt>
      <trkpt lat="46.6579" lon="4.80435">
        <ele>191</ele>
        <time>2012-11-04T08:45:43.000Z</time>
      </trkpt>
      <trkpt lat="46.65788" lon="4.80416">
        <ele>191</ele>
        <time>2012-11-04T08:45:46.000Z</time>
      </trkpt>
      <trkpt lat="46.65784" lon="4.80405">
        <ele>190</ele>
        <time>2012-11-04T08:45:48.000Z</time>
      </trkpt>
      <trkpt lat="46.65776" lon="4.80397">
        <ele>190</ele>
        <time>2012-11-04T08:45:51.000Z</time>
      </trkpt>
      <trkpt lat="46.65767" lon="4.80392">
        <ele>190</ele>
        <time>2012-11-04T08:45:54.000Z</time>
      </trkpt>
      <trkpt lat="46.65748" lon="4.8038">
        <ele>190</ele>
        <time>2012-11-04T08:45:59.000Z</time>
      </trkpt>
      <trkpt lat="46.65738" lon="4.80367">
        <ele>190</ele>
        <time>2012-11-04T08:46:02.000Z</time>
      </trkpt>
      <trkpt lat="46.65723" lon="4.80337">
        <ele>190</ele>
        <time>2012-11-04T08:46:07.000Z</time>
      </trkpt>
      <trkpt lat="46.65719" lon="4.80323">
        <ele>190</ele>
        <time>2012-11-04T08:46:09.000Z</time>
      </trkpt>
      <trkpt lat="46.65712" lon="4.80306">
        <ele>191</ele>
        <time>2012-11-04T08:46:12.000Z</time>
      </trkpt>
      <trkpt lat="46.65697" lon="4.8028">
        <ele>191</ele>
        <time>2012-11-04T08:46:20.000Z</time>
      </trkpt>
      <trkpt lat="46.65689" lon="4.80273">
        <ele>191</ele>
        <time>2012-11-04T08:46:23.000Z</time>
      </trkpt>
      <trkpt lat="46.65683" lon="4.80265">
        <ele>191</ele>
        <time>2012-11-04T08:46:25.000Z</time>
      </trkpt>
      <trkpt lat="46.65675" lon="4.80253">
        <ele>192</ele>
        <time>2012-11-04T08:46:28.000Z</time>
      </trkpt>
      <trkpt lat="46.65661" lon="4.80224">
        <ele>192</ele>
        <time>2012-11-04T08:46:39.000Z</time>
      </trkpt>
      <trkpt lat="46.6566" lon="4.80215">
        <ele>192</ele>
        <time>2012-11-04T08:46:42.000Z</time>
      </trkpt>
      <trkpt lat="46.65656" lon="4.80208">
        <ele>192</ele>
        <time>2012-11-04T08:46:44.000Z</time>
      </trkpt>
      <trkpt lat="46.6565" lon="4.80201">
        <ele>192</ele>
        <time>2012-11-04T08:46:46.000Z</time>
      </trkpt>
      <trkpt lat="46.65637" lon="4.80177">
        <ele>192</ele>
        <time>2012-11-04T08:46:51.000Z</time>
      </trkpt>
      <trkpt lat="46.65632" lon="4.80166">
        <ele>192</ele>
        <time>2012-11-04T08:46:53.000Z</time>
      </trkpt>
      <trkpt lat="46.6562" lon="4.80135">
        <ele>193</ele>
        <time>2012-11-04T08:46:59.000Z</time>
      </trkpt>
      <trkpt lat="46.6561" lon="4.80123">
        <ele>193</ele>
        <time>2012-11-04T08:47:02.000Z</time>
      </trkpt>
      <trkpt lat="46.65595" lon="4.80102">
        <ele>193</ele>
        <time>2012-11-04T08:47:07.000Z</time>
      </trkpt>
      <trkpt lat="46.65591" lon="4.80091">
        <ele>193</ele>
        <time>2012-11-04T08:47:09.000Z</time>
      </trkpt>
      <trkpt lat="46.65589" lon="4.80074">
        <ele>193</ele>
        <time>2012-11-04T08:47:12.000Z</time>
      </trkpt>
      <trkpt lat="46.6559" lon="4.80062">
        <ele>193</ele>
        <time>2012-11-04T08:47:14.000Z</time>
      </trkpt>
      <trkpt lat="46.6559" lon="4.80051">
        <ele>192</ele>
        <time>2012-11-04T08:47:16.000Z</time>
      </trkpt>
      <trkpt lat="46.65587" lon="4.80037">
        <ele>192</ele>
        <time>2012-11-04T08:47:19.000Z</time>
      </trkpt>
      <trkpt lat="46.65588" lon="4.80027">
        <ele>191</ele>
        <time>2012-11-04T08:47:22.000Z</time>
      </trkpt>
      <trkpt lat="46.65587" lon="4.80022">
        <ele>190</ele>
        <time>2012-11-04T08:47:25.000Z</time>
      </trkpt>
      <trkpt lat="46.65586" lon="4.8002">
        <ele>190</ele>
        <time>2012-11-04T08:47:27.000Z</time>
      </trkpt>
      <trkpt lat="46.65583" lon="4.80017">
        <ele>190</ele>
        <time>2012-11-04T08:47:29.000Z</time>
      </trkpt>
      <trkpt lat="46.65576" lon="4.80015">
        <ele>189</ele>
        <time>2012-11-04T08:47:32.000Z</time>
      </trkpt>
      <trkpt lat="46.65562" lon="4.80009">
        <ele>189</ele>
        <time>2012-11-04T08:47:36.000Z</time>
      </trkpt>
      <trkpt lat="46.65556" lon="4.80004">
        <ele>189</ele>
        <time>2012-11-04T08:47:38.000Z</time>
      </trkpt>
      <trkpt lat="46.6554" lon="4.79985">
        <ele>190</ele>
        <time>2012-11-04T08:47:43.000Z</time>
      </trkpt>
      <trkpt lat="46.65536" lon="4.79974">
        <ele>190</ele>
        <time>2012-11-04T08:47:45.000Z</time>
      </trkpt>
      <trkpt lat="46.6552" lon="4.79922">
        <ele>191</ele>
        <time>2012-11-04T08:47:56.000Z</time>
      </trkpt>
      <trkpt lat="46.65519" lon="4.79915">
        <ele>191</ele>
        <time>2012-11-04T08:47:59.000Z</time>
      </trkpt>
      <trkpt lat="46.65514" lon="4.79899">
        <ele>191</ele>
        <time>2012-11-04T08:48:04.000Z</time>
      </trkpt>
      <trkpt lat="46.65509" lon="4.79888">
        <ele>191</ele>
        <time>2012-11-04T08:48:07.000Z</time>
      </trkpt>
      <trkpt lat="46.65504" lon="4.79881">
        <ele>191</ele>
        <time>2012-11-04T08:48:09.000Z</time>
      </trkpt>
      <trkpt lat="46.65492" lon="4.7987">
        <ele>190</ele>
        <time>2012-11-04T08:48:14.000Z</time>
      </trkpt>
      <trkpt lat="46.65485" lon="4.79868">
        <ele>190</ele>
        <time>2012-11-04T08:48:16.000Z</time>
      </trkpt>
      <trkpt lat="46.65476" lon="4.7986">
        <ele>190</ele>
        <time>2012-11-04T08:48:19.000Z</time>
      </trkpt>
      <trkpt lat="46.65472" lon="4.79855">
        <ele>190</ele>
        <time>2012-11-04T08:48:21.000Z</time>
      </trkpt>
      <trkpt lat="46.65469" lon="4.79845">
        <ele>189</ele>
        <time>2012-11-04T08:48:24.000Z</time>
      </trkpt>
      <trkpt lat="46.65457" lon="4.79809">
        <ele>188</ele>
        <time>2012-11-04T08:48:35.000Z</time>
      </trkpt>
      <trkpt lat="46.65446" lon="4.79776">
        <ele>187</ele>
        <time>2012-11-04T08:48:46.000Z</time>
      </trkpt>
      <trkpt lat="46.65443" lon="4.7977">
        <ele>187</ele>
        <time>2012-11-04T08:48:48.000Z</time>
      </trkpt>
      <trkpt lat="46.65418" lon="4.79734">
        <ele>187</ele>
        <time>2012-11-04T08:49:02.000Z</time>
      </trkpt>
      <trkpt lat="46.65409" lon="4.79729">
        <ele>186</ele>
        <time>2012-11-04T08:49:05.000Z</time>
      </trkpt>
      <trkpt lat="46.65391" lon="4.79713">
        <ele>185</ele>
        <time>2012-11-04T08:49:11.000Z</time>
      </trkpt>
      <trkpt lat="46.65382" lon="4.79697">
        <ele>185</ele>
        <time>2012-11-04T08:49:14.000Z</time>
      </trkpt>
      <trkpt lat="46.65377" lon="4.79687">
        <ele>184</ele>
        <time>2012-11-04T08:49:16.000Z</time>
      </trkpt>
      <trkpt lat="46.65372" lon="4.79665">
        <ele>184</ele>
        <time>2012-11-04T08:49:19.000Z</time>
      </trkpt>
      <trkpt lat="46.65369" lon="4.79655">
        <ele>183</ele>
        <time>2012-11-04T08:49:21.000Z</time>
      </trkpt>
      <trkpt lat="46.65365" lon="4.79642">
        <ele>183</ele>
        <time>2012-11-04T08:49:24.000Z</time>
      </trkpt>
      <trkpt lat="46.65361" lon="4.79622">
        <ele>183</ele>
        <time>2012-11-04T08:49:28.000Z</time>
      </trkpt>
      <trkpt lat="46.65361" lon="4.79608">
        <ele>183</ele>
        <time>2012-11-04T08:49:31.000Z</time>
      </trkpt>
      <trkpt lat="46.65364" lon="4.79591">
        <ele>183</ele>
        <time>2012-11-04T08:49:34.000Z</time>
      </trkpt>
      <trkpt lat="46.65367" lon="4.7958">
        <ele>182</ele>
        <time>2012-11-04T08:49:36.000Z</time>
      </trkpt>
      <trkpt lat="46.65387" lon="4.79526">
        <ele>182</ele>
        <time>2012-11-04T08:49:47.000Z</time>
      </trkpt>
      <trkpt lat="46.65396" lon="4.79529">
        <ele>182</ele>
        <time>2012-11-04T08:49:49.000Z</time>
      </trkpt>
      <trkpt lat="46.65406" lon="4.79537">
        <ele>182</ele>
        <time>2012-11-04T08:49:51.000Z</time>
      </trkpt>
      <trkpt lat="46.65428" lon="4.79549">
        <ele>182</ele>
        <time>2012-11-04T08:49:56.000Z</time>
      </trkpt>
      <trkpt lat="46.65437" lon="4.79547">
        <ele>182</ele>
        <time>2012-11-04T08:49:59.000Z</time>
      </trkpt>
      <trkpt lat="46.65451" lon="4.79541">
        <ele>182</ele>
        <time>2012-11-04T08:50:07.000Z</time>
      </trkpt>
      <trkpt lat="46.65448" lon="4.79544">
        <ele>182</ele>
        <time>2012-11-04T08:50:09.000Z</time>
      </trkpt>
      <trkpt lat="46.65434" lon="4.79554">
        <ele>182</ele>
        <time>2012-11-04T08:50:16.000Z</time>
      </trkpt>
      <trkpt lat="46.65429" lon="4.79555">
        <ele>182</ele>
        <time>2012-11-04T08:50:18.000Z</time>
      </trkpt>
      <trkpt lat="46.65426" lon="4.79553">
        <ele>182</ele>
        <time>2012-11-04T08:50:21.000Z</time>
      </trkpt>
      <trkpt lat="46.65428" lon="4.79553">
        <ele>182</ele>
        <time>2012-11-04T08:50:29.000Z</time>
      </trkpt>
      <trkpt lat="46.65427" lon="4.79553">
        <ele>182</ele>
        <time>2012-11-04T08:50:32.000Z</time>
      </trkpt>
      <trkpt lat="46.65426" lon="4.79553">
        <ele>182</ele>
        <time>2012-11-04T08:50:36.000Z</time>
      </trkpt>
      <trkpt lat="46.65427" lon="4.79556">
        <ele>182</ele>
        <time>2012-11-04T08:50:39.000Z</time>
      </trkpt>
      <trkpt lat="46.65423" lon="4.79551">
        <ele>182</ele>
        <time>2012-11-04T08:50:44.000Z</time>
      </trkpt>
      <trkpt lat="46.65429" lon="4.7955">
        <ele>182</ele>
        <time>2012-11-04T08:50:47.000Z</time>
      </trkpt>
      <trkpt lat="46.65437" lon="4.79546">
        <ele>182</ele>
        <time>2012-11-04T08:50:50.000Z</time>
      </trkpt>
      <trkpt lat="46.65452" lon="4.79534">
        <ele>182</ele>
        <time>2012-11-04T08:50:55.000Z</time>
      </trkpt>
      <trkpt lat="46.65458" lon="4.79519">
        <ele>182</ele>
        <time>2012-11-04T08:50:58.000Z</time>
      </trkpt>
      <trkpt lat="46.65463" lon="4.795">
        <ele>181</ele>
        <time>2012-11-04T08:51:01.000Z</time>
      </trkpt>
      <trkpt lat="46.65487" lon="4.79439">
        <ele>181</ele>
        <time>2012-11-04T08:51:10.000Z</time>
      </trkpt>
      <trkpt lat="46.65512" lon="4.79362">
        <ele>181</ele>
        <time>2012-11-04T08:51:21.000Z</time>
      </trkpt>
      <trkpt lat="46.65514" lon="4.79348">
        <ele>181</ele>
        <time>2012-11-04T08:51:23.000Z</time>
      </trkpt>
      <trkpt lat="46.65525" lon="4.79328">
        <ele>181</ele>
        <time>2012-11-04T08:51:26.000Z</time>
      </trkpt>
      <trkpt lat="46.65553" lon="4.79271">
        <ele>181</ele>
        <time>2012-11-04T08:51:35.000Z</time>
      </trkpt>
      <trkpt lat="46.65558" lon="4.79247">
        <ele>181</ele>
        <time>2012-11-04T08:51:38.000Z</time>
      </trkpt>
      <trkpt lat="46.65566" lon="4.79224">
        <ele>180</ele>
        <time>2012-11-04T08:51:41.000Z</time>
      </trkpt>
      <trkpt lat="46.65592" lon="4.79154">
        <ele>180</ele>
        <time>2012-11-04T08:51:51.000Z</time>
      </trkpt>
      <trkpt lat="46.65621" lon="4.79091">
        <ele>180</ele>
        <time>2012-11-04T08:52:00.000Z</time>
      </trkpt>
      <trkpt lat="46.65627" lon="4.79073">
        <ele>180</ele>
        <time>2012-11-04T08:52:02.000Z</time>
      </trkpt>
      <trkpt lat="46.65649" lon="4.79012">
        <ele>181</ele>
        <time>2012-11-04T08:52:09.000Z</time>
      </trkpt>
      <trkpt lat="46.6567" lon="4.78958">
        <ele>182</ele>
        <time>2012-11-04T08:52:16.000Z</time>
      </trkpt>
      <trkpt lat="46.65685" lon="4.78931">
        <ele>183</ele>
        <time>2012-11-04T08:52:20.000Z</time>
      </trkpt>
      <trkpt lat="46.6571" lon="4.7889">
        <ele>184</ele>
        <time>2012-11-04T08:52:27.000Z</time>
      </trkpt>
      <trkpt lat="46.65728" lon="4.78865">
        <ele>185</ele>
        <time>2012-11-04T08:52:32.000Z</time>
      </trkpt>
      <trkpt lat="46.65731" lon="4.78854">
        <ele>185</ele>
        <time>2012-11-04T08:52:34.000Z</time>
      </trkpt>
      <trkpt lat="46.65742" lon="4.78839">
        <ele>186</ele>
        <time>2012-11-04T08:52:37.000Z</time>
      </trkpt>
      <trkpt lat="46.65754" lon="4.78834">
        <ele>186</ele>
        <time>2012-11-04T08:52:39.000Z</time>
      </trkpt>
      <trkpt lat="46.6576" lon="4.78824">
        <ele>187</ele>
        <time>2012-11-04T08:52:41.000Z</time>
      </trkpt>
      <trkpt lat="46.65774" lon="4.78816">
        <ele>187</ele>
        <time>2012-11-04T08:52:44.000Z</time>
      </trkpt>
      <trkpt lat="46.65781" lon="4.78811">
        <ele>188</ele>
        <time>2012-11-04T08:52:46.000Z</time>
      </trkpt>
      <trkpt lat="46.65805" lon="4.78788">
        <ele>189</ele>
        <time>2012-11-04T08:52:51.000Z</time>
      </trkpt>
      <trkpt lat="46.65823" lon="4.78776">
        <ele>189</ele>
        <time>2012-11-04T08:52:54.000Z</time>
      </trkpt>
      <trkpt lat="46.65838" lon="4.78767">
        <ele>190</ele>
        <time>2012-11-04T08:52:57.000Z</time>
      </trkpt>
      <trkpt lat="46.65867" lon="4.78758">
        <ele>191</ele>
        <time>2012-11-04T08:53:02.000Z</time>
      </trkpt>
      <trkpt lat="46.65884" lon="4.7875">
        <ele>192</ele>
        <time>2012-11-04T08:53:05.000Z</time>
      </trkpt>
      <trkpt lat="46.65899" lon="4.78741">
        <ele>193</ele>
        <time>2012-11-04T08:53:08.000Z</time>
      </trkpt>
      <trkpt lat="46.65916" lon="4.78729">
        <ele>194</ele>
        <time>2012-11-04T08:53:11.000Z</time>
      </trkpt>
      <trkpt lat="46.65949" lon="4.78711">
        <ele>195</ele>
        <time>2012-11-04T08:53:17.000Z</time>
      </trkpt>
      <trkpt lat="46.6596" lon="4.78706">
        <ele>196</ele>
        <time>2012-11-04T08:53:19.000Z</time>
      </trkpt>
      <trkpt lat="46.65991" lon="4.78699">
        <ele>195</ele>
        <time>2012-11-04T08:53:27.000Z</time>
      </trkpt>
      <trkpt lat="46.65994" lon="4.787">
        <ele>195</ele>
        <time>2012-11-04T08:53:30.000Z</time>
      </trkpt>
      <trkpt lat="46.65998" lon="4.78701">
        <ele>195</ele>
        <time>2012-11-04T08:53:32.000Z</time>
      </trkpt>
      <trkpt lat="46.66027" lon="4.78628">
        <ele>195</ele>
        <time>2012-11-04T08:53:39.000Z</time>
      </trkpt>
      <trkpt lat="46.66034" lon="4.78619">
        <ele>195</ele>
        <time>2012-11-04T08:53:41.000Z</time>
      </trkpt>
      <trkpt lat="46.66041" lon="4.78606">
        <ele>195</ele>
        <time>2012-11-04T08:53:44.000Z</time>
      </trkpt>
      <trkpt lat="46.66078" lon="4.78548">
        <ele>195</ele>
        <time>2012-11-04T08:53:58.000Z</time>
      </trkpt>
      <trkpt lat="46.6611" lon="4.78497">
        <ele>196</ele>
        <time>2012-11-04T08:54:06.000Z</time>
      </trkpt>
      <trkpt lat="46.66137" lon="4.7846">
        <ele>197</ele>
        <time>2012-11-04T08:54:13.000Z</time>
      </trkpt>
      <trkpt lat="46.66162" lon="4.78423">
        <ele>198</ele>
        <time>2012-11-04T08:54:22.000Z</time>
      </trkpt>
      <trkpt lat="46.66171" lon="4.7841">
        <ele>199</ele>
        <time>2012-11-04T08:54:29.000Z</time>
      </trkpt>
      <trkpt lat="46.66174" lon="4.78406">
        <ele>199</ele>
        <time>2012-11-04T08:54:32.000Z</time>
      </trkpt>
      <trkpt lat="46.6618" lon="4.78402">
        <ele>199</ele>
        <time>2012-11-04T08:54:34.000Z</time>
      </trkpt>
      <trkpt lat="46.66189" lon="4.78398">
        <ele>199</ele>
        <time>2012-11-04T08:54:37.000Z</time>
      </trkpt>
      <trkpt lat="46.66193" lon="4.78399">
        <ele>200</ele>
        <time>2012-11-04T08:54:39.000Z</time>
      </trkpt>
      <trkpt lat="46.66199" lon="4.78403">
        <ele>200</ele>
        <time>2012-11-04T08:54:42.000Z</time>
      </trkpt>
      <trkpt lat="46.66209" lon="4.78413">
        <ele>200</ele>
        <time>2012-11-04T08:54:47.000Z</time>
      </trkpt>
      <trkpt lat="46.66212" lon="4.78419">
        <ele>200</ele>
        <time>2012-11-04T08:54:49.000Z</time>
      </trkpt>
      <trkpt lat="46.6622" lon="4.78426">
        <ele>200</ele>
        <time>2012-11-04T08:54:52.000Z</time>
      </trkpt>
      <trkpt lat="46.66226" lon="4.78437">
        <ele>201</ele>
        <time>2012-11-04T08:54:55.000Z</time>
      </trkpt>
      <trkpt lat="46.66252" lon="4.78492">
        <ele>201</ele>
        <time>2012-11-04T08:55:08.000Z</time>
      </trkpt>
      <trkpt lat="46.66278" lon="4.78551">
        <ele>200</ele>
        <time>2012-11-04T08:55:21.000Z</time>
      </trkpt>
      <trkpt lat="46.66286" lon="4.78579">
        <ele>200</ele>
        <time>2012-11-04T08:55:26.000Z</time>
      </trkpt>
      <trkpt lat="46.66293" lon="4.78604">
        <ele>199</ele>
        <time>2012-11-04T08:55:31.000Z</time>
      </trkpt>
      <trkpt lat="46.66312" lon="4.78665">
        <ele>200</ele>
        <time>2012-11-04T08:55:43.000Z</time>
      </trkpt>
      <trkpt lat="46.66337" lon="4.78732">
        <ele>200</ele>
        <time>2012-11-04T08:55:56.000Z</time>
      </trkpt>
      <trkpt lat="46.66342" lon="4.7875">
        <ele>201</ele>
        <time>2012-11-04T08:55:59.000Z</time>
      </trkpt>
      <trkpt lat="46.66347" lon="4.78765">
        <ele>200</ele>
        <time>2012-11-04T08:56:02.000Z</time>
      </trkpt>
      <trkpt lat="46.66361" lon="4.78814">
        <ele>199</ele>
        <time>2012-11-04T08:56:11.000Z</time>
      </trkpt>
      <trkpt lat="46.66367" lon="4.78834">
        <ele>198</ele>
        <time>2012-11-04T08:56:15.000Z</time>
      </trkpt>
      <trkpt lat="46.66393" lon="4.789">
        <ele>198</ele>
        <time>2012-11-04T08:56:27.000Z</time>
      </trkpt>
      <trkpt lat="46.66404" lon="4.78928">
        <ele>199</ele>
        <time>2012-11-04T08:56:32.000Z</time>
      </trkpt>
      <trkpt lat="46.66408" lon="4.78945">
        <ele>199</ele>
        <time>2012-11-04T08:56:35.000Z</time>
      </trkpt>
      <trkpt lat="46.66409" lon="4.78956">
        <ele>199</ele>
        <time>2012-11-04T08:56:37.000Z</time>
      </trkpt>
      <trkpt lat="46.66407" lon="4.78981">
        <ele>199</ele>
        <time>2012-11-04T08:56:43.000Z</time>
      </trkpt>
      <trkpt lat="46.66409" lon="4.78995">
        <ele>199</ele>
        <time>2012-11-04T08:56:46.000Z</time>
      </trkpt>
      <trkpt lat="46.66414" lon="4.7901">
        <ele>199</ele>
        <time>2012-11-04T08:56:49.000Z</time>
      </trkpt>
      <trkpt lat="46.66417" lon="4.79018">
        <ele>198</ele>
        <time>2012-11-04T08:56:51.000Z</time>
      </trkpt>
      <trkpt lat="46.6643" lon="4.79051">
        <ele>197</ele>
        <time>2012-11-04T08:56:58.000Z</time>
      </trkpt>
      <trkpt lat="46.66449" lon="4.79098">
        <ele>196</ele>
        <time>2012-11-04T08:57:06.000Z</time>
      </trkpt>
      <trkpt lat="46.66468" lon="4.79161">
        <ele>196</ele>
        <time>2012-11-04T08:57:16.000Z</time>
      </trkpt>
      <trkpt lat="46.66471" lon="4.79174">
        <ele>195</ele>
        <time>2012-11-04T08:57:18.000Z</time>
      </trkpt>
      <trkpt lat="46.6648" lon="4.79202">
        <ele>196</ele>
        <time>2012-11-04T08:57:22.000Z</time>
      </trkpt>
      <trkpt lat="46.66486" lon="4.79217">
        <ele>196</ele>
        <time>2012-11-04T08:57:24.000Z</time>
      </trkpt>
      <trkpt lat="46.66496" lon="4.7925">
        <ele>196</ele>
        <time>2012-11-04T08:57:29.000Z</time>
      </trkpt>
      <trkpt lat="46.66505" lon="4.79284">
        <ele>197</ele>
        <time>2012-11-04T08:57:34.000Z</time>
      </trkpt>
      <trkpt lat="46.66508" lon="4.7931">
        <ele>197</ele>
        <time>2012-11-04T08:57:37.000Z</time>
      </trkpt>
      <trkpt lat="46.66516" lon="4.79353">
        <ele>196</ele>
        <time>2012-11-04T08:57:46.000Z</time>
      </trkpt>
      <trkpt lat="46.66532" lon="4.79431">
        <ele>196</ele>
        <time>2012-11-04T08:58:01.000Z</time>
      </trkpt>
      <trkpt lat="46.66538" lon="4.79449">
        <ele>196</ele>
        <time>2012-11-04T08:58:04.000Z</time>
      </trkpt>
      <trkpt lat="46.66543" lon="4.79479">
        <ele>196</ele>
        <time>2012-11-04T08:58:09.000Z</time>
      </trkpt>
      <trkpt lat="46.66546" lon="4.79496">
        <ele>197</ele>
        <time>2012-11-04T08:58:12.000Z</time>
      </trkpt>
      <trkpt lat="46.66558" lon="4.79536">
        <ele>197</ele>
        <time>2012-11-04T08:58:20.000Z</time>
      </trkpt>
      <trkpt lat="46.66563" lon="4.79545">
        <ele>197</ele>
        <time>2012-11-04T08:58:22.000Z</time>
      </trkpt>
      <trkpt lat="46.66565" lon="4.79551">
        <ele>197</ele>
        <time>2012-11-04T08:58:25.000Z</time>
      </trkpt>
      <trkpt lat="46.66564" lon="4.79558">
        <ele>198</ele>
        <time>2012-11-04T08:58:29.000Z</time>
      </trkpt>
      <trkpt lat="46.6656" lon="4.79581">
        <ele>197</ele>
        <time>2012-11-04T08:58:57.000Z</time>
      </trkpt>
      <trkpt lat="46.6656" lon="4.79581">
        <ele>197</ele>
        <time>2012-11-04T08:59:07.000Z</time>
      </trkpt>
      <trkpt lat="46.66561" lon="4.79588">
        <ele>197</ele>
        <time>2012-11-04T09:00:45.000Z</time>
      </trkpt>
      <trkpt lat="46.66561" lon="4.79588">
        <ele>197</ele>
        <time>2012-11-04T09:00:55.000Z</time>
      </trkpt>
      <trkpt lat="46.66561" lon="4.79591">
        <ele>197</ele>
        <time>2012-11-04T09:02:54.000Z</time>
      </trkpt>
      <trkpt lat="46.6656" lon="4.79593">
        <ele>197</ele>
        <time>2012-11-04T09:03:21.000Z</time>
      </trkpt>
      <trkpt lat="46.6656" lon="4.79593">
        <ele>197</ele>
        <time>2012-11-04T09:03:31.000Z</time>
      </trkpt>
      <trkpt lat="46.66558" lon="4.79593">
        <ele>197</ele>
        <time>2012-11-04T09:03:47.000Z</time>
      </trkpt>
      <trkpt lat="46.66557" lon="4.79597">
        <ele>197</ele>
        <time>2012-11-04T09:03:50.000Z</time>
      </trkpt>
      <trkpt lat="46.66557" lon="4.79597">
        <ele>197</ele>
        <time>2012-11-04T09:04:00.000Z</time>
      </trkpt>
      <trkpt lat="46.66554" lon="4.79594">
        <ele>197</ele>
        <time>2012-11-04T09:04:02.000Z</time>
      </trkpt>
      <trkpt lat="46.66554" lon="4.79594">
        <ele>197</ele>
        <time>2012-11-04T09:04:12.000Z</time>
      </trkpt>
      <trkpt lat="46.66556" lon="4.79595">
        <ele>197</ele>
        <time>2012-11-04T09:04:22.000Z</time>
      </trkpt>
      <trkpt lat="46.66561" lon="4.79597">
        <ele>197</ele>
        <time>2012-11-04T09:04:32.000Z</time>
      </trkpt>
      <trkpt lat="46.66561" lon="4.79597">
        <ele>197</ele>
        <time>2012-11-04T09:04:42.000Z</time>
      </trkpt>
      <trkpt lat="46.66562" lon="4.79598">
        <ele>197</ele>
        <time>2012-11-04T09:04:47.000Z</time>
      </trkpt>
      <trkpt lat="46.66562" lon="4.79598">
        <ele>197</ele>
        <time>2012-11-04T09:04:57.000Z</time>
      </trkpt>
      <trkpt lat="46.66558" lon="4.79594">
        <ele>197</ele>
        <time>2012-11-04T09:05:25.000Z</time>
      </trkpt>
      <trkpt lat="46.66558" lon="4.79592">
        <ele>197</ele>
        <time>2012-11-04T09:05:32.000Z</time>
      </trkpt>
      <trkpt lat="46.6656" lon="4.79592">
        <ele>197</ele>
        <time>2012-11-04T09:05:39.000Z</time>
      </trkpt>
      <trkpt lat="46.66561" lon="4.79594">
        <ele>197</ele>
        <time>2012-11-04T09:05:42.000Z</time>
      </trkpt>
      <trkpt lat="46.66561" lon="4.79591">
        <ele>197</ele>
        <time>2012-11-04T09:05:46.000Z</time>
      </trkpt>
      <trkpt lat="46.66562" lon="4.79589">
        <ele>197</ele>
        <time>2012-11-04T09:05:54.000Z</time>
      </trkpt>
      <trkpt lat="46.66563" lon="4.79593">
        <ele>197</ele>
        <time>2012-11-04T09:05:56.000Z</time>
      </trkpt>
      <trkpt lat="46.66563" lon="4.79595">
        <ele>197</ele>
        <time>2012-11-04T09:05:58.000Z</time>
      </trkpt>
      <trkpt lat="46.66561" lon="4.79595">
        <ele>197</ele>
        <time>2012-11-04T09:06:21.000Z</time>
      </trkpt>
      <trkpt lat="46.6656" lon="4.79594">
        <ele>197</ele>
        <time>2012-11-04T09:06:23.000Z</time>
      </trkpt>
      <trkpt lat="46.6656" lon="4.79593">
        <ele>197</ele>
        <time>2012-11-04T09:06:26.000Z</time>
      </trkpt>
      <trkpt lat="46.66557" lon="4.7959">
        <ele>197</ele>
        <time>2012-11-04T09:06:29.000Z</time>
      </trkpt>
      <trkpt lat="46.66557" lon="4.79592">
        <ele>197</ele>
        <time>2012-11-04T09:06:34.000Z</time>
      </trkpt>
      <trkpt lat="46.66557" lon="4.79592">
        <ele>197</ele>
        <time>2012-11-04T09:06:44.000Z</time>
      </trkpt>
      <trkpt lat="46.66555" lon="4.79595">
        <ele>197</ele>
        <time>2012-11-04T09:06:49.000Z</time>
      </trkpt>
      <trkpt lat="46.66555" lon="4.79593">
        <ele>197</ele>
        <time>2012-11-04T09:06:55.000Z</time>
      </trkpt>
      <trkpt lat="46.66555" lon="4.79593">
        <ele>197</ele>
        <time>2012-11-04T09:07:05.000Z</time>
      </trkpt>
      <trkpt lat="46.66556" lon="4.79595">
        <ele>197</ele>
        <time>2012-11-04T09:08:02.000Z</time>
      </trkpt>
      <trkpt lat="46.66556" lon="4.79595">
        <ele>197</ele>
        <time>2012-11-04T09:08:12.000Z</time>
      </trkpt>
      <trkpt lat="46.66556" lon="4.79589">
        <ele>197</ele>
        <time>2012-11-04T09:08:28.000Z</time>
      </trkpt>
      <trkpt lat="46.66557" lon="4.79588">
        <ele>197</ele>
        <time>2012-11-04T09:08:31.000Z</time>
      </trkpt>
      <trkpt lat="46.66556" lon="4.79587">
        <ele>197</ele>
        <time>2012-11-04T09:08:34.000Z</time>
      </trkpt>
      <trkpt lat="46.66556" lon="4.79587">
        <ele>197</ele>
        <time>2012-11-04T09:08:44.000Z</time>
      </trkpt>
      <trkpt lat="46.66557" lon="4.7959">
        <ele>197</ele>
        <time>2012-11-04T09:11:50.000Z</time>
      </trkpt>
      <trkpt lat="46.66557" lon="4.79592">
        <ele>197</ele>
        <time>2012-11-04T09:11:53.000Z</time>
      </trkpt>
      <trkpt lat="46.66557" lon="4.79593">
        <ele>197</ele>
        <time>2012-11-04T09:11:55.000Z</time>
      </trkpt>
      <trkpt lat="46.66559" lon="4.79595">
        <ele>197</ele>
        <time>2012-11-04T09:12:08.000Z</time>
      </trkpt>
      <trkpt lat="46.66559" lon="4.79593">
        <ele>197</ele>
        <time>2012-11-04T09:12:15.000Z</time>
      </trkpt>
      <trkpt lat="46.66559" lon="4.79593">
        <ele>197</ele>
        <time>2012-11-04T09:12:25.000Z</time>
      </trkpt>
      <trkpt lat="46.66558" lon="4.79591">
        <ele>197</ele>
        <time>2012-11-04T09:12:35.000Z</time>
      </trkpt>
      <trkpt lat="46.66556" lon="4.79589">
        <ele>197</ele>
        <time>2012-11-04T09:12:39.000Z</time>
      </trkpt>
      <trkpt lat="46.66555" lon="4.79588">
        <ele>197</ele>
        <time>2012-11-04T09:12:42.000Z</time>
      </trkpt>
      <trkpt lat="46.66552" lon="4.79584">
        <ele>196</ele>
        <time>2012-11-04T09:12:50.000Z</time>
      </trkpt>
      <trkpt lat="46.66554" lon="4.7959">
        <ele>196</ele>
        <time>2012-11-04T09:12:57.000Z</time>
      </trkpt>
      <trkpt lat="46.66554" lon="4.7959">
        <ele>196</ele>
        <time>2012-11-04T09:13:07.000Z</time>
      </trkpt>
      <trkpt lat="46.66555" lon="4.79589">
        <ele>196</ele>
        <time>2012-11-04T09:13:12.000Z</time>
      </trkpt>
      <trkpt lat="46.6656" lon="4.79589">
        <ele>197</ele>
        <time>2012-11-04T09:13:17.000Z</time>
      </trkpt>
      <trkpt lat="46.66568" lon="4.79587">
        <ele>197</ele>
        <time>2012-11-04T09:13:26.000Z</time>
      </trkpt>
      <trkpt lat="46.66573" lon="4.79583">
        <ele>197</ele>
        <time>2012-11-04T09:13:29.000Z</time>
      </trkpt>
      <trkpt lat="46.66577" lon="4.79578">
        <ele>198</ele>
        <time>2012-11-04T09:13:32.000Z</time>
      </trkpt>
      <trkpt lat="46.6659" lon="4.79564">
        <ele>199</ele>
        <time>2012-11-04T09:13:37.000Z</time>
      </trkpt>
      <trkpt lat="46.66621" lon="4.79527">
        <ele>200</ele>
        <time>2012-11-04T09:13:46.000Z</time>
      </trkpt>
      <trkpt lat="46.66648" lon="4.79499">
        <ele>201</ele>
        <time>2012-11-04T09:13:54.000Z</time>
      </trkpt>
      <trkpt lat="46.66688" lon="4.79462">
        <ele>201</ele>
        <time>2012-11-04T09:14:01.000Z</time>
      </trkpt>
      <trkpt lat="46.667" lon="4.79446">
        <ele>201</ele>
        <time>2012-11-04T09:14:04.000Z</time>
      </trkpt>
      <trkpt lat="46.6671" lon="4.79431">
        <ele>200</ele>
        <time>2012-11-04T09:14:07.000Z</time>
      </trkpt>
      <trkpt lat="46.66721" lon="4.79423">
        <ele>200</ele>
        <time>2012-11-04T09:14:09.000Z</time>
      </trkpt>
      <trkpt lat="46.66756" lon="4.79391">
        <ele>199</ele>
        <time>2012-11-04T09:14:17.000Z</time>
      </trkpt>
      <trkpt lat="46.66764" lon="4.7938">
        <ele>199</ele>
        <time>2012-11-04T09:14:19.000Z</time>
      </trkpt>
      <trkpt lat="46.66777" lon="4.79365">
        <ele>200</ele>
        <time>2012-11-04T09:14:22.000Z</time>
      </trkpt>
      <trkpt lat="46.66817" lon="4.79324">
        <ele>200</ele>
        <time>2012-11-04T09:14:31.000Z</time>
      </trkpt>
      <trkpt lat="46.66833" lon="4.79311">
        <ele>201</ele>
        <time>2012-11-04T09:14:34.000Z</time>
      </trkpt>
      <trkpt lat="46.6684" lon="4.79304">
        <ele>201</ele>
        <time>2012-11-04T09:14:36.000Z</time>
      </trkpt>
      <trkpt lat="46.66846" lon="4.79289">
        <ele>202</ele>
        <time>2012-11-04T09:14:39.000Z</time>
      </trkpt>
      <trkpt lat="46.66852" lon="4.7928">
        <ele>202</ele>
        <time>2012-11-04T09:14:41.000Z</time>
      </trkpt>
      <trkpt lat="46.66903" lon="4.79218">
        <ele>202</ele>
        <time>2012-11-04T09:14:54.000Z</time>
      </trkpt>
      <trkpt lat="46.66915" lon="4.79213">
        <ele>201</ele>
        <time>2012-11-04T09:14:56.000Z</time>
      </trkpt>
      <trkpt lat="46.66924" lon="4.79207">
        <ele>201</ele>
        <time>2012-11-04T09:14:58.000Z</time>
      </trkpt>
      <trkpt lat="46.66937" lon="4.79193">
        <ele>201</ele>
        <time>2012-11-04T09:15:01.000Z</time>
      </trkpt>
      <trkpt lat="46.6695" lon="4.79181">
        <ele>202</ele>
        <time>2012-11-04T09:15:04.000Z</time>
      </trkpt>
      <trkpt lat="46.66991" lon="4.79139">
        <ele>202</ele>
        <time>2012-11-04T09:15:13.000Z</time>
      </trkpt>
      <trkpt lat="46.67001" lon="4.79126">
        <ele>202</ele>
        <time>2012-11-04T09:15:15.000Z</time>
      </trkpt>
      <trkpt lat="46.67008" lon="4.79116">
        <ele>203</ele>
        <time>2012-11-04T09:15:17.000Z</time>
      </trkpt>
      <trkpt lat="46.67036" lon="4.7908">
        <ele>204</ele>
        <time>2012-11-04T09:15:25.000Z</time>
      </trkpt>
      <trkpt lat="46.67064" lon="4.79054">
        <ele>204</ele>
        <time>2012-11-04T09:15:30.000Z</time>
      </trkpt>
      <trkpt lat="46.67089" lon="4.79023">
        <ele>203</ele>
        <time>2012-11-04T09:15:35.000Z</time>
      </trkpt>
      <trkpt lat="46.67108" lon="4.78991">
        <ele>202</ele>
        <time>2012-11-04T09:15:40.000Z</time>
      </trkpt>
      <trkpt lat="46.67123" lon="4.78971">
        <ele>202</ele>
        <time>2012-11-04T09:15:43.000Z</time>
      </trkpt>
      <trkpt lat="46.67141" lon="4.78953">
        <ele>202</ele>
        <time>2012-11-04T09:15:46.000Z</time>
      </trkpt>
      <trkpt lat="46.6716" lon="4.78942">
        <ele>201</ele>
        <time>2012-11-04T09:15:49.000Z</time>
      </trkpt>
      <trkpt lat="46.6719" lon="4.78917">
        <ele>200</ele>
        <time>2012-11-04T09:15:54.000Z</time>
      </trkpt>
      <trkpt lat="46.67218" lon="4.78911">
        <ele>200</ele>
        <time>2012-11-04T09:15:57.000Z</time>
      </trkpt>
      <trkpt lat="46.67235" lon="4.78893">
        <ele>199</ele>
        <time>2012-11-04T09:16:00.000Z</time>
      </trkpt>
      <trkpt lat="46.67285" lon="4.7884">
        <ele>199</ele>
        <time>2012-11-04T09:16:09.000Z</time>
      </trkpt>
      <trkpt lat="46.67326" lon="4.78797">
        <ele>199</ele>
        <time>2012-11-04T09:16:16.000Z</time>
      </trkpt>
      <trkpt lat="46.67336" lon="4.78787">
        <ele>198</ele>
        <time>2012-11-04T09:16:18.000Z</time>
      </trkpt>
      <trkpt lat="46.67373" lon="4.78776">
        <ele>199</ele>
        <time>2012-11-04T09:16:24.000Z</time>
      </trkpt>
      <trkpt lat="46.67387" lon="4.78787">
        <ele>199</ele>
        <time>2012-11-04T09:16:27.000Z</time>
      </trkpt>
      <trkpt lat="46.67395" lon="4.78795">
        <ele>200</ele>
        <time>2012-11-04T09:16:29.000Z</time>
      </trkpt>
      <trkpt lat="46.6742" lon="4.78821">
        <ele>201</ele>
        <time>2012-11-04T09:16:34.000Z</time>
      </trkpt>
      <trkpt lat="46.67433" lon="4.78835">
        <ele>202</ele>
        <time>2012-11-04T09:16:37.000Z</time>
      </trkpt>
      <trkpt lat="46.67457" lon="4.78861">
        <ele>203</ele>
        <time>2012-11-04T09:16:43.000Z</time>
      </trkpt>
      <trkpt lat="46.6748" lon="4.78886">
        <ele>204</ele>
        <time>2012-11-04T09:16:48.000Z</time>
      </trkpt>
      <trkpt lat="46.67516" lon="4.78927">
        <ele>204</ele>
        <time>2012-11-04T09:16:56.000Z</time>
      </trkpt>
      <trkpt lat="46.67558" lon="4.78977">
        <ele>203</ele>
        <time>2012-11-04T09:17:06.000Z</time>
      </trkpt>
      <trkpt lat="46.67595" lon="4.79019">
        <ele>204</ele>
        <time>2012-11-04T09:17:14.000Z</time>
      </trkpt>
      <trkpt lat="46.67634" lon="4.79061">
        <ele>203</ele>
        <time>2012-11-04T09:17:22.000Z</time>
      </trkpt>
      <trkpt lat="46.67676" lon="4.7911">
        <ele>203</ele>
        <time>2012-11-04T09:17:30.000Z</time>
      </trkpt>
      <trkpt lat="46.67688" lon="4.79119">
        <ele>203</ele>
        <time>2012-11-04T09:17:32.000Z</time>
      </trkpt>
      <trkpt lat="46.67712" lon="4.79144">
        <ele>203</ele>
        <time>2012-11-04T09:17:37.000Z</time>
      </trkpt>
      <trkpt lat="46.67752" lon="4.79185">
        <ele>203</ele>
        <time>2012-11-04T09:17:46.000Z</time>
      </trkpt>
      <trkpt lat="46.67767" lon="4.79201">
        <ele>204</ele>
        <time>2012-11-04T09:17:49.000Z</time>
      </trkpt>
      <trkpt lat="46.67803" lon="4.79246">
        <ele>204</ele>
        <time>2012-11-04T09:17:57.000Z</time>
      </trkpt>
      <trkpt lat="46.67816" lon="4.79261">
        <ele>205</ele>
        <time>2012-11-04T09:18:00.000Z</time>
      </trkpt>
      <trkpt lat="46.67836" lon="4.79284">
        <ele>206</ele>
        <time>2012-11-04T09:18:05.000Z</time>
      </trkpt>
      <trkpt lat="46.67842" lon="4.79298">
        <ele>206</ele>
        <time>2012-11-04T09:18:07.000Z</time>
      </trkpt>
      <trkpt lat="46.67842" lon="4.79308">
        <ele>207</ele>
        <time>2012-11-04T09:18:09.000Z</time>
      </trkpt>
      <trkpt lat="46.67836" lon="4.79317">
        <ele>207</ele>
        <time>2012-11-04T09:18:11.000Z</time>
      </trkpt>
      <trkpt lat="46.67827" lon="4.79333">
        <ele>208</ele>
        <time>2012-11-04T09:18:14.000Z</time>
      </trkpt>
      <trkpt lat="46.67794" lon="4.79379">
        <ele>207</ele>
        <time>2012-11-04T09:18:22.000Z</time>
      </trkpt>
      <trkpt lat="46.67777" lon="4.79399">
        <ele>207</ele>
        <time>2012-11-04T09:18:25.000Z</time>
      </trkpt>
      <trkpt lat="46.67764" lon="4.7942">
        <ele>206</ele>
        <time>2012-11-04T09:18:28.000Z</time>
      </trkpt>
      <trkpt lat="46.67747" lon="4.79439">
        <ele>206</ele>
        <time>2012-11-04T09:18:31.000Z</time>
      </trkpt>
      <trkpt lat="46.67713" lon="4.79481">
        <ele>205</ele>
        <time>2012-11-04T09:18:36.000Z</time>
      </trkpt>
      <trkpt lat="46.67699" lon="4.79499">
        <ele>204</ele>
        <time>2012-11-04T09:18:39.000Z</time>
      </trkpt>
      <trkpt lat="46.6769" lon="4.79506">
        <ele>204</ele>
        <time>2012-11-04T09:18:41.000Z</time>
      </trkpt>
      <trkpt lat="46.67684" lon="4.79531">
        <ele>203</ele>
        <time>2012-11-04T09:18:44.000Z</time>
      </trkpt>
      <trkpt lat="46.67672" lon="4.79547">
        <ele>203</ele>
        <time>2012-11-04T09:18:46.000Z</time>
      </trkpt>
      <trkpt lat="46.67643" lon="4.79565">
        <ele>203</ele>
        <time>2012-11-04T09:18:49.000Z</time>
      </trkpt>
      <trkpt lat="46.67633" lon="4.79581">
        <ele>203</ele>
        <time>2012-11-04T09:18:51.000Z</time>
      </trkpt>
      <trkpt lat="46.67614" lon="4.79599">
        <ele>202</ele>
        <time>2012-11-04T09:18:54.000Z</time>
      </trkpt>
      <trkpt lat="46.67604" lon="4.79612">
        <ele>202</ele>
        <time>2012-11-04T09:18:56.000Z</time>
      </trkpt>
      <trkpt lat="46.67584" lon="4.7963">
        <ele>201</ele>
        <time>2012-11-04T09:18:59.000Z</time>
      </trkpt>
      <trkpt lat="46.67573" lon="4.79648">
        <ele>201</ele>
        <time>2012-11-04T09:19:01.000Z</time>
      </trkpt>
      <trkpt lat="46.67561" lon="4.79656">
        <ele>200</ele>
        <time>2012-11-04T09:19:03.000Z</time>
      </trkpt>
      <trkpt lat="46.67552" lon="4.79677">
        <ele>200</ele>
        <time>2012-11-04T09:19:05.000Z</time>
      </trkpt>
      <trkpt lat="46.67538" lon="4.79697">
        <ele>200</ele>
        <time>2012-11-04T09:19:08.000Z</time>
      </trkpt>
      <trkpt lat="46.67537" lon="4.79702">
        <ele>199</ele>
        <time>2012-11-04T09:19:10.000Z</time>
      </trkpt>
      <trkpt lat="46.67523" lon="4.79703">
        <ele>199</ele>
        <time>2012-11-04T09:19:14.000Z</time>
      </trkpt>
      <trkpt lat="46.67525" lon="4.79708">
        <ele>199</ele>
        <time>2012-11-04T09:19:17.000Z</time>
      </trkpt>
      <trkpt lat="46.6753" lon="4.79714">
        <ele>199</ele>
        <time>2012-11-04T09:19:20.000Z</time>
      </trkpt>
      <trkpt lat="46.67537" lon="4.79718">
        <ele>200</ele>
        <time>2012-11-04T09:19:23.000Z</time>
      </trkpt>
      <trkpt lat="46.67549" lon="4.79729">
        <ele>200</ele>
        <time>2012-11-04T09:19:28.000Z</time>
      </trkpt>
      <trkpt lat="46.67554" lon="4.79735">
        <ele>201</ele>
        <time>2012-11-04T09:19:31.000Z</time>
      </trkpt>
      <trkpt lat="46.67568" lon="4.79745">
        <ele>202</ele>
        <time>2012-11-04T09:19:36.000Z</time>
      </trkpt>
      <trkpt lat="46.67577" lon="4.7975">
        <ele>202</ele>
        <time>2012-11-04T09:19:39.000Z</time>
      </trkpt>
      <trkpt lat="46.67587" lon="4.79751">
        <ele>202</ele>
        <time>2012-11-04T09:19:42.000Z</time>
      </trkpt>
      <trkpt lat="46.67593" lon="4.79753">
        <ele>203</ele>
        <time>2012-11-04T09:19:44.000Z</time>
      </trkpt>
      <trkpt lat="46.67606" lon="4.79757">
        <ele>203</ele>
        <time>2012-11-04T09:19:47.000Z</time>
      </trkpt>
      <trkpt lat="46.67632" lon="4.79773">
        <ele>203</ele>
        <time>2012-11-04T09:19:53.000Z</time>
      </trkpt>
      <trkpt lat="46.67639" lon="4.7978">
        <ele>204</ele>
        <time>2012-11-04T09:19:55.000Z</time>
      </trkpt>
      <trkpt lat="46.67659" lon="4.79806">
        <ele>204</ele>
        <time>2012-11-04T09:20:03.000Z</time>
      </trkpt>
      <trkpt lat="46.67675" lon="4.79829">
        <ele>205</ele>
        <time>2012-11-04T09:20:08.000Z</time>
      </trkpt>
      <trkpt lat="46.67708" lon="4.79875">
        <ele>205</ele>
        <time>2012-11-04T09:20:19.000Z</time>
      </trkpt>
      <trkpt lat="46.67719" lon="4.79884">
        <ele>205</ele>
        <time>2012-11-04T09:20:22.000Z</time>
      </trkpt>
      <trkpt lat="46.67725" lon="4.79891">
        <ele>205</ele>
        <time>2012-11-04T09:20:24.000Z</time>
      </trkpt>
      <trkpt lat="46.67733" lon="4.79905">
        <ele>205</ele>
        <time>2012-11-04T09:20:27.000Z</time>
      </trkpt>
      <trkpt lat="46.67738" lon="4.79913">
        <ele>204</ele>
        <time>2012-11-04T09:20:29.000Z</time>
      </trkpt>
      <trkpt lat="46.67761" lon="4.79945">
        <ele>205</ele>
        <time>2012-11-04T09:20:37.000Z</time>
      </trkpt>
      <trkpt lat="46.67771" lon="4.79955">
        <ele>205</ele>
        <time>2012-11-04T09:20:40.000Z</time>
      </trkpt>
      <trkpt lat="46.67785" lon="4.79971">
        <ele>206</ele>
        <time>2012-11-04T09:20:44.000Z</time>
      </trkpt>
      <trkpt lat="46.67795" lon="4.79985">
        <ele>207</ele>
        <time>2012-11-04T09:20:47.000Z</time>
      </trkpt>
      <trkpt lat="46.67815" lon="4.80013">
        <ele>208</ele>
        <time>2012-11-04T09:20:54.000Z</time>
      </trkpt>
      <trkpt lat="46.67822" lon="4.80021">
        <ele>208</ele>
        <time>2012-11-04T09:20:57.000Z</time>
      </trkpt>
      <trkpt lat="46.67845" lon="4.80048">
        <ele>209</ele>
        <time>2012-11-04T09:21:06.000Z</time>
      </trkpt>
      <trkpt lat="46.67883" lon="4.80101">
        <ele>209</ele>
        <time>2012-11-04T09:21:19.000Z</time>
      </trkpt>
      <trkpt lat="46.67892" lon="4.80111">
        <ele>209</ele>
        <time>2012-11-04T09:21:22.000Z</time>
      </trkpt>
      <trkpt lat="46.67899" lon="4.80122">
        <ele>210</ele>
        <time>2012-11-04T09:21:25.000Z</time>
      </trkpt>
      <trkpt lat="46.67936" lon="4.80173">
        <ele>210</ele>
        <time>2012-11-04T09:21:40.000Z</time>
      </trkpt>
      <trkpt lat="46.67949" lon="4.80187">
        <ele>209</ele>
        <time>2012-11-04T09:21:45.000Z</time>
      </trkpt>
      <trkpt lat="46.67975" lon="4.80216">
        <ele>208</ele>
        <time>2012-11-04T09:21:55.000Z</time>
      </trkpt>
      <trkpt lat="46.67983" lon="4.80227">
        <ele>208</ele>
        <time>2012-11-04T09:21:58.000Z</time>
      </trkpt>
      <trkpt lat="46.67993" lon="4.8024">
        <ele>207</ele>
        <time>2012-11-04T09:22:02.000Z</time>
      </trkpt>
      <trkpt lat="46.67999" lon="4.80245">
        <ele>207</ele>
        <time>2012-11-04T09:22:04.000Z</time>
      </trkpt>
      <trkpt lat="46.68012" lon="4.80256">
        <ele>206</ele>
        <time>2012-11-04T09:22:09.000Z</time>
      </trkpt>
      <trkpt lat="46.68019" lon="4.80264">
        <ele>206</ele>
        <time>2012-11-04T09:22:12.000Z</time>
      </trkpt>
      <trkpt lat="46.68059" lon="4.80311">
        <ele>206</ele>
        <time>2012-11-04T09:22:28.000Z</time>
      </trkpt>
      <trkpt lat="46.68066" lon="4.80318">
        <ele>206</ele>
        <time>2012-11-04T09:22:31.000Z</time>
      </trkpt>
      <trkpt lat="46.68072" lon="4.80327">
        <ele>206</ele>
        <time>2012-11-04T09:22:34.000Z</time>
      </trkpt>
      <trkpt lat="46.68076" lon="4.80331">
        <ele>206</ele>
        <time>2012-11-04T09:22:37.000Z</time>
      </trkpt>
      <trkpt lat="46.68077" lon="4.80334">
        <ele>206</ele>
        <time>2012-11-04T09:22:39.000Z</time>
      </trkpt>
      <trkpt lat="46.68079" lon="4.80339">
        <ele>206</ele>
        <time>2012-11-04T09:22:41.000Z</time>
      </trkpt>
      <trkpt lat="46.68081" lon="4.80341">
        <ele>206</ele>
        <time>2012-11-04T09:22:43.000Z</time>
      </trkpt>
      <trkpt lat="46.68085" lon="4.80347">
        <ele>207</ele>
        <time>2012-11-04T09:22:46.000Z</time>
      </trkpt>
      <trkpt lat="46.68093" lon="4.80354">
        <ele>207</ele>
        <time>2012-11-04T09:22:51.000Z</time>
      </trkpt>
      <trkpt lat="46.68096" lon="4.80356">
        <ele>207</ele>
        <time>2012-11-04T09:22:53.000Z</time>
      </trkpt>
      <trkpt lat="46.68099" lon="4.80359">
        <ele>208</ele>
        <time>2012-11-04T09:22:55.000Z</time>
      </trkpt>
      <trkpt lat="46.68106" lon="4.80367">
        <ele>209</ele>
        <time>2012-11-04T09:23:00.000Z</time>
      </trkpt>
      <trkpt lat="46.68108" lon="4.8037">
        <ele>209</ele>
        <time>2012-11-04T09:23:02.000Z</time>
      </trkpt>
      <trkpt lat="46.68118" lon="4.80381">
        <ele>210</ele>
        <time>2012-11-04T09:23:07.000Z</time>
      </trkpt>
      <trkpt lat="46.68131" lon="4.80398">
        <ele>211</ele>
        <time>2012-11-04T09:23:13.000Z</time>
      </trkpt>
      <trkpt lat="46.68142" lon="4.80411">
        <ele>212</ele>
        <time>2012-11-04T09:23:18.000Z</time>
      </trkpt>
      <trkpt lat="46.68149" lon="4.8042">
        <ele>213</ele>
        <time>2012-11-04T09:23:22.000Z</time>
      </trkpt>
      <trkpt lat="46.68158" lon="4.80428">
        <ele>214</ele>
        <time>2012-11-04T09:23:28.000Z</time>
      </trkpt>
      <trkpt lat="46.68165" lon="4.80428">
        <ele>214</ele>
        <time>2012-11-04T09:23:31.000Z</time>
      </trkpt>
      <trkpt lat="46.68174" lon="4.80434">
        <ele>214</ele>
        <time>2012-11-04T09:23:34.000Z</time>
      </trkpt>
      <trkpt lat="46.68179" lon="4.80442">
        <ele>214</ele>
        <time>2012-11-04T09:23:36.000Z</time>
      </trkpt>
      <trkpt lat="46.68183" lon="4.80452">
        <ele>215</ele>
        <time>2012-11-04T09:23:39.000Z</time>
      </trkpt>
      <trkpt lat="46.68189" lon="4.80463">
        <ele>215</ele>
        <time>2012-11-04T09:23:43.000Z</time>
      </trkpt>
      <trkpt lat="46.68198" lon="4.80472">
        <ele>215</ele>
        <time>2012-11-04T09:23:46.000Z</time>
      </trkpt>
      <trkpt lat="46.68207" lon="4.80483">
        <ele>215</ele>
        <time>2012-11-04T09:23:51.000Z</time>
      </trkpt>
      <trkpt lat="46.6821" lon="4.80494">
        <ele>215</ele>
        <time>2012-11-04T09:23:54.000Z</time>
      </trkpt>
      <trkpt lat="46.68216" lon="4.80507">
        <ele>215</ele>
        <time>2012-11-04T09:23:57.000Z</time>
      </trkpt>
      <trkpt lat="46.68222" lon="4.80515">
        <ele>215</ele>
        <time>2012-11-04T09:24:00.000Z</time>
      </trkpt>
      <trkpt lat="46.68243" lon="4.80558">
        <ele>215</ele>
        <time>2012-11-04T09:24:05.000Z</time>
      </trkpt>
      <trkpt lat="46.68257" lon="4.80583">
        <ele>214</ele>
        <time>2012-11-04T09:24:09.000Z</time>
      </trkpt>
      <trkpt lat="46.68267" lon="4.80603">
        <ele>213</ele>
        <time>2012-11-04T09:24:12.000Z</time>
      </trkpt>
      <trkpt lat="46.68287" lon="4.80634">
        <ele>212</ele>
        <time>2012-11-04T09:24:17.000Z</time>
      </trkpt>
      <trkpt lat="46.683" lon="4.80648">
        <ele>211</ele>
        <time>2012-11-04T09:24:20.000Z</time>
      </trkpt>
      <trkpt lat="46.68313" lon="4.80672">
        <ele>211</ele>
        <time>2012-11-04T09:24:23.000Z</time>
      </trkpt>
      <trkpt lat="46.68321" lon="4.8069">
        <ele>210</ele>
        <time>2012-11-04T09:24:25.000Z</time>
      </trkpt>
      <trkpt lat="46.68332" lon="4.80718">
        <ele>209</ele>
        <time>2012-11-04T09:24:28.000Z</time>
      </trkpt>
      <trkpt lat="46.6834" lon="4.80734">
        <ele>208</ele>
        <time>2012-11-04T09:24:30.000Z</time>
      </trkpt>
      <trkpt lat="46.6835" lon="4.80757">
        <ele>206</ele>
        <time>2012-11-04T09:24:33.000Z</time>
      </trkpt>
      <trkpt lat="46.68355" lon="4.80766">
        <ele>205</ele>
        <time>2012-11-04T09:24:35.000Z</time>
      </trkpt>
      <trkpt lat="46.68366" lon="4.80792">
        <ele>204</ele>
        <time>2012-11-04T09:24:38.000Z</time>
      </trkpt>
      <trkpt lat="46.68374" lon="4.80811">
        <ele>203</ele>
        <time>2012-11-04T09:24:40.000Z</time>
      </trkpt>
      <trkpt lat="46.68385" lon="4.80826">
        <ele>202</ele>
        <time>2012-11-04T09:24:43.000Z</time>
      </trkpt>
      <trkpt lat="46.68394" lon="4.80847">
        <ele>202</ele>
        <time>2012-11-04T09:24:46.000Z</time>
      </trkpt>
      <trkpt lat="46.68401" lon="4.80862">
        <ele>201</ele>
        <time>2012-11-04T09:24:48.000Z</time>
      </trkpt>
      <trkpt lat="46.68411" lon="4.80876">
        <ele>200</ele>
        <time>2012-11-04T09:24:51.000Z</time>
      </trkpt>
      <trkpt lat="46.68425" lon="4.80896">
        <ele>199</ele>
        <time>2012-11-04T09:24:55.000Z</time>
      </trkpt>
      <trkpt lat="46.68436" lon="4.80916">
        <ele>199</ele>
        <time>2012-11-04T09:24:58.000Z</time>
      </trkpt>
      <trkpt lat="46.68447" lon="4.80948">
        <ele>199</ele>
        <time>2012-11-04T09:25:01.000Z</time>
      </trkpt>
      <trkpt lat="46.6846" lon="4.80964">
        <ele>199</ele>
        <time>2012-11-04T09:25:04.000Z</time>
      </trkpt>
      <trkpt lat="46.68482" lon="4.81005">
        <ele>199</ele>
        <time>2012-11-04T09:25:10.000Z</time>
      </trkpt>
      <trkpt lat="46.6849" lon="4.81021">
        <ele>200</ele>
        <time>2012-11-04T09:25:12.000Z</time>
      </trkpt>
      <trkpt lat="46.68509" lon="4.81043">
        <ele>200</ele>
        <time>2012-11-04T09:25:15.000Z</time>
      </trkpt>
      <trkpt lat="46.68518" lon="4.81044">
        <ele>201</ele>
        <time>2012-11-04T09:25:17.000Z</time>
      </trkpt>
      <trkpt lat="46.6853" lon="4.81086">
        <ele>202</ele>
        <time>2012-11-04T09:25:21.000Z</time>
      </trkpt>
      <trkpt lat="46.68549" lon="4.81108">
        <ele>204</ele>
        <time>2012-11-04T09:25:24.000Z</time>
      </trkpt>
      <trkpt lat="46.6856" lon="4.81146">
        <ele>205</ele>
        <time>2012-11-04T09:25:27.000Z</time>
      </trkpt>
      <trkpt lat="46.68567" lon="4.81165">
        <ele>206</ele>
        <time>2012-11-04T09:25:29.000Z</time>
      </trkpt>
      <trkpt lat="46.68586" lon="4.81208">
        <ele>205</ele>
        <time>2012-11-04T09:25:36.000Z</time>
      </trkpt>
      <trkpt lat="46.68597" lon="4.81232">
        <ele>204</ele>
        <time>2012-11-04T09:25:41.000Z</time>
      </trkpt>
      <trkpt lat="46.68634" lon="4.81338">
        <ele>203</ele>
        <time>2012-11-04T09:25:50.000Z</time>
      </trkpt>
      <trkpt lat="46.68641" lon="4.81349">
        <ele>203</ele>
        <time>2012-11-04T09:25:52.000Z</time>
      </trkpt>
      <trkpt lat="46.68649" lon="4.81367">
        <ele>203</ele>
        <time>2012-11-04T09:25:55.000Z</time>
      </trkpt>
      <trkpt lat="46.68663" lon="4.81397">
        <ele>202</ele>
        <time>2012-11-04T09:26:00.000Z</time>
      </trkpt>
      <trkpt lat="46.68696" lon="4.81459">
        <ele>202</ele>
        <time>2012-11-04T09:26:10.000Z</time>
      </trkpt>
      <trkpt lat="46.68703" lon="4.81468">
        <ele>202</ele>
        <time>2012-11-04T09:26:12.000Z</time>
      </trkpt>
      <trkpt lat="46.68713" lon="4.81481">
        <ele>201</ele>
        <time>2012-11-04T09:26:15.000Z</time>
      </trkpt>
      <trkpt lat="46.68727" lon="4.81508">
        <ele>201</ele>
        <time>2012-11-04T09:26:20.000Z</time>
      </trkpt>
      <trkpt lat="46.68732" lon="4.8152">
        <ele>201</ele>
        <time>2012-11-04T09:26:22.000Z</time>
      </trkpt>
      <trkpt lat="46.68748" lon="4.81555">
        <ele>200</ele>
        <time>2012-11-04T09:26:27.000Z</time>
      </trkpt>
      <trkpt lat="46.68777" lon="4.81615">
        <ele>199</ele>
        <time>2012-11-04T09:26:35.000Z</time>
      </trkpt>
      <trkpt lat="46.68796" lon="4.81645">
        <ele>199</ele>
        <time>2012-11-04T09:26:40.000Z</time>
      </trkpt>
      <trkpt lat="46.68834" lon="4.81724">
        <ele>198</ele>
        <time>2012-11-04T09:26:48.000Z</time>
      </trkpt>
      <trkpt lat="46.6884" lon="4.81739">
        <ele>197</ele>
        <time>2012-11-04T09:26:51.000Z</time>
      </trkpt>
      <trkpt lat="46.68853" lon="4.81767">
        <ele>196</ele>
        <time>2012-11-04T09:26:56.000Z</time>
      </trkpt>
      <trkpt lat="46.6888" lon="4.81827">
        <ele>196</ele>
        <time>2012-11-04T09:27:04.000Z</time>
      </trkpt>
      <trkpt lat="46.68912" lon="4.81888">
        <ele>196</ele>
        <time>2012-11-04T09:27:11.000Z</time>
      </trkpt>
      <trkpt lat="46.68921" lon="4.81912">
        <ele>196</ele>
        <time>2012-11-04T09:27:14.000Z</time>
      </trkpt>
      <trkpt lat="46.68938" lon="4.81946">
        <ele>196</ele>
        <time>2012-11-04T09:27:19.000Z</time>
      </trkpt>
      <trkpt lat="46.68945" lon="4.81957">
        <ele>195</ele>
        <time>2012-11-04T09:27:21.000Z</time>
      </trkpt>
      <trkpt lat="46.68956" lon="4.8198">
        <ele>195</ele>
        <time>2012-11-04T09:27:24.000Z</time>
      </trkpt>
      <trkpt lat="46.68962" lon="4.81989">
        <ele>195</ele>
        <time>2012-11-04T09:27:26.000Z</time>
      </trkpt>
      <trkpt lat="46.6898" lon="4.82016">
        <ele>196</ele>
        <time>2012-11-04T09:27:31.000Z</time>
      </trkpt>
      <trkpt lat="46.68987" lon="4.82032">
        <ele>196</ele>
        <time>2012-11-04T09:27:33.000Z</time>
      </trkpt>
      <trkpt lat="46.69013" lon="4.8209">
        <ele>196</ele>
        <time>2012-11-04T09:27:41.000Z</time>
      </trkpt>
      <trkpt lat="46.6903" lon="4.82131">
        <ele>195</ele>
        <time>2012-11-04T09:27:46.000Z</time>
      </trkpt>
      <trkpt lat="46.69038" lon="4.82145">
        <ele>195</ele>
        <time>2012-11-04T09:27:48.000Z</time>
      </trkpt>
      <trkpt lat="46.69056" lon="4.82181">
        <ele>194</ele>
        <time>2012-11-04T09:27:53.000Z</time>
      </trkpt>
      <trkpt lat="46.69086" lon="4.82241">
        <ele>194</ele>
        <time>2012-11-04T09:28:04.000Z</time>
      </trkpt>
      <trkpt lat="46.691" lon="4.8227">
        <ele>193</ele>
        <time>2012-11-04T09:28:09.000Z</time>
      </trkpt>
      <trkpt lat="46.69132" lon="4.82332">
        <ele>193</ele>
        <time>2012-11-04T09:28:19.000Z</time>
      </trkpt>
      <trkpt lat="46.6916" lon="4.82387">
        <ele>194</ele>
        <time>2012-11-04T09:28:28.000Z</time>
      </trkpt>
      <trkpt lat="46.69197" lon="4.82454">
        <ele>194</ele>
        <time>2012-11-04T09:28:41.000Z</time>
      </trkpt>
      <trkpt lat="46.6923" lon="4.8251">
        <ele>195</ele>
        <time>2012-11-04T09:28:51.000Z</time>
      </trkpt>
      <trkpt lat="46.69247" lon="4.82541">
        <ele>196</ele>
        <time>2012-11-04T09:28:56.000Z</time>
      </trkpt>
      <trkpt lat="46.6928" lon="4.82611">
        <ele>196</ele>
        <time>2012-11-04T09:29:08.000Z</time>
      </trkpt>
      <trkpt lat="46.69317" lon="4.82683">
        <ele>196</ele>
        <time>2012-11-04T09:29:18.000Z</time>
      </trkpt>
      <trkpt lat="46.69338" lon="4.82721">
        <ele>197</ele>
        <time>2012-11-04T09:29:23.000Z</time>
      </trkpt>
      <trkpt lat="46.69352" lon="4.82749">
        <ele>196</ele>
        <time>2012-11-04T09:29:27.000Z</time>
      </trkpt>
      <trkpt lat="46.69384" lon="4.82835">
        <ele>195</ele>
        <time>2012-11-04T09:29:37.000Z</time>
      </trkpt>
      <trkpt lat="46.69421" lon="4.82915">
        <ele>195</ele>
        <time>2012-11-04T09:29:46.000Z</time>
      </trkpt>
      <trkpt lat="46.69455" lon="4.82976">
        <ele>195</ele>
        <time>2012-11-04T09:29:54.000Z</time>
      </trkpt>
      <trkpt lat="46.69468" lon="4.83004">
        <ele>194</ele>
        <time>2012-11-04T09:29:57.000Z</time>
      </trkpt>
      <trkpt lat="46.69503" lon="4.83069">
        <ele>194</ele>
        <time>2012-11-04T09:30:06.000Z</time>
      </trkpt>
      <trkpt lat="46.69535" lon="4.83124">
        <ele>194</ele>
        <time>2012-11-04T09:30:17.000Z</time>
      </trkpt>
      <trkpt lat="46.69544" lon="4.83129">
        <ele>193</ele>
        <time>2012-11-04T09:30:19.000Z</time>
      </trkpt>
      <trkpt lat="46.69556" lon="4.83134">
        <ele>193</ele>
        <time>2012-11-04T09:30:22.000Z</time>
      </trkpt>
      <trkpt lat="46.69565" lon="4.83134">
        <ele>193</ele>
        <time>2012-11-04T09:30:24.000Z</time>
      </trkpt>
      <trkpt lat="46.6958" lon="4.83136">
        <ele>194</ele>
        <time>2012-11-04T09:30:27.000Z</time>
      </trkpt>
      <trkpt lat="46.696" lon="4.83146">
        <ele>194</ele>
        <time>2012-11-04T09:30:30.000Z</time>
      </trkpt>
      <trkpt lat="46.69614" lon="4.83152">
        <ele>195</ele>
        <time>2012-11-04T09:30:33.000Z</time>
      </trkpt>
      <trkpt lat="46.69629" lon="4.83156">
        <ele>195</ele>
        <time>2012-11-04T09:30:36.000Z</time>
      </trkpt>
      <trkpt lat="46.69641" lon="4.8316">
        <ele>196</ele>
        <time>2012-11-04T09:30:39.000Z</time>
      </trkpt>
      <trkpt lat="46.69652" lon="4.83162">
        <ele>196</ele>
        <time>2012-11-04T09:30:42.000Z</time>
      </trkpt>
      <trkpt lat="46.69659" lon="4.83165">
        <ele>196</ele>
        <time>2012-11-04T09:30:44.000Z</time>
      </trkpt>
      <trkpt lat="46.69666" lon="4.83168">
        <ele>197</ele>
        <time>2012-11-04T09:30:46.000Z</time>
      </trkpt>
      <trkpt lat="46.69713" lon="4.83185">
        <ele>197</ele>
        <time>2012-11-04T09:30:56.000Z</time>
      </trkpt>
      <trkpt lat="46.69728" lon="4.83193">
        <ele>196</ele>
        <time>2012-11-04T09:30:59.000Z</time>
      </trkpt>
      <trkpt lat="46.69739" lon="4.83197">
        <ele>196</ele>
        <time>2012-11-04T09:31:01.000Z</time>
      </trkpt>
      <trkpt lat="46.69788" lon="4.83217">
        <ele>196</ele>
        <time>2012-11-04T09:31:12.000Z</time>
      </trkpt>
      <trkpt lat="46.69812" lon="4.83221">
        <ele>196</ele>
        <time>2012-11-04T09:31:18.000Z</time>
      </trkpt>
      <trkpt lat="46.69821" lon="4.83217">
        <ele>197</ele>
        <time>2012-11-04T09:31:20.000Z</time>
      </trkpt>
      <trkpt lat="46.69835" lon="4.83208">
        <ele>197</ele>
        <time>2012-11-04T09:31:24.000Z</time>
      </trkpt>
      <trkpt lat="46.69846" lon="4.83204">
        <ele>197</ele>
        <time>2012-11-04T09:31:27.000Z</time>
      </trkpt>
      <trkpt lat="46.6985" lon="4.83196">
        <ele>198</ele>
        <time>2012-11-04T09:31:29.000Z</time>
      </trkpt>
      <trkpt lat="46.69852" lon="4.8318">
        <ele>198</ele>
        <time>2012-11-04T09:31:32.000Z</time>
      </trkpt>
      <trkpt lat="46.69859" lon="4.83122">
        <ele>199</ele>
        <time>2012-11-04T09:31:46.000Z</time>
      </trkpt>
      <trkpt lat="46.69861" lon="4.83113">
        <ele>199</ele>
        <time>2012-11-04T09:31:48.000Z</time>
      </trkpt>
      <trkpt lat="46.69877" lon="4.83047">
        <ele>200</ele>
        <time>2012-11-04T09:31:59.000Z</time>
      </trkpt>
      <trkpt lat="46.69886" lon="4.82978">
        <ele>201</ele>
        <time>2012-11-04T09:32:09.000Z</time>
      </trkpt>
      <trkpt lat="46.69896" lon="4.82906">
        <ele>201</ele>
        <time>2012-11-04T09:32:19.000Z</time>
      </trkpt>
      <trkpt lat="46.69911" lon="4.82825">
        <ele>202</ele>
        <time>2012-11-04T09:32:30.000Z</time>
      </trkpt>
      <trkpt lat="46.69924" lon="4.82758">
        <ele>202</ele>
        <time>2012-11-04T09:32:39.000Z</time>
      </trkpt>
      <trkpt lat="46.69927" lon="4.82738">
        <ele>201</ele>
        <time>2012-11-04T09:32:42.000Z</time>
      </trkpt>
      <trkpt lat="46.6993" lon="4.82725">
        <ele>201</ele>
        <time>2012-11-04T09:32:44.000Z</time>
      </trkpt>
      <trkpt lat="46.69942" lon="4.8264">
        <ele>201</ele>
        <time>2012-11-04T09:32:55.000Z</time>
      </trkpt>
      <trkpt lat="46.69949" lon="4.82596">
        <ele>202</ele>
        <time>2012-11-04T09:33:01.000Z</time>
      </trkpt>
      <trkpt lat="46.69963" lon="4.82517">
        <ele>203</ele>
        <time>2012-11-04T09:33:12.000Z</time>
      </trkpt>
      <trkpt lat="46.69968" lon="4.82483">
        <ele>204</ele>
        <time>2012-11-04T09:33:17.000Z</time>
      </trkpt>
      <trkpt lat="46.69975" lon="4.8243">
        <ele>205</ele>
        <time>2012-11-04T09:33:26.000Z</time>
      </trkpt>
      <trkpt lat="46.69976" lon="4.82395">
        <ele>206</ele>
        <time>2012-11-04T09:33:31.000Z</time>
      </trkpt>
      <trkpt lat="46.6998" lon="4.82374">
        <ele>206</ele>
        <time>2012-11-04T09:33:34.000Z</time>
      </trkpt>
      <trkpt lat="46.69984" lon="4.82342">
        <ele>207</ele>
        <time>2012-11-04T09:33:39.000Z</time>
      </trkpt>
      <trkpt lat="46.69988" lon="4.82283">
        <ele>208</ele>
        <time>2012-11-04T09:33:49.000Z</time>
      </trkpt>
      <trkpt lat="46.69992" lon="4.82267">
        <ele>208</ele>
        <time>2012-11-04T09:33:52.000Z</time>
      </trkpt>
      <trkpt lat="46.69998" lon="4.82235">
        <ele>209</ele>
        <time>2012-11-04T09:33:57.000Z</time>
      </trkpt>
      <trkpt lat="46.70009" lon="4.82161">
        <ele>209</ele>
        <time>2012-11-04T09:34:08.000Z</time>
      </trkpt>
      <trkpt lat="46.70012" lon="4.82145">
        <ele>208</ele>
        <time>2012-11-04T09:34:10.000Z</time>
      </trkpt>
      <trkpt lat="46.70015" lon="4.82123">
        <ele>209</ele>
        <time>2012-11-04T09:34:13.000Z</time>
      </trkpt>
      <trkpt lat="46.70016" lon="4.82061">
        <ele>209</ele>
        <time>2012-11-04T09:34:22.000Z</time>
      </trkpt>
      <trkpt lat="46.70016" lon="4.8205">
        <ele>210</ele>
        <time>2012-11-04T09:34:24.000Z</time>
      </trkpt>
      <trkpt lat="46.70022" lon="4.8199">
        <ele>211</ele>
        <time>2012-11-04T09:34:32.000Z</time>
      </trkpt>
      <trkpt lat="46.70032" lon="4.8191">
        <ele>212</ele>
        <time>2012-11-04T09:34:43.000Z</time>
      </trkpt>
      <trkpt lat="46.70035" lon="4.81898">
        <ele>212</ele>
        <time>2012-11-04T09:34:45.000Z</time>
      </trkpt>
      <trkpt lat="46.70046" lon="4.81861">
        <ele>213</ele>
        <time>2012-11-04T09:34:50.000Z</time>
      </trkpt>
      <trkpt lat="46.70049" lon="4.81842">
        <ele>213</ele>
        <time>2012-11-04T09:34:52.000Z</time>
      </trkpt>
      <trkpt lat="46.70057" lon="4.81772">
        <ele>213</ele>
        <time>2012-11-04T09:35:01.000Z</time>
      </trkpt>
      <trkpt lat="46.7006" lon="4.817">
        <ele>212</ele>
        <time>2012-11-04T09:35:12.000Z</time>
      </trkpt>
      <trkpt lat="46.70068" lon="4.81633">
        <ele>212</ele>
        <time>2012-11-04T09:35:23.000Z</time>
      </trkpt>
      <trkpt lat="46.70076" lon="4.81611">
        <ele>212</ele>
        <time>2012-11-04T09:35:28.000Z</time>
      </trkpt>
      <trkpt lat="46.7009" lon="4.81601">
        <ele>212</ele>
        <time>2012-11-04T09:35:31.000Z</time>
      </trkpt>
      <trkpt lat="46.70107" lon="4.81594">
        <ele>212</ele>
        <time>2012-11-04T09:35:34.000Z</time>
      </trkpt>
      <trkpt lat="46.70123" lon="4.8159">
        <ele>211</ele>
        <time>2012-11-04T09:35:37.000Z</time>
      </trkpt>
      <trkpt lat="46.70139" lon="4.81589">
        <ele>211</ele>
        <time>2012-11-04T09:35:40.000Z</time>
      </trkpt>
      <trkpt lat="46.70152" lon="4.8159">
        <ele>210</ele>
        <time>2012-11-04T09:35:43.000Z</time>
      </trkpt>
      <trkpt lat="46.70174" lon="4.81606">
        <ele>209</ele>
        <time>2012-11-04T09:35:46.000Z</time>
      </trkpt>
      <trkpt lat="46.70187" lon="4.81608">
        <ele>208</ele>
        <time>2012-11-04T09:35:49.000Z</time>
      </trkpt>
      <trkpt lat="46.70204" lon="4.81623">
        <ele>207</ele>
        <time>2012-11-04T09:35:52.000Z</time>
      </trkpt>
      <trkpt lat="46.7022" lon="4.81631">
        <ele>207</ele>
        <time>2012-11-04T09:35:55.000Z</time>
      </trkpt>
      <trkpt lat="46.70236" lon="4.81643">
        <ele>207</ele>
        <time>2012-11-04T09:35:58.000Z</time>
      </trkpt>
      <trkpt lat="46.70243" lon="4.81649">
        <ele>206</ele>
        <time>2012-11-04T09:36:00.000Z</time>
      </trkpt>
      <trkpt lat="46.70253" lon="4.81651">
        <ele>206</ele>
        <time>2012-11-04T09:36:03.000Z</time>
      </trkpt>
      <trkpt lat="46.70267" lon="4.81651">
        <ele>206</ele>
        <time>2012-11-04T09:36:06.000Z</time>
      </trkpt>
      <trkpt lat="46.70285" lon="4.81648">
        <ele>206</ele>
        <time>2012-11-04T09:36:09.000Z</time>
      </trkpt>
      <trkpt lat="46.703" lon="4.81649">
        <ele>206</ele>
        <time>2012-11-04T09:36:12.000Z</time>
      </trkpt>
      <trkpt lat="46.7031" lon="4.81641">
        <ele>207</ele>
        <time>2012-11-04T09:36:15.000Z</time>
      </trkpt>
      <trkpt lat="46.70316" lon="4.81629">
        <ele>207</ele>
        <time>2012-11-04T09:36:18.000Z</time>
      </trkpt>
      <trkpt lat="46.70333" lon="4.81601">
        <ele>207</ele>
        <time>2012-11-04T09:36:22.000Z</time>
      </trkpt>
      <trkpt lat="46.70341" lon="4.8158">
        <ele>207</ele>
        <time>2012-11-04T09:36:25.000Z</time>
      </trkpt>
      <trkpt lat="46.70368" lon="4.81513">
        <ele>207</ele>
        <time>2012-11-04T09:36:35.000Z</time>
      </trkpt>
      <trkpt lat="46.70376" lon="4.81499">
        <ele>207</ele>
        <time>2012-11-04T09:36:37.000Z</time>
      </trkpt>
      <trkpt lat="46.70411" lon="4.81439">
        <ele>207</ele>
        <time>2012-11-04T09:36:45.000Z</time>
      </trkpt>
      <trkpt lat="46.7043" lon="4.81398">
        <ele>207</ele>
        <time>2012-11-04T09:36:51.000Z</time>
      </trkpt>
      <trkpt lat="46.70459" lon="4.81329">
        <ele>207</ele>
        <time>2012-11-04T09:37:01.000Z</time>
      </trkpt>
      <trkpt lat="46.70487" lon="4.81272">
        <ele>207</ele>
        <time>2012-11-04T09:37:09.000Z</time>
      </trkpt>
      <trkpt lat="46.70495" lon="4.81248">
        <ele>207</ele>
        <time>2012-11-04T09:37:12.000Z</time>
      </trkpt>
      <trkpt lat="46.70508" lon="4.81225">
        <ele>207</ele>
        <time>2012-11-04T09:37:15.000Z</time>
      </trkpt>
      <trkpt lat="46.70514" lon="4.81209">
        <ele>207</ele>
        <time>2012-11-04T09:37:17.000Z</time>
      </trkpt>
      <trkpt lat="46.70539" lon="4.8115">
        <ele>207</ele>
        <time>2012-11-04T09:37:25.000Z</time>
      </trkpt>
      <trkpt lat="46.70557" lon="4.81116">
        <ele>208</ele>
        <time>2012-11-04T09:37:30.000Z</time>
      </trkpt>
      <trkpt lat="46.70571" lon="4.8108">
        <ele>209</ele>
        <time>2012-11-04T09:37:36.000Z</time>
      </trkpt>
      <trkpt lat="46.70576" lon="4.81067">
        <ele>210</ele>
        <time>2012-11-04T09:37:38.000Z</time>
      </trkpt>
      <trkpt lat="46.70589" lon="4.81052">
        <ele>210</ele>
        <time>2012-11-04T09:37:41.000Z</time>
      </trkpt>
      <trkpt lat="46.70594" lon="4.81041">
        <ele>211</ele>
        <time>2012-11-04T09:37:43.000Z</time>
      </trkpt>
      <trkpt lat="46.70601" lon="4.81025">
        <ele>212</ele>
        <time>2012-11-04T09:37:47.000Z</time>
      </trkpt>
      <trkpt lat="46.70605" lon="4.81009">
        <ele>212</ele>
        <time>2012-11-04T09:37:50.000Z</time>
      </trkpt>
      <trkpt lat="46.70621" lon="4.80952">
        <ele>213</ele>
        <time>2012-11-04T09:37:55.000Z</time>
      </trkpt>
      <trkpt lat="46.70635" lon="4.80924">
        <ele>213</ele>
        <time>2012-11-04T09:37:58.000Z</time>
      </trkpt>
      <trkpt lat="46.70638" lon="4.80908">
        <ele>214</ele>
        <time>2012-11-04T09:38:00.000Z</time>
      </trkpt>
      <trkpt lat="46.70644" lon="4.80892">
        <ele>215</ele>
        <time>2012-11-04T09:38:02.000Z</time>
      </trkpt>
      <trkpt lat="46.70672" lon="4.80843">
        <ele>215</ele>
        <time>2012-11-04T09:38:09.000Z</time>
      </trkpt>
      <trkpt lat="46.70683" lon="4.80831">
        <ele>215</ele>
        <time>2012-11-04T09:38:11.000Z</time>
      </trkpt>
      <trkpt lat="46.70691" lon="4.80814">
        <ele>215</ele>
        <time>2012-11-04T09:38:13.000Z</time>
      </trkpt>
      <trkpt lat="46.70723" lon="4.80741">
        <ele>215</ele>
        <time>2012-11-04T09:38:23.000Z</time>
      </trkpt>
      <trkpt lat="46.70751" lon="4.80672">
        <ele>215</ele>
        <time>2012-11-04T09:38:34.000Z</time>
      </trkpt>
      <trkpt lat="46.70781" lon="4.80604">
        <ele>216</ele>
        <time>2012-11-04T09:38:47.000Z</time>
      </trkpt>
      <trkpt lat="46.70805" lon="4.80548">
        <ele>216</ele>
        <time>2012-11-04T09:38:59.000Z</time>
      </trkpt>
      <trkpt lat="46.70805" lon="4.80545">
        <ele>216</ele>
        <time>2012-11-04T09:39:01.000Z</time>
      </trkpt>
      <trkpt lat="46.70805" lon="4.80542">
        <ele>216</ele>
        <time>2012-11-04T09:39:04.000Z</time>
      </trkpt>
      <trkpt lat="46.7081" lon="4.80535">
        <ele>216</ele>
        <time>2012-11-04T09:39:07.000Z</time>
      </trkpt>
      <trkpt lat="46.70819" lon="4.80527">
        <ele>216</ele>
        <time>2012-11-04T09:39:10.000Z</time>
      </trkpt>
      <trkpt lat="46.70826" lon="4.80518">
        <ele>216</ele>
        <time>2012-11-04T09:39:14.000Z</time>
      </trkpt>
      <trkpt lat="46.70828" lon="4.80508">
        <ele>216</ele>
        <time>2012-11-04T09:39:17.000Z</time>
      </trkpt>
      <trkpt lat="46.70829" lon="4.80499">
        <ele>216</ele>
        <time>2012-11-04T09:39:20.000Z</time>
      </trkpt>
      <trkpt lat="46.7083" lon="4.80496">
        <ele>216</ele>
        <time>2012-11-04T09:39:22.000Z</time>
      </trkpt>
      <trkpt lat="46.70831" lon="4.80492">
        <ele>216</ele>
        <time>2012-11-04T09:39:24.000Z</time>
      </trkpt>
      <trkpt lat="46.70852" lon="4.80428">
        <ele>216</ele>
        <time>2012-11-04T09:39:42.000Z</time>
      </trkpt>
      <trkpt lat="46.70871" lon="4.80413">
        <ele>216</ele>
        <time>2012-11-04T09:39:47.000Z</time>
      </trkpt>
      <trkpt lat="46.70882" lon="4.80415">
        <ele>216</ele>
        <time>2012-11-04T09:39:49.000Z</time>
      </trkpt>
      <trkpt lat="46.70896" lon="4.80417">
        <ele>215</ele>
        <time>2012-11-04T09:39:52.000Z</time>
      </trkpt>
      <trkpt lat="46.70926" lon="4.80428">
        <ele>214</ele>
        <time>2012-11-04T09:39:56.000Z</time>
      </trkpt>
      <trkpt lat="46.70936" lon="4.80437">
        <ele>214</ele>
        <time>2012-11-04T09:39:59.000Z</time>
      </trkpt>
      <trkpt lat="46.70945" lon="4.80446">
        <ele>213</ele>
        <time>2012-11-04T09:40:01.000Z</time>
      </trkpt>
      <trkpt lat="46.70956" lon="4.80454">
        <ele>213</ele>
        <time>2012-11-04T09:40:03.000Z</time>
      </trkpt>
      <trkpt lat="46.70969" lon="4.80461">
        <ele>213</ele>
        <time>2012-11-04T09:40:05.000Z</time>
      </trkpt>
      <trkpt lat="46.7098" lon="4.80469">
        <ele>212</ele>
        <time>2012-11-04T09:40:07.000Z</time>
      </trkpt>
      <trkpt lat="46.71023" lon="4.80495">
        <ele>212</ele>
        <time>2012-11-04T09:40:15.000Z</time>
      </trkpt>
      <trkpt lat="46.71066" lon="4.80523">
        <ele>212</ele>
        <time>2012-11-04T09:40:23.000Z</time>
      </trkpt>
      <trkpt lat="46.71078" lon="4.80527">
        <ele>212</ele>
        <time>2012-11-04T09:40:26.000Z</time>
      </trkpt>
      <trkpt lat="46.71085" lon="4.80513">
        <ele>211</ele>
        <time>2012-11-04T09:40:29.000Z</time>
      </trkpt>
      <trkpt lat="46.71092" lon="4.80494">
        <ele>211</ele>
        <time>2012-11-04T09:40:32.000Z</time>
      </trkpt>
      <trkpt lat="46.71098" lon="4.80484">
        <ele>211</ele>
        <time>2012-11-04T09:40:34.000Z</time>
      </trkpt>
      <trkpt lat="46.71133" lon="4.8043">
        <ele>211</ele>
        <time>2012-11-04T09:40:43.000Z</time>
      </trkpt>
      <trkpt lat="46.71164" lon="4.80372">
        <ele>211</ele>
        <time>2012-11-04T09:40:50.000Z</time>
      </trkpt>
      <trkpt lat="46.71168" lon="4.80356">
        <ele>210</ele>
        <time>2012-11-04T09:40:52.000Z</time>
      </trkpt>
      <trkpt lat="46.71185" lon="4.80315">
        <ele>210</ele>
        <time>2012-11-04T09:40:57.000Z</time>
      </trkpt>
      <trkpt lat="46.7121" lon="4.8026">
        <ele>209</ele>
        <time>2012-11-04T09:41:04.000Z</time>
      </trkpt>
      <trkpt lat="46.71226" lon="4.80234">
        <ele>209</ele>
        <time>2012-11-04T09:41:07.000Z</time>
      </trkpt>
      <trkpt lat="46.71235" lon="4.80213">
        <ele>209</ele>
        <time>2012-11-04T09:41:09.000Z</time>
      </trkpt>
      <trkpt lat="46.71261" lon="4.8014">
        <ele>209</ele>
        <time>2012-11-04T09:41:16.000Z</time>
      </trkpt>
      <trkpt lat="46.71275" lon="4.80118">
        <ele>209</ele>
        <time>2012-11-04T09:41:19.000Z</time>
      </trkpt>
      <trkpt lat="46.71295" lon="4.80086">
        <ele>208</ele>
        <time>2012-11-04T09:41:23.000Z</time>
      </trkpt>
      <trkpt lat="46.71302" lon="4.80063">
        <ele>208</ele>
        <time>2012-11-04T09:41:26.000Z</time>
      </trkpt>
      <trkpt lat="46.71315" lon="4.80037">
        <ele>208</ele>
        <time>2012-11-04T09:41:29.000Z</time>
      </trkpt>
      <trkpt lat="46.71328" lon="4.80002">
        <ele>208</ele>
        <time>2012-11-04T09:41:33.000Z</time>
      </trkpt>
      <trkpt lat="46.71336" lon="4.7999">
        <ele>208</ele>
        <time>2012-11-04T09:41:35.000Z</time>
      </trkpt>
      <trkpt lat="46.71347" lon="4.79966">
        <ele>208</ele>
        <time>2012-11-04T09:41:38.000Z</time>
      </trkpt>
      <trkpt lat="46.71357" lon="4.79949">
        <ele>207</ele>
        <time>2012-11-04T09:41:40.000Z</time>
      </trkpt>
      <trkpt lat="46.71365" lon="4.79924">
        <ele>206</ele>
        <time>2012-11-04T09:41:43.000Z</time>
      </trkpt>
      <trkpt lat="46.71373" lon="4.79909">
        <ele>206</ele>
        <time>2012-11-04T09:41:45.000Z</time>
      </trkpt>
      <trkpt lat="46.71387" lon="4.79877">
        <ele>204</ele>
        <time>2012-11-04T09:41:48.000Z</time>
      </trkpt>
      <trkpt lat="46.71392" lon="4.79854">
        <ele>203</ele>
        <time>2012-11-04T09:41:51.000Z</time>
      </trkpt>
      <trkpt lat="46.71397" lon="4.7983">
        <ele>202</ele>
        <time>2012-11-04T09:41:54.000Z</time>
      </trkpt>
      <trkpt lat="46.714" lon="4.79804">
        <ele>200</ele>
        <time>2012-11-04T09:41:57.000Z</time>
      </trkpt>
      <trkpt lat="46.71402" lon="4.79784">
        <ele>199</ele>
        <time>2012-11-04T09:41:59.000Z</time>
      </trkpt>
      <trkpt lat="46.71411" lon="4.79746">
        <ele>197</ele>
        <time>2012-11-04T09:42:02.000Z</time>
      </trkpt>
      <trkpt lat="46.71416" lon="4.79724">
        <ele>196</ele>
        <time>2012-11-04T09:42:04.000Z</time>
      </trkpt>
      <trkpt lat="46.71431" lon="4.79671">
        <ele>195</ele>
        <time>2012-11-04T09:42:09.000Z</time>
      </trkpt>
      <trkpt lat="46.71436" lon="4.79641">
        <ele>194</ele>
        <time>2012-11-04T09:42:12.000Z</time>
      </trkpt>
      <trkpt lat="46.71446" lon="4.79584">
        <ele>193</ele>
        <time>2012-11-04T09:42:18.000Z</time>
      </trkpt>
      <trkpt lat="46.71457" lon="4.79555">
        <ele>192</ele>
        <time>2012-11-04T09:42:23.000Z</time>
      </trkpt>
      <trkpt lat="46.71465" lon="4.79551">
        <ele>192</ele>
        <time>2012-11-04T09:42:25.000Z</time>
      </trkpt>
      <trkpt lat="46.71477" lon="4.79544">
        <ele>191</ele>
        <time>2012-11-04T09:42:28.000Z</time>
      </trkpt>
      <trkpt lat="46.7149" lon="4.79539">
        <ele>191</ele>
        <time>2012-11-04T09:42:31.000Z</time>
      </trkpt>
      <trkpt lat="46.715" lon="4.79533">
        <ele>191</ele>
        <time>2012-11-04T09:42:33.000Z</time>
      </trkpt>
      <trkpt lat="46.71511" lon="4.79538">
        <ele>190</ele>
        <time>2012-11-04T09:42:35.000Z</time>
      </trkpt>
      <trkpt lat="46.71528" lon="4.79539">
        <ele>190</ele>
        <time>2012-11-04T09:42:38.000Z</time>
      </trkpt>
      <trkpt lat="46.71555" lon="4.79534">
        <ele>190</ele>
        <time>2012-11-04T09:42:43.000Z</time>
      </trkpt>
      <trkpt lat="46.71605" lon="4.79534">
        <ele>190</ele>
        <time>2012-11-04T09:42:52.000Z</time>
      </trkpt>
      <trkpt lat="46.71616" lon="4.79539">
        <ele>190</ele>
        <time>2012-11-04T09:42:54.000Z</time>
      </trkpt>
      <trkpt lat="46.71651" lon="4.79545">
        <ele>190</ele>
        <time>2012-11-04T09:43:00.000Z</time>
      </trkpt>
      <trkpt lat="46.71668" lon="4.79547">
        <ele>190</ele>
        <time>2012-11-04T09:43:03.000Z</time>
      </trkpt>
      <trkpt lat="46.71731" lon="4.79556">
        <ele>189</ele>
        <time>2012-11-04T09:43:13.000Z</time>
      </trkpt>
      <trkpt lat="46.71771" lon="4.79555">
        <ele>189</ele>
        <time>2012-11-04T09:43:19.000Z</time>
      </trkpt>
      <trkpt lat="46.71782" lon="4.79556">
        <ele>188</ele>
        <time>2012-11-04T09:43:22.000Z</time>
      </trkpt>
      <trkpt lat="46.7183" lon="4.79571">
        <ele>187</ele>
        <time>2012-11-04T09:43:29.000Z</time>
      </trkpt>
      <trkpt lat="46.7184" lon="4.7958">
        <ele>187</ele>
        <time>2012-11-04T09:43:31.000Z</time>
      </trkpt>
      <trkpt lat="46.71854" lon="4.7959">
        <ele>187</ele>
        <time>2012-11-04T09:43:34.000Z</time>
      </trkpt>
      <trkpt lat="46.7187" lon="4.79596">
        <ele>187</ele>
        <time>2012-11-04T09:43:37.000Z</time>
      </trkpt>
      <trkpt lat="46.71879" lon="4.79601">
        <ele>187</ele>
        <time>2012-11-04T09:43:39.000Z</time>
      </trkpt>
      <trkpt lat="46.71893" lon="4.79606">
        <ele>187</ele>
        <time>2012-11-04T09:43:42.000Z</time>
      </trkpt>
      <trkpt lat="46.71901" lon="4.79614">
        <ele>187</ele>
        <time>2012-11-04T09:43:44.000Z</time>
      </trkpt>
      <trkpt lat="46.71919" lon="4.79637">
        <ele>187</ele>
        <time>2012-11-04T09:43:47.000Z</time>
      </trkpt>
      <trkpt lat="46.71953" lon="4.79685">
        <ele>187</ele>
        <time>2012-11-04T09:43:55.000Z</time>
      </trkpt>
      <trkpt lat="46.71965" lon="4.79698">
        <ele>187</ele>
        <time>2012-11-04T09:43:58.000Z</time>
      </trkpt>
      <trkpt lat="46.71975" lon="4.79698">
        <ele>187</ele>
        <time>2012-11-04T09:44:00.000Z</time>
      </trkpt>
      <trkpt lat="46.72025" lon="4.797">
        <ele>186</ele>
        <time>2012-11-04T09:44:12.000Z</time>
      </trkpt>
      <trkpt lat="46.72036" lon="4.79688">
        <ele>186</ele>
        <time>2012-11-04T09:44:15.000Z</time>
      </trkpt>
      <trkpt lat="46.72052" lon="4.79668">
        <ele>185</ele>
        <time>2012-11-04T09:44:22.000Z</time>
      </trkpt>
      <trkpt lat="46.72055" lon="4.79661">
        <ele>185</ele>
        <time>2012-11-04T09:44:24.000Z</time>
      </trkpt>
      <trkpt lat="46.72062" lon="4.79652">
        <ele>185</ele>
        <time>2012-11-04T09:44:27.000Z</time>
      </trkpt>
      <trkpt lat="46.72068" lon="4.79636">
        <ele>185</ele>
        <time>2012-11-04T09:44:33.000Z</time>
      </trkpt>
      <trkpt lat="46.72067" lon="4.79628">
        <ele>184</ele>
        <time>2012-11-04T09:44:36.000Z</time>
      </trkpt>
      <trkpt lat="46.72071" lon="4.79622">
        <ele>184</ele>
        <time>2012-11-04T09:44:39.000Z</time>
      </trkpt>
      <trkpt lat="46.72071" lon="4.79616">
        <ele>184</ele>
        <time>2012-11-04T09:44:42.000Z</time>
      </trkpt>
      <trkpt lat="46.7207" lon="4.7961">
        <ele>184</ele>
        <time>2012-11-04T09:44:44.000Z</time>
      </trkpt>
      <trkpt lat="46.72061" lon="4.79556">
        <ele>185</ele>
        <time>2012-11-04T09:44:56.000Z</time>
      </trkpt>
      <trkpt lat="46.72052" lon="4.79544">
        <ele>185</ele>
        <time>2012-11-04T09:44:59.000Z</time>
      </trkpt>
      <trkpt lat="46.72037" lon="4.79511">
        <ele>185</ele>
        <time>2012-11-04T09:45:04.000Z</time>
      </trkpt>
      <trkpt lat="46.72034" lon="4.79496">
        <ele>186</ele>
        <time>2012-11-04T09:45:06.000Z</time>
      </trkpt>
      <trkpt lat="46.72029" lon="4.79456">
        <ele>187</ele>
        <time>2012-11-04T09:45:11.000Z</time>
      </trkpt>
      <trkpt lat="46.72039" lon="4.79439">
        <ele>188</ele>
        <time>2012-11-04T09:45:14.000Z</time>
      </trkpt>
      <trkpt lat="46.7205" lon="4.79436">
        <ele>188</ele>
        <time>2012-11-04T09:45:16.000Z</time>
      </trkpt>
      <trkpt lat="46.72062" lon="4.79434">
        <ele>188</ele>
        <time>2012-11-04T09:45:18.000Z</time>
      </trkpt>
      <trkpt lat="46.72113" lon="4.79421">
        <ele>187</ele>
        <time>2012-11-04T09:45:28.000Z</time>
      </trkpt>
      <trkpt lat="46.72123" lon="4.79413">
        <ele>187</ele>
        <time>2012-11-04T09:45:30.000Z</time>
      </trkpt>
      <trkpt lat="46.72129" lon="4.79408">
        <ele>186</ele>
        <time>2012-11-04T09:45:34.000Z</time>
      </trkpt>
      <trkpt lat="46.7213" lon="4.79404">
        <ele>186</ele>
        <time>2012-11-04T09:45:37.000Z</time>
      </trkpt>
      <trkpt lat="46.72131" lon="4.79397">
        <ele>186</ele>
        <time>2012-11-04T09:45:40.000Z</time>
      </trkpt>
      <trkpt lat="46.72136" lon="4.79386">
        <ele>186</ele>
        <time>2012-11-04T09:45:45.000Z</time>
      </trkpt>
      <trkpt lat="46.72144" lon="4.79364">
        <ele>186</ele>
        <time>2012-11-04T09:45:54.000Z</time>
      </trkpt>
      <trkpt lat="46.72144" lon="4.7936">
        <ele>186</ele>
        <time>2012-11-04T09:45:56.000Z</time>
      </trkpt>
      <trkpt lat="46.72144" lon="4.79348">
        <ele>187</ele>
        <time>2012-11-04T09:46:04.000Z</time>
      </trkpt>
      <trkpt lat="46.72142" lon="4.79341">
        <ele>187</ele>
        <time>2012-11-04T09:46:07.000Z</time>
      </trkpt>
      <trkpt lat="46.7214" lon="4.79336">
        <ele>187</ele>
        <time>2012-11-04T09:46:09.000Z</time>
      </trkpt>
      <trkpt lat="46.72145" lon="4.79342">
        <ele>187</ele>
        <time>2012-11-04T09:46:15.000Z</time>
      </trkpt>
      <trkpt lat="46.7215" lon="4.79354">
        <ele>187</ele>
        <time>2012-11-04T09:46:18.000Z</time>
      </trkpt>
      <trkpt lat="46.7216" lon="4.7936">
        <ele>187</ele>
        <time>2012-11-04T09:46:21.000Z</time>
      </trkpt>
      <trkpt lat="46.72169" lon="4.79356">
        <ele>186</ele>
        <time>2012-11-04T09:46:23.000Z</time>
      </trkpt>
      <trkpt lat="46.72184" lon="4.79343">
        <ele>186</ele>
        <time>2012-11-04T09:46:26.000Z</time>
      </trkpt>
      <trkpt lat="46.72192" lon="4.79341">
        <ele>185</ele>
        <time>2012-11-04T09:46:28.000Z</time>
      </trkpt>
      <trkpt lat="46.72203" lon="4.7934">
        <ele>185</ele>
        <time>2012-11-04T09:46:31.000Z</time>
      </trkpt>
      <trkpt lat="46.7221" lon="4.7935">
        <ele>185</ele>
        <time>2012-11-04T09:46:34.000Z</time>
      </trkpt>
      <trkpt lat="46.72217" lon="4.79353">
        <ele>184</ele>
        <time>2012-11-04T09:46:37.000Z</time>
      </trkpt>
      <trkpt lat="46.72222" lon="4.7935">
        <ele>184</ele>
        <time>2012-11-04T09:46:40.000Z</time>
      </trkpt>
      <trkpt lat="46.72226" lon="4.79347">
        <ele>184</ele>
        <time>2012-11-04T09:46:43.000Z</time>
      </trkpt>
      <trkpt lat="46.72227" lon="4.79356">
        <ele>184</ele>
        <time>2012-11-04T09:46:46.000Z</time>
      </trkpt>
      <trkpt lat="46.72224" lon="4.79363">
        <ele>183</ele>
        <time>2012-11-04T09:46:49.000Z</time>
      </trkpt>
      <trkpt lat="46.72223" lon="4.79361">
        <ele>183</ele>
        <time>2012-11-04T09:46:51.000Z</time>
      </trkpt>
      <trkpt lat="46.72219" lon="4.79358">
        <ele>183</ele>
        <time>2012-11-04T09:46:54.000Z</time>
      </trkpt>
      <trkpt lat="46.72212" lon="4.79358">
        <ele>183</ele>
        <time>2012-11-04T09:46:57.000Z</time>
      </trkpt>
      <trkpt lat="46.72205" lon="4.79356">
        <ele>184</ele>
        <time>2012-11-04T09:47:00.000Z</time>
      </trkpt>
      <trkpt lat="46.72202" lon="4.79349">
        <ele>184</ele>
        <time>2012-11-04T09:47:02.000Z</time>
      </trkpt>
      <trkpt lat="46.72192" lon="4.79328">
        <ele>184</ele>
        <time>2012-11-04T09:47:08.000Z</time>
      </trkpt>
      <trkpt lat="46.7218" lon="4.79332">
        <ele>185</ele>
        <time>2012-11-04T09:47:11.000Z</time>
      </trkpt>
      <trkpt lat="46.72174" lon="4.79337">
        <ele>185</ele>
        <time>2012-11-04T09:47:15.000Z</time>
      </trkpt>
      <trkpt lat="46.7217" lon="4.79342">
        <ele>185</ele>
        <time>2012-11-04T09:47:18.000Z</time>
      </trkpt>
      <trkpt lat="46.72167" lon="4.79344">
        <ele>186</ele>
        <time>2012-11-04T09:47:20.000Z</time>
      </trkpt>
      <trkpt lat="46.72163" lon="4.79346">
        <ele>186</ele>
        <time>2012-11-04T09:47:22.000Z</time>
      </trkpt>
      <trkpt lat="46.72162" lon="4.79347">
        <ele>186</ele>
        <time>2012-11-04T09:47:25.000Z</time>
      </trkpt>
      <trkpt lat="46.72162" lon="4.79347">
        <ele>186</ele>
        <time>2012-11-04T09:47:35.000Z</time>
      </trkpt>
      <trkpt lat="46.72158" lon="4.79346">
        <ele>186</ele>
        <time>2012-11-04T09:47:36.000Z</time>
      </trkpt>
      <trkpt lat="46.72156" lon="4.79346">
        <ele>186</ele>
        <time>2012-11-04T09:47:38.000Z</time>
      </trkpt>
      <trkpt lat="46.72153" lon="4.79349">
        <ele>186</ele>
        <time>2012-11-04T09:47:41.000Z</time>
      </trkpt>
      <trkpt lat="46.72154" lon="4.79353">
        <ele>186</ele>
        <time>2012-11-04T09:47:44.000Z</time>
      </trkpt>
      <trkpt lat="46.72155" lon="4.79363">
        <ele>186</ele>
        <time>2012-11-04T09:47:49.000Z</time>
      </trkpt>
      <trkpt lat="46.72156" lon="4.79368">
        <ele>186</ele>
        <time>2012-11-04T09:47:52.000Z</time>
      </trkpt>
      <trkpt lat="46.72157" lon="4.79369">
        <ele>186</ele>
        <time>2012-11-04T09:47:55.000Z</time>
      </trkpt>
      <trkpt lat="46.7216" lon="4.79365">
        <ele>186</ele>
        <time>2012-11-04T09:47:58.000Z</time>
      </trkpt>
      <trkpt lat="46.72161" lon="4.79364">
        <ele>186</ele>
        <time>2012-11-04T09:48:00.000Z</time>
      </trkpt>
      <trkpt lat="46.72156" lon="4.79365">
        <ele>186</ele>
        <time>2012-11-04T09:48:03.000Z</time>
      </trkpt>
      <trkpt lat="46.72156" lon="4.79365">
        <ele>186</ele>
        <time>2012-11-04T09:48:13.000Z</time>
      </trkpt>
      <trkpt lat="46.72156" lon="4.79365">
        <ele>186</ele>
        <time>2012-11-04T09:48:15.000Z</time>
      </trkpt>
    </trkseg>
  </trk>
</gpx>